<?xml version="1.0" encoding="UTF-8" standalone="no" ?>
<gpx xmlns="http://www.topografix.com/GPX/1/1" xmlns:xsi="http://www.w3.org/2001/XMLSchema-instance" xsi:schemaLocation="http://www.topografix.com/GPX/1/1 http://www.topografix.com/GPX/1/1/gpx.xsd" version="1.1" creator="VisuGPX - https://www.visugpx.com">
  <metadata>
    <name>Rando</name>
  </metadata>
  <trk>
    <name><![CDATA[11799674-28/07/2020 Du lac de Longemer au lac de Blanchemer]]></name>
    <trkseg>
      <trkpt lat="48.06402" lon="6.95331">
        <ele>756</ele>
        <time>2020-08-03T12:14:29Z</time>
      </trkpt>
      <trkpt lat="48.06405" lon="6.95332">
        <ele>754</ele>
        <time>2020-08-03T12:14:33Z</time>
      </trkpt>
      <trkpt lat="48.064" lon="6.95336">
        <ele>755</ele>
        <time>2020-08-03T12:14:41Z</time>
      </trkpt>
      <trkpt lat="48.06418" lon="6.95298">
        <ele>757</ele>
        <time>2020-08-03T12:15:22Z</time>
      </trkpt>
      <trkpt lat="48.06426" lon="6.95299">
        <ele>755</ele>
        <time>2020-08-03T12:15:33Z</time>
      </trkpt>
      <trkpt lat="48.0642" lon="6.95302">
        <ele>755</ele>
        <time>2020-08-03T12:15:41Z</time>
      </trkpt>
      <trkpt lat="48.06405" lon="6.95324">
        <ele>756</ele>
        <time>2020-08-03T12:16:09Z</time>
      </trkpt>
      <trkpt lat="48.06402" lon="6.95339">
        <ele>754</ele>
        <time>2020-08-03T12:16:23Z</time>
      </trkpt>
      <trkpt lat="48.06426" lon="6.95305">
        <ele>753</ele>
        <time>2020-08-03T12:17:07Z</time>
      </trkpt>
      <trkpt lat="48.06437" lon="6.95281">
        <ele>756</ele>
        <time>2020-08-03T12:17:33Z</time>
      </trkpt>
      <trkpt lat="48.06441" lon="6.95258">
        <ele>760</ele>
        <time>2020-08-03T12:17:55Z</time>
      </trkpt>
      <trkpt lat="48.06512" lon="6.95145">
        <ele>754</ele>
        <time>2020-08-03T12:20:13Z</time>
      </trkpt>
      <trkpt lat="48.06527" lon="6.95106">
        <ele>756</ele>
        <time>2020-08-03T12:20:53Z</time>
      </trkpt>
      <trkpt lat="48.06549" lon="6.95076">
        <ele>754</ele>
        <time>2020-08-03T12:21:33Z</time>
      </trkpt>
      <trkpt lat="48.06565" lon="6.95044">
        <ele>755</ele>
        <time>2020-08-03T12:22:08Z</time>
      </trkpt>
      <trkpt lat="48.06632" lon="6.94976">
        <ele>752</ele>
        <time>2020-08-03T12:23:56Z</time>
      </trkpt>
      <trkpt lat="48.06683" lon="6.94915">
        <ele>752</ele>
        <time>2020-08-03T12:25:24Z</time>
      </trkpt>
      <trkpt lat="48.06694" lon="6.94889">
        <ele>755</ele>
        <time>2020-08-03T12:25:51Z</time>
      </trkpt>
      <trkpt lat="48.06727" lon="6.94844">
        <ele>754</ele>
        <time>2020-08-03T12:26:51Z</time>
      </trkpt>
      <trkpt lat="48.0673" lon="6.94831">
        <ele>754</ele>
        <time>2020-08-03T12:27:03Z</time>
      </trkpt>
      <trkpt lat="48.06739" lon="6.94819">
        <ele>753</ele>
        <time>2020-08-03T12:27:19Z</time>
      </trkpt>
      <trkpt lat="48.0674" lon="6.94809">
        <ele>754</ele>
        <time>2020-08-03T12:27:28Z</time>
      </trkpt>
      <trkpt lat="48.06734" lon="6.94803">
        <ele>757</ele>
        <time>2020-08-03T12:27:38Z</time>
      </trkpt>
      <trkpt lat="48.06701" lon="6.94804">
        <ele>766</ele>
        <time>2020-08-03T12:28:22Z</time>
      </trkpt>
      <trkpt lat="48.0668" lon="6.94761">
        <ele>778</ele>
        <time>2020-08-03T12:29:09Z</time>
      </trkpt>
      <trkpt lat="48.06664" lon="6.94745">
        <ele>784</ele>
        <time>2020-08-03T12:29:35Z</time>
      </trkpt>
      <trkpt lat="48.0663" lon="6.94737">
        <ele>790</ele>
        <time>2020-08-03T12:30:21Z</time>
      </trkpt>
      <trkpt lat="48.06617" lon="6.94729">
        <ele>792</ele>
        <time>2020-08-03T12:30:40Z</time>
      </trkpt>
      <trkpt lat="48.06608" lon="6.94732">
        <ele>793</ele>
        <time>2020-08-03T12:30:52Z</time>
      </trkpt>
      <trkpt lat="48.0661" lon="6.94725">
        <ele>793</ele>
        <time>2020-08-03T12:30:59Z</time>
      </trkpt>
      <trkpt lat="48.06579" lon="6.9474">
        <ele>797</ele>
        <time>2020-08-03T12:31:42Z</time>
      </trkpt>
      <trkpt lat="48.06573" lon="6.94752">
        <ele>798</ele>
        <time>2020-08-03T12:31:55Z</time>
      </trkpt>
      <trkpt lat="48.06543" lon="6.94771">
        <ele>801</ele>
        <time>2020-08-03T12:32:39Z</time>
      </trkpt>
      <trkpt lat="48.06515" lon="6.94779">
        <ele>805</ele>
        <time>2020-08-03T12:33:17Z</time>
      </trkpt>
      <trkpt lat="48.0649" lon="6.94798">
        <ele>811</ele>
        <time>2020-08-03T12:33:54Z</time>
      </trkpt>
      <trkpt lat="48.06441" lon="6.94812">
        <ele>823</ele>
        <time>2020-08-03T12:35:01Z</time>
      </trkpt>
      <trkpt lat="48.06429" lon="6.9482">
        <ele>827</ele>
        <time>2020-08-03T12:35:18Z</time>
      </trkpt>
      <trkpt lat="48.06423" lon="6.94819">
        <ele>828</ele>
        <time>2020-08-03T12:35:27Z</time>
      </trkpt>
      <trkpt lat="48.06417" lon="6.94827">
        <ele>831</ele>
        <time>2020-08-03T12:35:37Z</time>
      </trkpt>
      <trkpt lat="48.06405" lon="6.9483">
        <ele>836</ele>
        <time>2020-08-03T12:35:53Z</time>
      </trkpt>
      <trkpt lat="48.06391" lon="6.94831">
        <ele>841</ele>
        <time>2020-08-03T12:36:12Z</time>
      </trkpt>
      <trkpt lat="48.06367" lon="6.94817">
        <ele>847</ele>
        <time>2020-08-03T12:36:47Z</time>
      </trkpt>
      <trkpt lat="48.06357" lon="6.94829">
        <ele>854</ele>
        <time>2020-08-03T12:37:04Z</time>
      </trkpt>
      <trkpt lat="48.06352" lon="6.94818">
        <ele>853</ele>
        <time>2020-08-03T12:37:16Z</time>
      </trkpt>
      <trkpt lat="48.06344" lon="6.94817">
        <ele>856</ele>
        <time>2020-08-03T12:37:26Z</time>
      </trkpt>
      <trkpt lat="48.06339" lon="6.94825">
        <ele>860</ele>
        <time>2020-08-03T12:37:36Z</time>
      </trkpt>
      <trkpt lat="48.06329" lon="6.94825">
        <ele>863</ele>
        <time>2020-08-03T12:37:49Z</time>
      </trkpt>
      <trkpt lat="48.06324" lon="6.9482">
        <ele>863</ele>
        <time>2020-08-03T12:37:57Z</time>
      </trkpt>
      <trkpt lat="48.06308" lon="6.94818">
        <ele>868</ele>
        <time>2020-08-03T12:38:19Z</time>
      </trkpt>
      <trkpt lat="48.06302" lon="6.94812">
        <ele>868</ele>
        <time>2020-08-03T12:38:28Z</time>
      </trkpt>
      <trkpt lat="48.06271" lon="6.9481">
        <ele>876</ele>
        <time>2020-08-03T12:39:10Z</time>
      </trkpt>
      <trkpt lat="48.06273" lon="6.94797">
        <ele>871</ele>
        <time>2020-08-03T12:39:22Z</time>
      </trkpt>
      <trkpt lat="48.06271" lon="6.9481">
        <ele>876</ele>
        <time>2020-08-03T12:39:34Z</time>
      </trkpt>
      <trkpt lat="48.06272" lon="6.94801">
        <ele>873</ele>
        <time>2020-08-03T12:39:42Z</time>
      </trkpt>
      <trkpt lat="48.06247" lon="6.9481">
        <ele>884</ele>
        <time>2020-08-03T12:40:16Z</time>
      </trkpt>
      <trkpt lat="48.06234" lon="6.94821">
        <ele>892</ele>
        <time>2020-08-03T12:40:36Z</time>
      </trkpt>
      <trkpt lat="48.06248" lon="6.94828">
        <ele>890</ele>
        <time>2020-08-03T12:40:56Z</time>
      </trkpt>
      <trkpt lat="48.06267" lon="6.94852">
        <ele>891</ele>
        <time>2020-08-03T12:41:29Z</time>
      </trkpt>
      <trkpt lat="48.06262" lon="6.94869">
        <ele>898</ele>
        <time>2020-08-03T12:41:45Z</time>
      </trkpt>
      <trkpt lat="48.06268" lon="6.94895">
        <ele>902</ele>
        <time>2020-08-03T12:42:10Z</time>
      </trkpt>
      <trkpt lat="48.06267" lon="6.94916">
        <ele>908</ele>
        <time>2020-08-03T12:42:29Z</time>
      </trkpt>
      <trkpt lat="48.06272" lon="6.94947">
        <ele>909</ele>
        <time>2020-08-03T12:42:57Z</time>
      </trkpt>
      <trkpt lat="48.06265" lon="6.94948">
        <ele>913</ele>
        <time>2020-08-03T12:43:07Z</time>
      </trkpt>
      <trkpt lat="48.06258" lon="6.94967">
        <ele>919</ele>
        <time>2020-08-03T12:43:26Z</time>
      </trkpt>
      <trkpt lat="48.06262" lon="6.94982">
        <ele>919</ele>
        <time>2020-08-03T12:43:40Z</time>
      </trkpt>
      <trkpt lat="48.06253" lon="6.94984">
        <ele>925</ele>
        <time>2020-08-03T12:43:52Z</time>
      </trkpt>
      <trkpt lat="48.06242" lon="6.94976">
        <ele>929</ele>
        <time>2020-08-03T12:44:09Z</time>
      </trkpt>
      <trkpt lat="48.06238" lon="6.94982">
        <ele>932</ele>
        <time>2020-08-03T12:44:16Z</time>
      </trkpt>
      <trkpt lat="48.06242" lon="6.94984">
        <ele>930</ele>
        <time>2020-08-03T12:44:22Z</time>
      </trkpt>
      <trkpt lat="48.06234" lon="6.94981">
        <ele>934</ele>
        <time>2020-08-03T12:44:33Z</time>
      </trkpt>
      <trkpt lat="48.06236" lon="6.94984">
        <ele>933</ele>
        <time>2020-08-03T12:44:37Z</time>
      </trkpt>
      <trkpt lat="48.06231" lon="6.94989">
        <ele>936</ele>
        <time>2020-08-03T12:44:45Z</time>
      </trkpt>
      <trkpt lat="48.0623" lon="6.95006">
        <ele>938</ele>
        <time>2020-08-03T12:45:00Z</time>
      </trkpt>
      <trkpt lat="48.06226" lon="6.95011">
        <ele>940</ele>
        <time>2020-08-03T12:45:07Z</time>
      </trkpt>
      <trkpt lat="48.06229" lon="6.95002">
        <ele>939</ele>
        <time>2020-08-03T12:45:16Z</time>
      </trkpt>
      <trkpt lat="48.06182" lon="6.9503">
        <ele>961</ele>
        <time>2020-08-03T12:46:23Z</time>
      </trkpt>
      <trkpt lat="48.06168" lon="6.95053">
        <ele>969</ele>
        <time>2020-08-03T12:46:51Z</time>
      </trkpt>
      <trkpt lat="48.06153" lon="6.95053">
        <ele>972</ele>
        <time>2020-08-03T12:47:11Z</time>
      </trkpt>
      <trkpt lat="48.06147" lon="6.95081">
        <ele>973</ele>
        <time>2020-08-03T12:47:37Z</time>
      </trkpt>
      <trkpt lat="48.06154" lon="6.95096">
        <ele>969</ele>
        <time>2020-08-03T12:47:54Z</time>
      </trkpt>
      <trkpt lat="48.06156" lon="6.95094">
        <ele>969</ele>
        <time>2020-08-03T12:47:57Z</time>
      </trkpt>
      <trkpt lat="48.06135" lon="6.95075">
        <ele>975</ele>
        <time>2020-08-03T12:48:30Z</time>
      </trkpt>
      <trkpt lat="48.06116" lon="6.95069">
        <ele>979</ele>
        <time>2020-08-03T12:48:56Z</time>
      </trkpt>
      <trkpt lat="48.06109" lon="6.95061">
        <ele>980</ele>
        <time>2020-08-03T12:49:07Z</time>
      </trkpt>
      <trkpt lat="48.06094" lon="6.9503">
        <ele>985</ele>
        <time>2020-08-03T12:49:42Z</time>
      </trkpt>
      <trkpt lat="48.06094" lon="6.95004">
        <ele>986</ele>
        <time>2020-08-03T12:50:05Z</time>
      </trkpt>
      <trkpt lat="48.06086" lon="6.94989">
        <ele>987</ele>
        <time>2020-08-03T12:50:22Z</time>
      </trkpt>
      <trkpt lat="48.06074" lon="6.94987">
        <ele>988</ele>
        <time>2020-08-03T12:50:38Z</time>
      </trkpt>
      <trkpt lat="48.06054" lon="6.94996">
        <ele>991</ele>
        <time>2020-08-03T12:51:06Z</time>
      </trkpt>
      <trkpt lat="48.06036" lon="6.94991">
        <ele>992</ele>
        <time>2020-08-03T12:51:30Z</time>
      </trkpt>
      <trkpt lat="48.06013" lon="6.94991">
        <ele>995</ele>
        <time>2020-08-03T12:52:01Z</time>
      </trkpt>
      <trkpt lat="48.05999" lon="6.94998">
        <ele>997</ele>
        <time>2020-08-03T12:52:21Z</time>
      </trkpt>
      <trkpt lat="48.06007" lon="6.94987">
        <ele>995</ele>
        <time>2020-08-03T12:52:35Z</time>
      </trkpt>
      <trkpt lat="48.05977" lon="6.94987">
        <ele>999</ele>
        <time>2020-08-03T12:53:15Z</time>
      </trkpt>
      <trkpt lat="48.05945" lon="6.94976">
        <ele>1004</ele>
        <time>2020-08-03T12:53:59Z</time>
      </trkpt>
      <trkpt lat="48.05913" lon="6.94957">
        <ele>1008</ele>
        <time>2020-08-03T12:54:45Z</time>
      </trkpt>
      <trkpt lat="48.05902" lon="6.94937">
        <ele>1008</ele>
        <time>2020-08-03T12:55:08Z</time>
      </trkpt>
      <trkpt lat="48.05874" lon="6.94915">
        <ele>1009</ele>
        <time>2020-08-03T12:55:50Z</time>
      </trkpt>
      <trkpt lat="48.05869" lon="6.94901">
        <ele>1009</ele>
        <time>2020-08-03T12:56:04Z</time>
      </trkpt>
      <trkpt lat="48.05857" lon="6.94898">
        <ele>1010</ele>
        <time>2020-08-03T12:56:21Z</time>
      </trkpt>
      <trkpt lat="48.05836" lon="6.94862">
        <ele>1010</ele>
        <time>2020-08-03T12:57:03Z</time>
      </trkpt>
      <trkpt lat="48.05834" lon="6.94848">
        <ele>1009</ele>
        <time>2020-08-03T12:57:16Z</time>
      </trkpt>
      <trkpt lat="48.05819" lon="6.94838">
        <ele>1009</ele>
        <time>2020-08-03T12:57:38Z</time>
      </trkpt>
      <trkpt lat="48.0581" lon="6.94825">
        <ele>1009</ele>
        <time>2020-08-03T12:57:55Z</time>
      </trkpt>
      <trkpt lat="48.05773" lon="6.94798">
        <ele>1011</ele>
        <time>2020-08-03T12:58:50Z</time>
      </trkpt>
      <trkpt lat="48.05755" lon="6.94793">
        <ele>1012</ele>
        <time>2020-08-03T12:59:14Z</time>
      </trkpt>
      <trkpt lat="48.0574" lon="6.94797">
        <ele>1012</ele>
        <time>2020-08-03T12:59:34Z</time>
      </trkpt>
      <trkpt lat="48.05734" lon="6.94793">
        <ele>1012</ele>
        <time>2020-08-03T12:59:43Z</time>
      </trkpt>
      <trkpt lat="48.05721" lon="6.94793">
        <ele>1011</ele>
        <time>2020-08-03T13:00:00Z</time>
      </trkpt>
      <trkpt lat="48.05715" lon="6.94786">
        <ele>1011</ele>
        <time>2020-08-03T13:00:11Z</time>
      </trkpt>
      <trkpt lat="48.05704" lon="6.94782">
        <ele>1010</ele>
        <time>2020-08-03T13:00:26Z</time>
      </trkpt>
      <trkpt lat="48.05693" lon="6.94787">
        <ele>1010</ele>
        <time>2020-08-03T13:00:41Z</time>
      </trkpt>
      <trkpt lat="48.05672" lon="6.94768">
        <ele>1007</ele>
        <time>2020-08-03T13:01:14Z</time>
      </trkpt>
      <trkpt lat="48.05654" lon="6.94775">
        <ele>1004</ele>
        <time>2020-08-03T13:01:39Z</time>
      </trkpt>
      <trkpt lat="48.05648" lon="6.94785">
        <ele>1004</ele>
        <time>2020-08-03T13:01:51Z</time>
      </trkpt>
      <trkpt lat="48.05638" lon="6.94791">
        <ele>1002</ele>
        <time>2020-08-03T13:02:05Z</time>
      </trkpt>
      <trkpt lat="48.05623" lon="6.94819">
        <ele>1004</ele>
        <time>2020-08-03T13:02:37Z</time>
      </trkpt>
      <trkpt lat="48.05622" lon="6.94814">
        <ele>1003</ele>
        <time>2020-08-03T13:02:42Z</time>
      </trkpt>
      <trkpt lat="48.05616" lon="6.9482">
        <ele>1003</ele>
        <time>2020-08-03T13:02:51Z</time>
      </trkpt>
      <trkpt lat="48.05611" lon="6.94818">
        <ele>1001</ele>
        <time>2020-08-03T13:02:58Z</time>
      </trkpt>
      <trkpt lat="48.056" lon="6.94823">
        <ele>1000</ele>
        <time>2020-08-03T13:03:14Z</time>
      </trkpt>
      <trkpt lat="48.05582" lon="6.94843">
        <ele>1001</ele>
        <time>2020-08-03T13:03:43Z</time>
      </trkpt>
      <trkpt lat="48.05557" lon="6.94843">
        <ele>994</ele>
        <time>2020-08-03T13:04:17Z</time>
      </trkpt>
      <trkpt lat="48.05543" lon="6.94856">
        <ele>994</ele>
        <time>2020-08-03T13:04:39Z</time>
      </trkpt>
      <trkpt lat="48.05534" lon="6.94854">
        <ele>991</ele>
        <time>2020-08-03T13:04:51Z</time>
      </trkpt>
      <trkpt lat="48.05537" lon="6.94849">
        <ele>990</ele>
        <time>2020-08-03T13:04:57Z</time>
      </trkpt>
      <trkpt lat="48.05542" lon="6.94849">
        <ele>992</ele>
        <time>2020-08-03T13:05:04Z</time>
      </trkpt>
      <trkpt lat="48.0555" lon="6.94829">
        <ele>988</ele>
        <time>2020-08-03T13:05:24Z</time>
      </trkpt>
      <trkpt lat="48.05536" lon="6.9482">
        <ele>982</ele>
        <time>2020-08-03T13:05:45Z</time>
      </trkpt>
      <trkpt lat="48.05552" lon="6.9484">
        <ele>992</ele>
        <time>2020-08-03T13:06:13Z</time>
      </trkpt>
      <trkpt lat="48.05538" lon="6.94849">
        <ele>991</ele>
        <time>2020-08-03T13:06:33Z</time>
      </trkpt>
      <trkpt lat="48.05522" lon="6.94851">
        <ele>987</ele>
        <time>2020-08-03T13:06:54Z</time>
      </trkpt>
      <trkpt lat="48.0551" lon="6.94858">
        <ele>986</ele>
        <time>2020-08-03T13:07:11Z</time>
      </trkpt>
      <trkpt lat="48.05495" lon="6.94856">
        <ele>982</ele>
        <time>2020-08-03T13:07:32Z</time>
      </trkpt>
      <trkpt lat="48.05477" lon="6.94864">
        <ele>978</ele>
        <time>2020-08-03T13:07:57Z</time>
      </trkpt>
      <trkpt lat="48.05463" lon="6.94861">
        <ele>973</ele>
        <time>2020-08-03T13:08:16Z</time>
      </trkpt>
      <trkpt lat="48.05437" lon="6.94874">
        <ele>969</ele>
        <time>2020-08-03T13:08:52Z</time>
      </trkpt>
      <trkpt lat="48.05435" lon="6.94869">
        <ele>966</ele>
        <time>2020-08-03T13:08:57Z</time>
      </trkpt>
      <trkpt lat="48.05429" lon="6.9487">
        <ele>965</ele>
        <time>2020-08-03T13:09:05Z</time>
      </trkpt>
      <trkpt lat="48.05415" lon="6.94883">
        <ele>965</ele>
        <time>2020-08-03T13:09:27Z</time>
      </trkpt>
      <trkpt lat="48.05399" lon="6.94886">
        <ele>962</ele>
        <time>2020-08-03T13:09:49Z</time>
      </trkpt>
      <trkpt lat="48.05397" lon="6.9489">
        <ele>963</ele>
        <time>2020-08-03T13:09:53Z</time>
      </trkpt>
      <trkpt lat="48.05378" lon="6.94883">
        <ele>955</ele>
        <time>2020-08-03T13:10:19Z</time>
      </trkpt>
      <trkpt lat="48.05362" lon="6.94871">
        <ele>948</ele>
        <time>2020-08-03T13:10:43Z</time>
      </trkpt>
      <trkpt lat="48.05353" lon="6.94845">
        <ele>938</ele>
        <time>2020-08-03T13:11:09Z</time>
      </trkpt>
      <trkpt lat="48.0535" lon="6.94843">
        <ele>937</ele>
        <time>2020-08-03T13:11:14Z</time>
      </trkpt>
      <trkpt lat="48.05347" lon="6.94848">
        <ele>938</ele>
        <time>2020-08-03T13:11:20Z</time>
      </trkpt>
      <trkpt lat="48.05343" lon="6.94838">
        <ele>934</ele>
        <time>2020-08-03T13:11:30Z</time>
      </trkpt>
      <trkpt lat="48.05311" lon="6.94824">
        <ele>927</ele>
        <time>2020-08-03T13:12:15Z</time>
      </trkpt>
      <trkpt lat="48.05316" lon="6.94828">
        <ele>928</ele>
        <time>2020-08-03T13:12:22Z</time>
      </trkpt>
      <trkpt lat="48.05316" lon="6.94815">
        <ele>926</ele>
        <time>2020-08-03T13:12:34Z</time>
      </trkpt>
      <trkpt lat="48.05322" lon="6.94807">
        <ele>926</ele>
        <time>2020-08-03T13:12:45Z</time>
      </trkpt>
      <trkpt lat="48.05315" lon="6.9479">
        <ele>923</ele>
        <time>2020-08-03T13:13:02Z</time>
      </trkpt>
      <trkpt lat="48.05326" lon="6.94782">
        <ele>923</ele>
        <time>2020-08-03T13:13:19Z</time>
      </trkpt>
      <trkpt lat="48.05333" lon="6.94787">
        <ele>924</ele>
        <time>2020-08-03T13:13:29Z</time>
      </trkpt>
      <trkpt lat="48.05336" lon="6.94785">
        <ele>924</ele>
        <time>2020-08-03T13:13:33Z</time>
      </trkpt>
      <trkpt lat="48.05338" lon="6.94768">
        <ele>922</ele>
        <time>2020-08-03T13:13:49Z</time>
      </trkpt>
      <trkpt lat="48.05335" lon="6.94762">
        <ele>921</ele>
        <time>2020-08-03T13:13:56Z</time>
      </trkpt>
      <trkpt lat="48.05357" lon="6.94754">
        <ele>922</ele>
        <time>2020-08-03T13:14:26Z</time>
      </trkpt>
      <trkpt lat="48.05365" lon="6.94743">
        <ele>921</ele>
        <time>2020-08-03T13:14:40Z</time>
      </trkpt>
      <trkpt lat="48.05391" lon="6.94733">
        <ele>922</ele>
        <time>2020-08-03T13:15:16Z</time>
      </trkpt>
      <trkpt lat="48.05407" lon="6.94734">
        <ele>923</ele>
        <time>2020-08-03T13:15:37Z</time>
      </trkpt>
      <trkpt lat="48.05405" lon="6.94714">
        <ele>921</ele>
        <time>2020-08-03T13:15:55Z</time>
      </trkpt>
      <trkpt lat="48.0541" lon="6.9473">
        <ele>923</ele>
        <time>2020-08-03T13:16:11Z</time>
      </trkpt>
      <trkpt lat="48.05415" lon="6.94728">
        <ele>923</ele>
        <time>2020-08-03T13:16:18Z</time>
      </trkpt>
      <trkpt lat="48.05435" lon="6.94689">
        <ele>923</ele>
        <time>2020-08-03T13:17:02Z</time>
      </trkpt>
      <trkpt lat="48.05442" lon="6.94686">
        <ele>924</ele>
        <time>2020-08-03T13:17:12Z</time>
      </trkpt>
      <trkpt lat="48.05448" lon="6.94676">
        <ele>924</ele>
        <time>2020-08-03T13:17:24Z</time>
      </trkpt>
      <trkpt lat="48.05447" lon="6.94671">
        <ele>923</ele>
        <time>2020-08-03T13:17:28Z</time>
      </trkpt>
      <trkpt lat="48.05473" lon="6.94625">
        <ele>922</ele>
        <time>2020-08-03T13:18:22Z</time>
      </trkpt>
      <trkpt lat="48.05487" lon="6.94616">
        <ele>923</ele>
        <time>2020-08-03T13:18:42Z</time>
      </trkpt>
      <trkpt lat="48.05481" lon="6.94608">
        <ele>921</ele>
        <time>2020-08-03T13:18:53Z</time>
      </trkpt>
      <trkpt lat="48.05505" lon="6.94617">
        <ele>927</ele>
        <time>2020-08-03T13:19:26Z</time>
      </trkpt>
      <trkpt lat="48.05518" lon="6.94614">
        <ele>929</ele>
        <time>2020-08-03T13:19:44Z</time>
      </trkpt>
      <trkpt lat="48.05541" lon="6.94601">
        <ele>932</ele>
        <time>2020-08-03T13:20:17Z</time>
      </trkpt>
      <trkpt lat="48.05572" lon="6.94575">
        <ele>933</ele>
        <time>2020-08-03T13:21:04Z</time>
      </trkpt>
      <trkpt lat="48.05578" lon="6.94575">
        <ele>934</ele>
        <time>2020-08-03T13:21:12Z</time>
      </trkpt>
      <trkpt lat="48.05589" lon="6.94567">
        <ele>935</ele>
        <time>2020-08-03T13:21:28Z</time>
      </trkpt>
      <trkpt lat="48.0561" lon="6.94536">
        <ele>937</ele>
        <time>2020-08-03T13:22:08Z</time>
      </trkpt>
      <trkpt lat="48.05623" lon="6.94526">
        <ele>938</ele>
        <time>2020-08-03T13:22:27Z</time>
      </trkpt>
      <trkpt lat="48.05648" lon="6.94486">
        <ele>938</ele>
        <time>2020-08-03T13:23:16Z</time>
      </trkpt>
      <trkpt lat="48.05655" lon="6.94465">
        <ele>937</ele>
        <time>2020-08-03T13:23:37Z</time>
      </trkpt>
      <trkpt lat="48.05653" lon="6.94391">
        <ele>931</ele>
        <time>2020-08-03T13:24:43Z</time>
      </trkpt>
      <trkpt lat="48.05661" lon="6.94376">
        <ele>933</ele>
        <time>2020-08-03T13:25:00Z</time>
      </trkpt>
      <trkpt lat="48.05655" lon="6.94342">
        <ele>932</ele>
        <time>2020-08-03T13:25:31Z</time>
      </trkpt>
      <trkpt lat="48.0566" lon="6.94312">
        <ele>937</ele>
        <time>2020-08-03T13:25:59Z</time>
      </trkpt>
      <trkpt lat="48.05656" lon="6.94304">
        <ele>938</ele>
        <time>2020-08-03T13:26:08Z</time>
      </trkpt>
      <trkpt lat="48.05638" lon="6.94307">
        <ele>934</ele>
        <time>2020-08-03T13:26:32Z</time>
      </trkpt>
      <trkpt lat="48.05614" lon="6.94286">
        <ele>934</ele>
        <time>2020-08-03T13:27:09Z</time>
      </trkpt>
      <trkpt lat="48.05611" lon="6.94286">
        <ele>933</ele>
        <time>2020-08-03T13:27:13Z</time>
      </trkpt>
      <trkpt lat="48.0561" lon="6.94294">
        <ele>932</ele>
        <time>2020-08-03T13:27:20Z</time>
      </trkpt>
      <trkpt lat="48.05615" lon="6.94286">
        <ele>934</ele>
        <time>2020-08-03T13:27:30Z</time>
      </trkpt>
      <trkpt lat="48.05584" lon="6.94286">
        <ele>929</ele>
        <time>2020-08-03T13:28:12Z</time>
      </trkpt>
      <trkpt lat="48.05576" lon="6.94273">
        <ele>930</ele>
        <time>2020-08-03T13:28:27Z</time>
      </trkpt>
      <trkpt lat="48.0557" lon="6.94271">
        <ele>930</ele>
        <time>2020-08-03T13:28:36Z</time>
      </trkpt>
      <trkpt lat="48.05553" lon="6.94251">
        <ele>932</ele>
        <time>2020-08-03T13:29:04Z</time>
      </trkpt>
      <trkpt lat="48.05526" lon="6.94235">
        <ele>932</ele>
        <time>2020-08-03T13:29:43Z</time>
      </trkpt>
      <trkpt lat="48.0551" lon="6.94239">
        <ele>929</ele>
        <time>2020-08-03T13:30:05Z</time>
      </trkpt>
      <trkpt lat="48.05502" lon="6.94233">
        <ele>929</ele>
        <time>2020-08-03T13:30:17Z</time>
      </trkpt>
      <trkpt lat="48.0549" lon="6.94244">
        <ele>925</ele>
        <time>2020-08-03T13:30:36Z</time>
      </trkpt>
      <trkpt lat="48.05478" lon="6.94245">
        <ele>925</ele>
        <time>2020-08-03T13:30:52Z</time>
      </trkpt>
      <trkpt lat="48.05458" lon="6.94261">
        <ele>921</ele>
        <time>2020-08-03T13:31:22Z</time>
      </trkpt>
      <trkpt lat="48.0543" lon="6.94242">
        <ele>922</ele>
        <time>2020-08-03T13:32:03Z</time>
      </trkpt>
      <trkpt lat="48.05425" lon="6.94246">
        <ele>921</ele>
        <time>2020-08-03T13:32:10Z</time>
      </trkpt>
      <trkpt lat="48.05385" lon="6.94228">
        <ele>918</ele>
        <time>2020-08-03T13:33:06Z</time>
      </trkpt>
      <trkpt lat="48.0536" lon="6.94198">
        <ele>918</ele>
        <time>2020-08-03T13:33:49Z</time>
      </trkpt>
      <trkpt lat="48.05341" lon="6.94193">
        <ele>916</ele>
        <time>2020-08-03T13:34:15Z</time>
      </trkpt>
      <trkpt lat="48.05332" lon="6.94199">
        <ele>914</ele>
        <time>2020-08-03T13:34:28Z</time>
      </trkpt>
      <trkpt lat="48.05322" lon="6.94195">
        <ele>914</ele>
        <time>2020-08-03T13:34:42Z</time>
      </trkpt>
      <trkpt lat="48.05304" lon="6.94203">
        <ele>912</ele>
        <time>2020-08-03T13:35:07Z</time>
      </trkpt>
      <trkpt lat="48.05293" lon="6.94177">
        <ele>914</ele>
        <time>2020-08-03T13:35:34Z</time>
      </trkpt>
      <trkpt lat="48.05268" lon="6.94153">
        <ele>915</ele>
        <time>2020-08-03T13:36:14Z</time>
      </trkpt>
      <trkpt lat="48.05259" lon="6.9415">
        <ele>914</ele>
        <time>2020-08-03T13:36:26Z</time>
      </trkpt>
      <trkpt lat="48.05227" lon="6.94113">
        <ele>916</ele>
        <time>2020-08-03T13:37:20Z</time>
      </trkpt>
      <trkpt lat="48.05208" lon="6.941">
        <ele>916</ele>
        <time>2020-08-03T13:37:48Z</time>
      </trkpt>
      <trkpt lat="48.05185" lon="6.94115">
        <ele>914</ele>
        <time>2020-08-03T13:38:21Z</time>
      </trkpt>
      <trkpt lat="48.05177" lon="6.94131">
        <ele>912</ele>
        <time>2020-08-03T13:38:39Z</time>
      </trkpt>
      <trkpt lat="48.05176" lon="6.94139">
        <ele>911</ele>
        <time>2020-08-03T13:38:47Z</time>
      </trkpt>
      <trkpt lat="48.05185" lon="6.94149">
        <ele>911</ele>
        <time>2020-08-03T13:39:02Z</time>
      </trkpt>
      <trkpt lat="48.05187" lon="6.94159">
        <ele>910</ele>
        <time>2020-08-03T13:39:11Z</time>
      </trkpt>
      <trkpt lat="48.05172" lon="6.94157">
        <ele>910</ele>
        <time>2020-08-03T13:39:31Z</time>
      </trkpt>
      <trkpt lat="48.05151" lon="6.94172">
        <ele>910</ele>
        <time>2020-08-03T13:40:02Z</time>
      </trkpt>
      <trkpt lat="48.05102" lon="6.94163">
        <ele>914</ele>
        <time>2020-08-03T13:41:08Z</time>
      </trkpt>
      <trkpt lat="48.05101" lon="6.94153">
        <ele>913</ele>
        <time>2020-08-03T13:41:17Z</time>
      </trkpt>
      <trkpt lat="48.05094" lon="6.9416">
        <ele>914</ele>
        <time>2020-08-03T13:41:28Z</time>
      </trkpt>
      <trkpt lat="48.05091" lon="6.94139">
        <ele>913</ele>
        <time>2020-08-03T13:41:47Z</time>
      </trkpt>
      <trkpt lat="48.05072" lon="6.94086">
        <ele>913</ele>
        <time>2020-08-03T13:42:41Z</time>
      </trkpt>
      <trkpt lat="48.05065" lon="6.9408">
        <ele>914</ele>
        <time>2020-08-03T13:42:52Z</time>
      </trkpt>
      <trkpt lat="48.05056" lon="6.94079">
        <ele>915</ele>
        <time>2020-08-03T13:43:04Z</time>
      </trkpt>
      <trkpt lat="48.0505" lon="6.94064">
        <ele>915</ele>
        <time>2020-08-03T13:43:19Z</time>
      </trkpt>
      <trkpt lat="48.0504" lon="6.9406">
        <ele>916</ele>
        <time>2020-08-03T13:43:33Z</time>
      </trkpt>
      <trkpt lat="48.05019" lon="6.94035">
        <ele>915</ele>
        <time>2020-08-03T13:44:09Z</time>
      </trkpt>
      <trkpt lat="48.05012" lon="6.94035">
        <ele>915</ele>
        <time>2020-08-03T13:44:18Z</time>
      </trkpt>
      <trkpt lat="48.05015" lon="6.94045">
        <ele>917</ele>
        <time>2020-08-03T13:44:28Z</time>
      </trkpt>
      <trkpt lat="48.05003" lon="6.94038">
        <ele>916</ele>
        <time>2020-08-03T13:44:45Z</time>
      </trkpt>
      <trkpt lat="48.04997" lon="6.94037">
        <ele>917</ele>
        <time>2020-08-03T13:44:53Z</time>
      </trkpt>
      <trkpt lat="48.04994" lon="6.94041">
        <ele>918</ele>
        <time>2020-08-03T13:44:59Z</time>
      </trkpt>
      <trkpt lat="48.04987" lon="6.94036">
        <ele>919</ele>
        <time>2020-08-03T13:45:09Z</time>
      </trkpt>
      <trkpt lat="48.04972" lon="6.9405">
        <ele>924</ele>
        <time>2020-08-03T13:45:33Z</time>
      </trkpt>
      <trkpt lat="48.04979" lon="6.94056">
        <ele>923</ele>
        <time>2020-08-03T13:45:43Z</time>
      </trkpt>
      <trkpt lat="48.05002" lon="6.94101">
        <ele>926</ele>
        <time>2020-08-03T13:46:34Z</time>
      </trkpt>
      <trkpt lat="48.05009" lon="6.94123">
        <ele>928</ele>
        <time>2020-08-03T13:46:56Z</time>
      </trkpt>
      <trkpt lat="48.05016" lon="6.94131">
        <ele>928</ele>
        <time>2020-08-03T13:47:07Z</time>
      </trkpt>
      <trkpt lat="48.05009" lon="6.94123">
        <ele>928</ele>
        <time>2020-08-03T13:47:19Z</time>
      </trkpt>
      <trkpt lat="48.05007" lon="6.94134">
        <ele>930</ele>
        <time>2020-08-03T13:47:29Z</time>
      </trkpt>
      <trkpt lat="48.05015" lon="6.94161">
        <ele>932</ele>
        <time>2020-08-03T13:47:56Z</time>
      </trkpt>
      <trkpt lat="48.05017" lon="6.94195">
        <ele>937</ele>
        <time>2020-08-03T13:48:26Z</time>
      </trkpt>
      <trkpt lat="48.05034" lon="6.94229">
        <ele>938</ele>
        <time>2020-08-03T13:49:04Z</time>
      </trkpt>
      <trkpt lat="48.05041" lon="6.94263">
        <ele>939</ele>
        <time>2020-08-03T13:49:36Z</time>
      </trkpt>
      <trkpt lat="48.0504" lon="6.94284">
        <ele>941</ele>
        <time>2020-08-03T13:49:55Z</time>
      </trkpt>
      <trkpt lat="48.05045" lon="6.94315">
        <ele>941</ele>
        <time>2020-08-03T13:50:23Z</time>
      </trkpt>
      <trkpt lat="48.05041" lon="6.94454">
        <ele>948</ele>
        <time>2020-08-03T13:52:27Z</time>
      </trkpt>
      <trkpt lat="48.05029" lon="6.94518">
        <ele>954</ele>
        <time>2020-08-03T13:53:26Z</time>
      </trkpt>
      <trkpt lat="48.05022" lon="6.94528">
        <ele>957</ele>
        <time>2020-08-03T13:53:39Z</time>
      </trkpt>
      <trkpt lat="48.05011" lon="6.94528">
        <ele>961</ele>
        <time>2020-08-03T13:53:54Z</time>
      </trkpt>
      <trkpt lat="48.05003" lon="6.94515">
        <ele>963</ele>
        <time>2020-08-03T13:54:10Z</time>
      </trkpt>
      <trkpt lat="48.04998" lon="6.94485">
        <ele>965</ele>
        <time>2020-08-03T13:54:37Z</time>
      </trkpt>
      <trkpt lat="48.05" lon="6.9445">
        <ele>963</ele>
        <time>2020-08-03T13:55:09Z</time>
      </trkpt>
      <trkpt lat="48.04983" lon="6.94409">
        <ele>970</ele>
        <time>2020-08-03T13:55:52Z</time>
      </trkpt>
      <trkpt lat="48.04968" lon="6.94382">
        <ele>975</ele>
        <time>2020-08-03T13:56:23Z</time>
      </trkpt>
      <trkpt lat="48.04952" lon="6.94369">
        <ele>982</ele>
        <time>2020-08-03T13:56:47Z</time>
      </trkpt>
      <trkpt lat="48.04939" lon="6.94346">
        <ele>985</ele>
        <time>2020-08-03T13:57:14Z</time>
      </trkpt>
      <trkpt lat="48.04926" lon="6.94332">
        <ele>989</ele>
        <time>2020-08-03T13:57:36Z</time>
      </trkpt>
      <trkpt lat="48.04917" lon="6.94308">
        <ele>988</ele>
        <time>2020-08-03T13:58:00Z</time>
      </trkpt>
      <trkpt lat="48.04905" lon="6.94299">
        <ele>992</ele>
        <time>2020-08-03T13:58:18Z</time>
      </trkpt>
      <trkpt lat="48.04893" lon="6.94297">
        <ele>998</ele>
        <time>2020-08-03T13:58:34Z</time>
      </trkpt>
      <trkpt lat="48.04868" lon="6.94275">
        <ele>1005</ele>
        <time>2020-08-03T13:59:13Z</time>
      </trkpt>
      <trkpt lat="48.04862" lon="6.94275">
        <ele>1007</ele>
        <time>2020-08-03T13:59:21Z</time>
      </trkpt>
      <trkpt lat="48.04858" lon="6.94263">
        <ele>1006</ele>
        <time>2020-08-03T13:59:33Z</time>
      </trkpt>
      <trkpt lat="48.04844" lon="6.94246">
        <ele>1008</ele>
        <time>2020-08-03T13:59:57Z</time>
      </trkpt>
      <trkpt lat="48.04814" lon="6.94229">
        <ele>1016</ele>
        <time>2020-08-03T14:00:40Z</time>
      </trkpt>
      <trkpt lat="48.04803" lon="6.94212">
        <ele>1015</ele>
        <time>2020-08-03T14:01:01Z</time>
      </trkpt>
      <trkpt lat="48.04786" lon="6.942">
        <ele>1018</ele>
        <time>2020-08-03T14:01:26Z</time>
      </trkpt>
      <trkpt lat="48.04779" lon="6.94185">
        <ele>1015</ele>
        <time>2020-08-03T14:01:42Z</time>
      </trkpt>
      <trkpt lat="48.04755" lon="6.94171">
        <ele>1020</ele>
        <time>2020-08-03T14:02:17Z</time>
      </trkpt>
      <trkpt lat="48.04753" lon="6.94177">
        <ele>1023</ele>
        <time>2020-08-03T14:02:23Z</time>
      </trkpt>
      <trkpt lat="48.04737" lon="6.94154">
        <ele>1020</ele>
        <time>2020-08-03T14:02:52Z</time>
      </trkpt>
      <trkpt lat="48.04713" lon="6.94131">
        <ele>1021</ele>
        <time>2020-08-03T14:03:30Z</time>
      </trkpt>
      <trkpt lat="48.04688" lon="6.94113">
        <ele>1022</ele>
        <time>2020-08-03T14:04:07Z</time>
      </trkpt>
      <trkpt lat="48.0468" lon="6.94112">
        <ele>1024</ele>
        <time>2020-08-03T14:04:18Z</time>
      </trkpt>
      <trkpt lat="48.04667" lon="6.941">
        <ele>1024</ele>
        <time>2020-08-03T14:04:38Z</time>
      </trkpt>
      <trkpt lat="48.04657" lon="6.94097">
        <ele>1025</ele>
        <time>2020-08-03T14:04:52Z</time>
      </trkpt>
      <trkpt lat="48.0462" lon="6.94065">
        <ele>1026</ele>
        <time>2020-08-03T14:05:49Z</time>
      </trkpt>
      <trkpt lat="48.0461" lon="6.94066">
        <ele>1029</ele>
        <time>2020-08-03T14:06:02Z</time>
      </trkpt>
      <trkpt lat="48.04599" lon="6.94059">
        <ele>1030</ele>
        <time>2020-08-03T14:06:18Z</time>
      </trkpt>
      <trkpt lat="48.04575" lon="6.94054">
        <ele>1035</ele>
        <time>2020-08-03T14:06:51Z</time>
      </trkpt>
      <trkpt lat="48.04551" lon="6.94039">
        <ele>1035</ele>
        <time>2020-08-03T14:07:25Z</time>
      </trkpt>
      <trkpt lat="48.04539" lon="6.94036">
        <ele>1037</ele>
        <time>2020-08-03T14:07:42Z</time>
      </trkpt>
      <trkpt lat="48.04515" lon="6.94034">
        <ele>1041</ele>
        <time>2020-08-03T14:08:14Z</time>
      </trkpt>
      <trkpt lat="48.04506" lon="6.94038">
        <ele>1043</ele>
        <time>2020-08-03T14:08:26Z</time>
      </trkpt>
      <trkpt lat="48.0449" lon="6.94034">
        <ele>1043</ele>
        <time>2020-08-03T14:08:48Z</time>
      </trkpt>
      <trkpt lat="48.04474" lon="6.9404">
        <ele>1044</ele>
        <time>2020-08-03T14:09:10Z</time>
      </trkpt>
      <trkpt lat="48.04459" lon="6.94057">
        <ele>1047</ele>
        <time>2020-08-03T14:09:35Z</time>
      </trkpt>
      <trkpt lat="48.04454" lon="6.94081">
        <ele>1052</ele>
        <time>2020-08-03T14:09:57Z</time>
      </trkpt>
      <trkpt lat="48.04449" lon="6.94083">
        <ele>1052</ele>
        <time>2020-08-03T14:10:04Z</time>
      </trkpt>
      <trkpt lat="48.04455" lon="6.94097">
        <ele>1055</ele>
        <time>2020-08-03T14:10:19Z</time>
      </trkpt>
      <trkpt lat="48.04457" lon="6.94122">
        <ele>1060</ele>
        <time>2020-08-03T14:10:42Z</time>
      </trkpt>
      <trkpt lat="48.04446" lon="6.94157">
        <ele>1065</ele>
        <time>2020-08-03T14:11:16Z</time>
      </trkpt>
      <trkpt lat="48.04425" lon="6.94188">
        <ele>1068</ele>
        <time>2020-08-03T14:11:55Z</time>
      </trkpt>
      <trkpt lat="48.04416" lon="6.94236">
        <ele>1074</ele>
        <time>2020-08-03T14:12:40Z</time>
      </trkpt>
      <trkpt lat="48.04376" lon="6.94332">
        <ele>1080</ele>
        <time>2020-08-03T14:14:21Z</time>
      </trkpt>
      <trkpt lat="48.04368" lon="6.94344">
        <ele>1080</ele>
        <time>2020-08-03T14:14:36Z</time>
      </trkpt>
      <trkpt lat="48.04362" lon="6.94335">
        <ele>1077</ele>
        <time>2020-08-03T14:14:47Z</time>
      </trkpt>
      <trkpt lat="48.04359" lon="6.94338">
        <ele>1077</ele>
        <time>2020-08-03T14:14:52Z</time>
      </trkpt>
      <trkpt lat="48.04359" lon="6.94353">
        <ele>1079</ele>
        <time>2020-08-03T14:15:05Z</time>
      </trkpt>
      <trkpt lat="48.04347" lon="6.94399">
        <ele>1085</ele>
        <time>2020-08-03T14:15:50Z</time>
      </trkpt>
      <trkpt lat="48.04312" lon="6.94435">
        <ele>1087</ele>
        <time>2020-08-03T14:16:46Z</time>
      </trkpt>
      <trkpt lat="48.04281" lon="6.94513">
        <ele>1100</ele>
        <time>2020-08-03T14:18:07Z</time>
      </trkpt>
      <trkpt lat="48.04269" lon="6.94532">
        <ele>1102</ele>
        <time>2020-08-03T14:18:31Z</time>
      </trkpt>
      <trkpt lat="48.04258" lon="6.9454">
        <ele>1102</ele>
        <time>2020-08-03T14:18:47Z</time>
      </trkpt>
      <trkpt lat="48.04244" lon="6.94559">
        <ele>1105</ele>
        <time>2020-08-03T14:19:12Z</time>
      </trkpt>
      <trkpt lat="48.04231" lon="6.94584">
        <ele>1108</ele>
        <time>2020-08-03T14:19:40Z</time>
      </trkpt>
      <trkpt lat="48.04198" lon="6.94626">
        <ele>1110</ele>
        <time>2020-08-03T14:20:38Z</time>
      </trkpt>
      <trkpt lat="48.04175" lon="6.94672">
        <ele>1114</ele>
        <time>2020-08-03T14:21:29Z</time>
      </trkpt>
      <trkpt lat="48.0417" lon="6.9469">
        <ele>1117</ele>
        <time>2020-08-03T14:21:47Z</time>
      </trkpt>
      <trkpt lat="48.04157" lon="6.94702">
        <ele>1118</ele>
        <time>2020-08-03T14:22:07Z</time>
      </trkpt>
      <trkpt lat="48.0412" lon="6.94769">
        <ele>1125</ele>
        <time>2020-08-03T14:23:25Z</time>
      </trkpt>
      <trkpt lat="48.04078" lon="6.94826">
        <ele>1129</ele>
        <time>2020-08-03T14:24:40Z</time>
      </trkpt>
      <trkpt lat="48.04073" lon="6.94843">
        <ele>1131</ele>
        <time>2020-08-03T14:24:57Z</time>
      </trkpt>
      <trkpt lat="48.04065" lon="6.94839">
        <ele>1130</ele>
        <time>2020-08-03T14:25:08Z</time>
      </trkpt>
      <trkpt lat="48.0406" lon="6.94829">
        <ele>1128</ele>
        <time>2020-08-03T14:25:19Z</time>
      </trkpt>
      <trkpt lat="48.04065" lon="6.94836">
        <ele>1129</ele>
        <time>2020-08-03T14:25:28Z</time>
      </trkpt>
      <trkpt lat="48.04068" lon="6.94834">
        <ele>1129</ele>
        <time>2020-08-03T14:25:33Z</time>
      </trkpt>
      <trkpt lat="48.04064" lon="6.94838">
        <ele>1130</ele>
        <time>2020-08-03T14:25:39Z</time>
      </trkpt>
      <trkpt lat="48.04068" lon="6.94838">
        <ele>1130</ele>
        <time>2020-08-03T14:25:45Z</time>
      </trkpt>
      <trkpt lat="48.04069" lon="6.94845">
        <ele>1131</ele>
        <time>2020-08-03T14:25:51Z</time>
      </trkpt>
      <trkpt lat="48.04056" lon="6.94861">
        <ele>1132</ele>
        <time>2020-08-03T14:26:13Z</time>
      </trkpt>
      <trkpt lat="48.0405" lon="6.94879">
        <ele>1134</ele>
        <time>2020-08-03T14:26:31Z</time>
      </trkpt>
      <trkpt lat="48.04041" lon="6.94883">
        <ele>1134</ele>
        <time>2020-08-03T14:26:44Z</time>
      </trkpt>
      <trkpt lat="48.04026" lon="6.94903">
        <ele>1135</ele>
        <time>2020-08-03T14:27:11Z</time>
      </trkpt>
      <trkpt lat="48.04007" lon="6.94911">
        <ele>1134</ele>
        <time>2020-08-03T14:27:37Z</time>
      </trkpt>
      <trkpt lat="48.03991" lon="6.94892">
        <ele>1132</ele>
        <time>2020-08-03T14:28:04Z</time>
      </trkpt>
      <trkpt lat="48.03968" lon="6.94887">
        <ele>1133</ele>
        <time>2020-08-03T14:28:35Z</time>
      </trkpt>
      <trkpt lat="48.0396" lon="6.9489">
        <ele>1133</ele>
        <time>2020-08-03T14:28:46Z</time>
      </trkpt>
      <trkpt lat="48.03949" lon="6.94873">
        <ele>1133</ele>
        <time>2020-08-03T14:29:08Z</time>
      </trkpt>
      <trkpt lat="48.03932" lon="6.94868">
        <ele>1134</ele>
        <time>2020-08-03T14:29:31Z</time>
      </trkpt>
      <trkpt lat="48.03918" lon="6.94857">
        <ele>1134</ele>
        <time>2020-08-03T14:29:52Z</time>
      </trkpt>
      <trkpt lat="48.03904" lon="6.94834">
        <ele>1138</ele>
        <time>2020-08-03T14:30:19Z</time>
      </trkpt>
      <trkpt lat="48.03907" lon="6.94812">
        <ele>1139</ele>
        <time>2020-08-03T14:30:40Z</time>
      </trkpt>
      <trkpt lat="48.03898" lon="6.94746">
        <ele>1150</ele>
        <time>2020-08-03T14:31:40Z</time>
      </trkpt>
      <trkpt lat="48.03909" lon="6.94697">
        <ele>1148</ele>
        <time>2020-08-03T14:32:26Z</time>
      </trkpt>
      <trkpt lat="48.03908" lon="6.94674">
        <ele>1150</ele>
        <time>2020-08-03T14:32:46Z</time>
      </trkpt>
      <trkpt lat="48.03896" lon="6.94632">
        <ele>1153</ele>
        <time>2020-08-03T14:33:27Z</time>
      </trkpt>
      <trkpt lat="48.03895" lon="6.94602">
        <ele>1153</ele>
        <time>2020-08-03T14:33:54Z</time>
      </trkpt>
      <trkpt lat="48.03887" lon="6.94563">
        <ele>1155</ele>
        <time>2020-08-03T14:34:30Z</time>
      </trkpt>
      <trkpt lat="48.03877" lon="6.94538">
        <ele>1158</ele>
        <time>2020-08-03T14:34:56Z</time>
      </trkpt>
      <trkpt lat="48.03881" lon="6.94487">
        <ele>1157</ele>
        <time>2020-08-03T14:35:42Z</time>
      </trkpt>
      <trkpt lat="48.03879" lon="6.94458">
        <ele>1158</ele>
        <time>2020-08-03T14:36:08Z</time>
      </trkpt>
      <trkpt lat="48.03856" lon="6.94416">
        <ele>1163</ele>
        <time>2020-08-03T14:36:57Z</time>
      </trkpt>
      <trkpt lat="48.03841" lon="6.94404">
        <ele>1165</ele>
        <time>2020-08-03T14:37:19Z</time>
      </trkpt>
      <trkpt lat="48.03833" lon="6.94407">
        <ele>1167</ele>
        <time>2020-08-03T14:37:30Z</time>
      </trkpt>
      <trkpt lat="48.03828" lon="6.94402">
        <ele>1166</ele>
        <time>2020-08-03T14:37:38Z</time>
      </trkpt>
      <trkpt lat="48.03782" lon="6.94404">
        <ele>1166</ele>
        <time>2020-08-03T14:38:40Z</time>
      </trkpt>
      <trkpt lat="48.03767" lon="6.94401">
        <ele>1165</ele>
        <time>2020-08-03T14:39:00Z</time>
      </trkpt>
      <trkpt lat="48.03737" lon="6.94425">
        <ele>1167</ele>
        <time>2020-08-03T14:39:45Z</time>
      </trkpt>
      <trkpt lat="48.03724" lon="6.94429">
        <ele>1166</ele>
        <time>2020-08-03T14:40:03Z</time>
      </trkpt>
      <trkpt lat="48.03707" lon="6.94441">
        <ele>1166</ele>
        <time>2020-08-03T14:40:28Z</time>
      </trkpt>
      <trkpt lat="48.03622" lon="6.94511">
        <ele>1166</ele>
        <time>2020-08-03T14:42:38Z</time>
      </trkpt>
      <trkpt lat="48.03606" lon="6.94511">
        <ele>1165</ele>
        <time>2020-08-03T14:42:59Z</time>
      </trkpt>
      <trkpt lat="48.03592" lon="6.94491">
        <ele>1163</ele>
        <time>2020-08-03T14:43:25Z</time>
      </trkpt>
      <trkpt lat="48.03595" lon="6.94483">
        <ele>1163</ele>
        <time>2020-08-03T14:43:33Z</time>
      </trkpt>
      <trkpt lat="48.03593" lon="6.94487">
        <ele>1163</ele>
        <time>2020-08-03T14:43:37Z</time>
      </trkpt>
      <trkpt lat="48.03587" lon="6.94487">
        <ele>1163</ele>
        <time>2020-08-03T14:43:45Z</time>
      </trkpt>
      <trkpt lat="48.03557" lon="6.9448">
        <ele>1163</ele>
        <time>2020-08-03T14:44:26Z</time>
      </trkpt>
      <trkpt lat="48.03532" lon="6.94459">
        <ele>1163</ele>
        <time>2020-08-03T14:45:04Z</time>
      </trkpt>
      <trkpt lat="48.03522" lon="6.94455">
        <ele>1164</ele>
        <time>2020-08-03T14:45:18Z</time>
      </trkpt>
      <trkpt lat="48.03502" lon="6.94434">
        <ele>1164</ele>
        <time>2020-08-03T14:45:51Z</time>
      </trkpt>
      <trkpt lat="48.03493" lon="6.94428">
        <ele>1164</ele>
        <time>2020-08-03T14:46:04Z</time>
      </trkpt>
      <trkpt lat="48.03483" lon="6.94427">
        <ele>1165</ele>
        <time>2020-08-03T14:46:17Z</time>
      </trkpt>
      <trkpt lat="48.03465" lon="6.94412">
        <ele>1165</ele>
        <time>2020-08-03T14:46:45Z</time>
      </trkpt>
      <trkpt lat="48.03425" lon="6.94367">
        <ele>1163</ele>
        <time>2020-08-03T14:47:51Z</time>
      </trkpt>
      <trkpt lat="48.03394" lon="6.94319">
        <ele>1161</ele>
        <time>2020-08-03T14:48:51Z</time>
      </trkpt>
      <trkpt lat="48.03384" lon="6.94313">
        <ele>1160</ele>
        <time>2020-08-03T14:49:05Z</time>
      </trkpt>
      <trkpt lat="48.03413" lon="6.94352">
        <ele>1163</ele>
        <time>2020-08-03T14:49:57Z</time>
      </trkpt>
      <trkpt lat="48.03413" lon="6.94366">
        <ele>1163</ele>
        <time>2020-08-03T14:50:10Z</time>
      </trkpt>
      <trkpt lat="48.03388" lon="6.94388">
        <ele>1164</ele>
        <time>2020-08-03T14:50:49Z</time>
      </trkpt>
      <trkpt lat="48.03379" lon="6.94409">
        <ele>1164</ele>
        <time>2020-08-03T14:51:11Z</time>
      </trkpt>
      <trkpt lat="48.03368" lon="6.94415">
        <ele>1164</ele>
        <time>2020-08-03T14:51:26Z</time>
      </trkpt>
      <trkpt lat="48.03351" lon="6.94441">
        <ele>1165</ele>
        <time>2020-08-03T14:51:59Z</time>
      </trkpt>
      <trkpt lat="48.03337" lon="6.94452">
        <ele>1165</ele>
        <time>2020-08-03T14:52:20Z</time>
      </trkpt>
      <trkpt lat="48.03319" lon="6.94481">
        <ele>1167</ele>
        <time>2020-08-03T14:52:55Z</time>
      </trkpt>
      <trkpt lat="48.03312" lon="6.94509">
        <ele>1170</ele>
        <time>2020-08-03T14:53:22Z</time>
      </trkpt>
      <trkpt lat="48.03304" lon="6.94579">
        <ele>1176</ele>
        <time>2020-08-03T14:54:25Z</time>
      </trkpt>
      <trkpt lat="48.03304" lon="6.94594">
        <ele>1176</ele>
        <time>2020-08-03T14:54:39Z</time>
      </trkpt>
      <trkpt lat="48.03313" lon="6.94625">
        <ele>1175</ele>
        <time>2020-08-03T14:55:09Z</time>
      </trkpt>
      <trkpt lat="48.03313" lon="6.94652">
        <ele>1175</ele>
        <time>2020-08-03T14:55:33Z</time>
      </trkpt>
      <trkpt lat="48.03296" lon="6.9467">
        <ele>1172</ele>
        <time>2020-08-03T14:56:01Z</time>
      </trkpt>
      <trkpt lat="48.03272" lon="6.94676">
        <ele>1168</ele>
        <time>2020-08-03T14:56:33Z</time>
      </trkpt>
      <trkpt lat="48.03269" lon="6.94682">
        <ele>1165</ele>
        <time>2020-08-03T14:56:40Z</time>
      </trkpt>
      <trkpt lat="48.03257" lon="6.94636">
        <ele>1172</ele>
        <time>2020-08-03T14:57:24Z</time>
      </trkpt>
      <trkpt lat="48.03246" lon="6.9462">
        <ele>1173</ele>
        <time>2020-08-03T14:57:45Z</time>
      </trkpt>
      <trkpt lat="48.03219" lon="6.94603">
        <ele>1173</ele>
        <time>2020-08-03T14:58:24Z</time>
      </trkpt>
      <trkpt lat="48.03207" lon="6.94601">
        <ele>1173</ele>
        <time>2020-08-03T14:58:40Z</time>
      </trkpt>
      <trkpt lat="48.03184" lon="6.94575">
        <ele>1175</ele>
        <time>2020-08-03T14:59:18Z</time>
      </trkpt>
      <trkpt lat="48.0316" lon="6.94563">
        <ele>1173</ele>
        <time>2020-08-03T14:59:52Z</time>
      </trkpt>
      <trkpt lat="48.03151" lon="6.94552">
        <ele>1172</ele>
        <time>2020-08-03T15:00:07Z</time>
      </trkpt>
      <trkpt lat="48.03136" lon="6.94551">
        <ele>1172</ele>
        <time>2020-08-03T15:00:28Z</time>
      </trkpt>
      <trkpt lat="48.03118" lon="6.94561">
        <ele>1170</ele>
        <time>2020-08-03T15:00:53Z</time>
      </trkpt>
      <trkpt lat="48.03108" lon="6.94558">
        <ele>1170</ele>
        <time>2020-08-03T15:01:07Z</time>
      </trkpt>
      <trkpt lat="48.03029" lon="6.9446">
        <ele>1167</ele>
        <time>2020-08-03T15:03:24Z</time>
      </trkpt>
      <trkpt lat="48.02992" lon="6.9443">
        <ele>1163</ele>
        <time>2020-08-03T15:04:20Z</time>
      </trkpt>
      <trkpt lat="48.0297" lon="6.94408">
        <ele>1159</ele>
        <time>2020-08-03T15:04:55Z</time>
      </trkpt>
      <trkpt lat="48.02962" lon="6.94394">
        <ele>1157</ele>
        <time>2020-08-03T15:05:12Z</time>
      </trkpt>
      <trkpt lat="48.02935" lon="6.94373">
        <ele>1152</ele>
        <time>2020-08-03T15:05:52Z</time>
      </trkpt>
      <trkpt lat="48.02906" lon="6.94331">
        <ele>1148</ele>
        <time>2020-08-03T15:06:46Z</time>
      </trkpt>
      <trkpt lat="48.02852" lon="6.94284">
        <ele>1136</ele>
        <time>2020-08-03T15:08:09Z</time>
      </trkpt>
      <trkpt lat="48.02861" lon="6.94308">
        <ele>1136</ele>
        <time>2020-08-03T15:08:34Z</time>
      </trkpt>
      <trkpt lat="48.02883" lon="6.94337">
        <ele>1140</ele>
        <time>2020-08-03T15:09:13Z</time>
      </trkpt>
      <trkpt lat="48.02886" lon="6.94349">
        <ele>1139</ele>
        <time>2020-08-03T15:09:25Z</time>
      </trkpt>
      <trkpt lat="48.02906" lon="6.94379">
        <ele>1143</ele>
        <time>2020-08-03T15:10:02Z</time>
      </trkpt>
      <trkpt lat="48.02917" lon="6.94425">
        <ele>1143</ele>
        <time>2020-08-03T15:10:46Z</time>
      </trkpt>
      <trkpt lat="48.02924" lon="6.94435">
        <ele>1142</ele>
        <time>2020-08-03T15:10:59Z</time>
      </trkpt>
      <trkpt lat="48.02922" lon="6.94442">
        <ele>1140</ele>
        <time>2020-08-03T15:11:06Z</time>
      </trkpt>
      <trkpt lat="48.0294" lon="6.9446">
        <ele>1142</ele>
        <time>2020-08-03T15:11:35Z</time>
      </trkpt>
      <trkpt lat="48.02966" lon="6.94504">
        <ele>1144</ele>
        <time>2020-08-03T15:12:27Z</time>
      </trkpt>
      <trkpt lat="48.02984" lon="6.94523">
        <ele>1147</ele>
        <time>2020-08-03T15:12:56Z</time>
      </trkpt>
      <trkpt lat="48.03005" lon="6.94566">
        <ele>1144</ele>
        <time>2020-08-03T15:13:44Z</time>
      </trkpt>
      <trkpt lat="48.03029" lon="6.94588">
        <ele>1146</ele>
        <time>2020-08-03T15:14:22Z</time>
      </trkpt>
      <trkpt lat="48.03022" lon="6.9458">
        <ele>1145</ele>
        <time>2020-08-03T15:14:33Z</time>
      </trkpt>
      <trkpt lat="48.03053" lon="6.94629">
        <ele>1142</ele>
        <time>2020-08-03T15:15:33Z</time>
      </trkpt>
      <trkpt lat="48.03066" lon="6.94643">
        <ele>1143</ele>
        <time>2020-08-03T15:15:55Z</time>
      </trkpt>
      <trkpt lat="48.03069" lon="6.94656">
        <ele>1141</ele>
        <time>2020-08-03T15:16:07Z</time>
      </trkpt>
      <trkpt lat="48.0309" lon="6.94695">
        <ele>1135</ele>
        <time>2020-08-03T15:16:52Z</time>
      </trkpt>
      <trkpt lat="48.0311" lon="6.94723">
        <ele>1128</ele>
        <time>2020-08-03T15:17:28Z</time>
      </trkpt>
      <trkpt lat="48.03134" lon="6.94739">
        <ele>1125</ele>
        <time>2020-08-03T15:18:03Z</time>
      </trkpt>
      <trkpt lat="48.03143" lon="6.9474">
        <ele>1126</ele>
        <time>2020-08-03T15:18:15Z</time>
      </trkpt>
      <trkpt lat="48.03149" lon="6.94747">
        <ele>1124</ele>
        <time>2020-08-03T15:18:26Z</time>
      </trkpt>
      <trkpt lat="48.0316" lon="6.94749">
        <ele>1125</ele>
        <time>2020-08-03T15:18:40Z</time>
      </trkpt>
      <trkpt lat="48.03164" lon="6.94755">
        <ele>1122</ele>
        <time>2020-08-03T15:18:48Z</time>
      </trkpt>
      <trkpt lat="48.03169" lon="6.94753">
        <ele>1124</ele>
        <time>2020-08-03T15:18:55Z</time>
      </trkpt>
      <trkpt lat="48.03167" lon="6.94756">
        <ele>1122</ele>
        <time>2020-08-03T15:18:59Z</time>
      </trkpt>
      <trkpt lat="48.03163" lon="6.94752">
        <ele>1124</ele>
        <time>2020-08-03T15:19:05Z</time>
      </trkpt>
      <trkpt lat="48.03151" lon="6.94751">
        <ele>1123</ele>
        <time>2020-08-03T15:19:21Z</time>
      </trkpt>
      <trkpt lat="48.03142" lon="6.94754">
        <ele>1120</ele>
        <time>2020-08-03T15:19:33Z</time>
      </trkpt>
      <trkpt lat="48.03129" lon="6.94763">
        <ele>1115</ele>
        <time>2020-08-03T15:19:53Z</time>
      </trkpt>
      <trkpt lat="48.03112" lon="6.9479">
        <ele>1103</ele>
        <time>2020-08-03T15:20:26Z</time>
      </trkpt>
      <trkpt lat="48.03111" lon="6.94781">
        <ele>1106</ele>
        <time>2020-08-03T15:20:34Z</time>
      </trkpt>
      <trkpt lat="48.031" lon="6.94784">
        <ele>1105</ele>
        <time>2020-08-03T15:20:49Z</time>
      </trkpt>
      <trkpt lat="48.03105" lon="6.94788">
        <ele>1103</ele>
        <time>2020-08-03T15:20:56Z</time>
      </trkpt>
      <trkpt lat="48.03094" lon="6.94779">
        <ele>1106</ele>
        <time>2020-08-03T15:21:13Z</time>
      </trkpt>
      <trkpt lat="48.03083" lon="6.94781">
        <ele>1104</ele>
        <time>2020-08-03T15:21:28Z</time>
      </trkpt>
      <trkpt lat="48.03054" lon="6.94773">
        <ele>1097</ele>
        <time>2020-08-03T15:22:07Z</time>
      </trkpt>
      <trkpt lat="48.03045" lon="6.94765">
        <ele>1096</ele>
        <time>2020-08-03T15:22:21Z</time>
      </trkpt>
      <trkpt lat="48.03024" lon="6.94758">
        <ele>1091</ele>
        <time>2020-08-03T15:22:50Z</time>
      </trkpt>
      <trkpt lat="48.03004" lon="6.94736">
        <ele>1090</ele>
        <time>2020-08-03T15:23:23Z</time>
      </trkpt>
      <trkpt lat="48.02988" lon="6.9473">
        <ele>1085</ele>
        <time>2020-08-03T15:23:45Z</time>
      </trkpt>
      <trkpt lat="48.02981" lon="6.94715">
        <ele>1087</ele>
        <time>2020-08-03T15:24:01Z</time>
      </trkpt>
      <trkpt lat="48.02969" lon="6.9471">
        <ele>1083</ele>
        <time>2020-08-03T15:24:18Z</time>
      </trkpt>
      <trkpt lat="48.02963" lon="6.94702">
        <ele>1082</ele>
        <time>2020-08-03T15:24:29Z</time>
      </trkpt>
      <trkpt lat="48.02932" lon="6.94681">
        <ele>1073</ele>
        <time>2020-08-03T15:25:14Z</time>
      </trkpt>
      <trkpt lat="48.02925" lon="6.94686">
        <ele>1069</ele>
        <time>2020-08-03T15:25:24Z</time>
      </trkpt>
      <trkpt lat="48.02902" lon="6.94655">
        <ele>1066</ele>
        <time>2020-08-03T15:26:06Z</time>
      </trkpt>
      <trkpt lat="48.0289" lon="6.94645">
        <ele>1062</ele>
        <time>2020-08-03T15:26:24Z</time>
      </trkpt>
      <trkpt lat="48.02896" lon="6.94665">
        <ele>1061</ele>
        <time>2020-08-03T15:26:44Z</time>
      </trkpt>
      <trkpt lat="48.02908" lon="6.94686">
        <ele>1062</ele>
        <time>2020-08-03T15:27:08Z</time>
      </trkpt>
      <trkpt lat="48.02915" lon="6.94728">
        <ele>1056</ele>
        <time>2020-08-03T15:27:47Z</time>
      </trkpt>
      <trkpt lat="48.02935" lon="6.94799">
        <ele>1050</ele>
        <time>2020-08-03T15:28:56Z</time>
      </trkpt>
      <trkpt lat="48.02948" lon="6.94827">
        <ele>1049</ele>
        <time>2020-08-03T15:29:26Z</time>
      </trkpt>
      <trkpt lat="48.0295" lon="6.94843">
        <ele>1046</ele>
        <time>2020-08-03T15:29:41Z</time>
      </trkpt>
      <trkpt lat="48.02967" lon="6.94874">
        <ele>1045</ele>
        <time>2020-08-03T15:30:16Z</time>
      </trkpt>
      <trkpt lat="48.02981" lon="6.94913">
        <ele>1042</ele>
        <time>2020-08-03T15:30:56Z</time>
      </trkpt>
      <trkpt lat="48.02983" lon="6.94943">
        <ele>1035</ele>
        <time>2020-08-03T15:31:23Z</time>
      </trkpt>
      <trkpt lat="48.0298" lon="6.94972">
        <ele>1026</ele>
        <time>2020-08-03T15:31:49Z</time>
      </trkpt>
      <trkpt lat="48.0299" lon="6.95012">
        <ele>1020</ele>
        <time>2020-08-03T15:32:27Z</time>
      </trkpt>
      <trkpt lat="48.02996" lon="6.95024">
        <ele>1019</ele>
        <time>2020-08-03T15:32:40Z</time>
      </trkpt>
      <trkpt lat="48.03012" lon="6.9504">
        <ele>1016</ele>
        <time>2020-08-03T15:33:06Z</time>
      </trkpt>
      <trkpt lat="48.03057" lon="6.95043">
        <ele>1014</ele>
        <time>2020-08-03T15:34:06Z</time>
      </trkpt>
      <trkpt lat="48.03055" lon="6.95052">
        <ele>1012</ele>
        <time>2020-08-03T15:34:15Z</time>
      </trkpt>
      <trkpt lat="48.03011" lon="6.95092">
        <ele>1003</ele>
        <time>2020-08-03T15:35:23Z</time>
      </trkpt>
      <trkpt lat="48.02985" lon="6.95093">
        <ele>999</ele>
        <time>2020-08-03T15:35:58Z</time>
      </trkpt>
      <trkpt lat="48.02956" lon="6.9507">
        <ele>995</ele>
        <time>2020-08-03T15:36:42Z</time>
      </trkpt>
      <trkpt lat="48.02905" lon="6.94999">
        <ele>995</ele>
        <time>2020-08-03T15:38:15Z</time>
      </trkpt>
      <trkpt lat="48.02893" lon="6.94995">
        <ele>992</ele>
        <time>2020-08-03T15:38:31Z</time>
      </trkpt>
      <trkpt lat="48.02882" lon="6.94983">
        <ele>992</ele>
        <time>2020-08-03T15:38:50Z</time>
      </trkpt>
      <trkpt lat="48.02851" lon="6.94973">
        <ele>986</ele>
        <time>2020-08-03T15:39:32Z</time>
      </trkpt>
      <trkpt lat="48.0281" lon="6.94983">
        <ele>977</ele>
        <time>2020-08-03T15:40:27Z</time>
      </trkpt>
      <trkpt lat="48.02789" lon="6.9501">
        <ele>971</ele>
        <time>2020-08-03T15:41:04Z</time>
      </trkpt>
      <trkpt lat="48.02767" lon="6.95023">
        <ele>967</ele>
        <time>2020-08-03T15:41:36Z</time>
      </trkpt>
      <trkpt lat="48.02752" lon="6.95044">
        <ele>963</ele>
        <time>2020-08-03T15:42:03Z</time>
      </trkpt>
      <trkpt lat="48.02731" lon="6.95062">
        <ele>956</ele>
        <time>2020-08-03T15:42:36Z</time>
      </trkpt>
      <trkpt lat="48.02715" lon="6.95067">
        <ele>952</ele>
        <time>2020-08-03T15:42:57Z</time>
      </trkpt>
      <trkpt lat="48.02698" lon="6.95066">
        <ele>950</ele>
        <time>2020-08-03T15:43:20Z</time>
      </trkpt>
      <trkpt lat="48.02684" lon="6.95058">
        <ele>949</ele>
        <time>2020-08-03T15:43:40Z</time>
      </trkpt>
      <trkpt lat="48.02667" lon="6.95034">
        <ele>950</ele>
        <time>2020-08-03T15:44:11Z</time>
      </trkpt>
      <trkpt lat="48.02651" lon="6.95022">
        <ele>946</ele>
        <time>2020-08-03T15:44:35Z</time>
      </trkpt>
      <trkpt lat="48.02632" lon="6.94961">
        <ele>944</ele>
        <time>2020-08-03T15:45:35Z</time>
      </trkpt>
      <trkpt lat="48.02616" lon="6.94881">
        <ele>937</ele>
        <time>2020-08-03T15:46:50Z</time>
      </trkpt>
      <trkpt lat="48.02618" lon="6.948">
        <ele>934</ele>
        <time>2020-08-03T15:48:02Z</time>
      </trkpt>
      <trkpt lat="48.02615" lon="6.94757">
        <ele>930</ele>
        <time>2020-08-03T15:48:41Z</time>
      </trkpt>
      <trkpt lat="48.02617" lon="6.94762">
        <ele>931</ele>
        <time>2020-08-03T15:48:46Z</time>
      </trkpt>
      <trkpt lat="48.02617" lon="6.94766">
        <ele>931</ele>
        <time>2020-08-03T15:48:49Z</time>
      </trkpt>
      <trkpt lat="48.02612" lon="6.94741">
        <ele>929</ele>
        <time>2020-08-03T15:49:13Z</time>
      </trkpt>
      <trkpt lat="48.02588" lon="6.94694">
        <ele>923</ele>
        <time>2020-08-03T15:50:05Z</time>
      </trkpt>
      <trkpt lat="48.02556" lon="6.94659">
        <ele>919</ele>
        <time>2020-08-03T15:50:58Z</time>
      </trkpt>
      <trkpt lat="48.02544" lon="6.94656">
        <ele>917</ele>
        <time>2020-08-03T15:51:15Z</time>
      </trkpt>
      <trkpt lat="48.02534" lon="6.94645">
        <ele>919</ele>
        <time>2020-08-03T15:51:31Z</time>
      </trkpt>
      <trkpt lat="48.02532" lon="6.94634">
        <ele>922</ele>
        <time>2020-08-03T15:51:41Z</time>
      </trkpt>
      <trkpt lat="48.02495" lon="6.94643">
        <ele>910</ele>
        <time>2020-08-03T15:52:31Z</time>
      </trkpt>
      <trkpt lat="48.02475" lon="6.94652">
        <ele>907</ele>
        <time>2020-08-03T15:52:59Z</time>
      </trkpt>
      <trkpt lat="48.02442" lon="6.94679">
        <ele>903</ele>
        <time>2020-08-03T15:53:49Z</time>
      </trkpt>
      <trkpt lat="48.02446" lon="6.94677">
        <ele>903</ele>
        <time>2020-08-03T15:53:55Z</time>
      </trkpt>
      <trkpt lat="48.02467" lon="6.94703">
        <ele>901</ele>
        <time>2020-08-03T15:54:31Z</time>
      </trkpt>
      <trkpt lat="48.0248" lon="6.94725">
        <ele>899</ele>
        <time>2020-08-03T15:54:58Z</time>
      </trkpt>
      <trkpt lat="48.02485" lon="6.94742">
        <ele>898</ele>
        <time>2020-08-03T15:55:14Z</time>
      </trkpt>
      <trkpt lat="48.02509" lon="6.94762">
        <ele>898</ele>
        <time>2020-08-03T15:55:51Z</time>
      </trkpt>
      <trkpt lat="48.02516" lon="6.94788">
        <ele>899</ele>
        <time>2020-08-03T15:56:16Z</time>
      </trkpt>
      <trkpt lat="48.02513" lon="6.94844">
        <ele>897</ele>
        <time>2020-08-03T15:57:06Z</time>
      </trkpt>
      <trkpt lat="48.025" lon="6.94883">
        <ele>892</ele>
        <time>2020-08-03T15:57:45Z</time>
      </trkpt>
      <trkpt lat="48.02471" lon="6.94934">
        <ele>891</ele>
        <time>2020-08-03T15:58:45Z</time>
      </trkpt>
      <trkpt lat="48.02461" lon="6.94961">
        <ele>889</ele>
        <time>2020-08-03T15:59:12Z</time>
      </trkpt>
      <trkpt lat="48.02463" lon="6.94959">
        <ele>889</ele>
        <time>2020-08-03T15:59:15Z</time>
      </trkpt>
      <trkpt lat="48.02457" lon="6.94986">
        <ele>886</ele>
        <time>2020-08-03T15:59:41Z</time>
      </trkpt>
      <trkpt lat="48.02469" lon="6.95032">
        <ele>883</ele>
        <time>2020-08-03T16:00:25Z</time>
      </trkpt>
      <trkpt lat="48.02465" lon="6.95069">
        <ele>877</ele>
        <time>2020-08-03T16:00:58Z</time>
      </trkpt>
      <trkpt lat="48.0247" lon="6.95097">
        <ele>875</ele>
        <time>2020-08-03T16:01:24Z</time>
      </trkpt>
      <trkpt lat="48.02495" lon="6.95138">
        <ele>878</ele>
        <time>2020-08-03T16:02:14Z</time>
      </trkpt>
      <trkpt lat="48.02495" lon="6.95147">
        <ele>876</ele>
        <time>2020-08-03T16:02:22Z</time>
      </trkpt>
      <trkpt lat="48.02512" lon="6.95172">
        <ele>876</ele>
        <time>2020-08-03T16:02:54Z</time>
      </trkpt>
      <trkpt lat="48.02529" lon="6.95193">
        <ele>875</ele>
        <time>2020-08-03T16:03:23Z</time>
      </trkpt>
      <trkpt lat="48.0255" lon="6.95205">
        <ele>877</ele>
        <time>2020-08-03T16:03:53Z</time>
      </trkpt>
      <trkpt lat="48.02552" lon="6.95218">
        <ele>873</ele>
        <time>2020-08-03T16:04:05Z</time>
      </trkpt>
      <trkpt lat="48.02542" lon="6.95229">
        <ele>868</ele>
        <time>2020-08-03T16:04:21Z</time>
      </trkpt>
      <trkpt lat="48.02515" lon="6.95217">
        <ele>864</ele>
        <time>2020-08-03T16:04:59Z</time>
      </trkpt>
      <trkpt lat="48.02502" lon="6.95219">
        <ele>861</ele>
        <time>2020-08-03T16:05:17Z</time>
      </trkpt>
      <trkpt lat="48.0249" lon="6.95214">
        <ele>859</ele>
        <time>2020-08-03T16:05:33Z</time>
      </trkpt>
      <trkpt lat="48.02462" lon="6.95217">
        <ele>852</ele>
        <time>2020-08-03T16:06:11Z</time>
      </trkpt>
      <trkpt lat="48.02441" lon="6.95213">
        <ele>848</ele>
        <time>2020-08-03T16:06:39Z</time>
      </trkpt>
      <trkpt lat="48.0242" lon="6.95186">
        <ele>847</ele>
        <time>2020-08-03T16:07:16Z</time>
      </trkpt>
      <trkpt lat="48.02397" lon="6.95125">
        <ele>847</ele>
        <time>2020-08-03T16:08:18Z</time>
      </trkpt>
      <trkpt lat="48.02367" lon="6.95078">
        <ele>843</ele>
        <time>2020-08-03T16:09:16Z</time>
      </trkpt>
      <trkpt lat="48.02349" lon="6.9507">
        <ele>839</ele>
        <time>2020-08-03T16:09:41Z</time>
      </trkpt>
      <trkpt lat="48.02349" lon="6.95066">
        <ele>840</ele>
        <time>2020-08-03T16:09:45Z</time>
      </trkpt>
      <trkpt lat="48.02345" lon="6.95067">
        <ele>838</ele>
        <time>2020-08-03T16:09:50Z</time>
      </trkpt>
      <trkpt lat="48.02343" lon="6.95074">
        <ele>836</ele>
        <time>2020-08-03T16:09:57Z</time>
      </trkpt>
      <trkpt lat="48.02342" lon="6.95068">
        <ele>837</ele>
        <time>2020-08-03T16:10:03Z</time>
      </trkpt>
      <trkpt lat="48.02312" lon="6.95038">
        <ele>835</ele>
        <time>2020-08-03T16:10:51Z</time>
      </trkpt>
      <trkpt lat="48.02281" lon="6.95011">
        <ele>830</ele>
        <time>2020-08-03T16:11:39Z</time>
      </trkpt>
      <trkpt lat="48.02252" lon="6.94993">
        <ele>825</ele>
        <time>2020-08-03T16:12:21Z</time>
      </trkpt>
      <trkpt lat="48.02232" lon="6.94969">
        <ele>826</ele>
        <time>2020-08-03T16:12:55Z</time>
      </trkpt>
      <trkpt lat="48.02217" lon="6.94959">
        <ele>824</ele>
        <time>2020-08-03T16:13:17Z</time>
      </trkpt>
      <trkpt lat="48.02181" lon="6.94922">
        <ele>820</ele>
        <time>2020-08-03T16:14:15Z</time>
      </trkpt>
      <trkpt lat="48.02171" lon="6.94921">
        <ele>816</ele>
        <time>2020-08-03T16:14:28Z</time>
      </trkpt>
      <trkpt lat="48.02167" lon="6.94935">
        <ele>812</ele>
        <time>2020-08-03T16:14:42Z</time>
      </trkpt>
      <trkpt lat="48.02183" lon="6.94947">
        <ele>816</ele>
        <time>2020-08-03T16:15:06Z</time>
      </trkpt>
      <trkpt lat="48.02199" lon="6.94977">
        <ele>814</ele>
        <time>2020-08-03T16:15:40Z</time>
      </trkpt>
      <trkpt lat="48.02204" lon="6.95015">
        <ele>809</ele>
        <time>2020-08-03T16:16:15Z</time>
      </trkpt>
      <trkpt lat="48.02215" lon="6.95047">
        <ele>808</ele>
        <time>2020-08-03T16:16:47Z</time>
      </trkpt>
      <trkpt lat="48.02214" lon="6.95079">
        <ele>805</ele>
        <time>2020-08-03T16:17:15Z</time>
      </trkpt>
      <trkpt lat="48.02202" lon="6.95101">
        <ele>803</ele>
        <time>2020-08-03T16:17:41Z</time>
      </trkpt>
      <trkpt lat="48.02183" lon="6.95119">
        <ele>801</ele>
        <time>2020-08-03T16:18:11Z</time>
      </trkpt>
      <trkpt lat="48.0216" lon="6.95127">
        <ele>799</ele>
        <time>2020-08-03T16:18:42Z</time>
      </trkpt>
      <trkpt lat="48.02153" lon="6.95125">
        <ele>799</ele>
        <time>2020-08-03T16:18:52Z</time>
      </trkpt>
      <trkpt lat="48.02156" lon="6.95132">
        <ele>799</ele>
        <time>2020-08-03T16:18:59Z</time>
      </trkpt>
      <trkpt lat="48.02149" lon="6.95161">
        <ele>800</ele>
        <time>2020-08-03T16:19:27Z</time>
      </trkpt>
      <trkpt lat="48.02152" lon="6.95178">
        <ele>800</ele>
        <time>2020-08-03T16:19:42Z</time>
      </trkpt>
      <trkpt lat="48.02143" lon="6.95187">
        <ele>800</ele>
        <time>2020-08-03T16:19:57Z</time>
      </trkpt>
      <trkpt lat="48.02136" lon="6.95203">
        <ele>800</ele>
        <time>2020-08-03T16:20:14Z</time>
      </trkpt>
      <trkpt lat="48.0213" lon="6.95206">
        <ele>800</ele>
        <time>2020-08-03T16:20:22Z</time>
      </trkpt>
      <trkpt lat="48.02096" lon="6.95191">
        <ele>800</ele>
        <time>2020-08-03T16:21:10Z</time>
      </trkpt>
      <trkpt lat="48.0208" lon="6.95196">
        <ele>801</ele>
        <time>2020-08-03T16:21:31Z</time>
      </trkpt>
      <trkpt lat="48.02044" lon="6.95196">
        <ele>805</ele>
        <time>2020-08-03T16:22:20Z</time>
      </trkpt>
      <trkpt lat="48.02041" lon="6.95191">
        <ele>805</ele>
        <time>2020-08-03T16:22:26Z</time>
      </trkpt>
      <trkpt lat="48.02021" lon="6.95182">
        <ele>807</ele>
        <time>2020-08-03T16:22:53Z</time>
      </trkpt>
      <trkpt lat="48.02006" lon="6.9517">
        <ele>807</ele>
        <time>2020-08-03T16:23:16Z</time>
      </trkpt>
      <trkpt lat="48.0198" lon="6.95128">
        <ele>806</ele>
        <time>2020-08-03T16:24:07Z</time>
      </trkpt>
      <trkpt lat="48.01931" lon="6.95089">
        <ele>808</ele>
        <time>2020-08-03T16:25:21Z</time>
      </trkpt>
      <trkpt lat="48.01892" lon="6.95035">
        <ele>807</ele>
        <time>2020-08-03T16:26:32Z</time>
      </trkpt>
      <trkpt lat="48.01869" lon="6.95016">
        <ele>808</ele>
        <time>2020-08-03T16:27:07Z</time>
      </trkpt>
      <trkpt lat="48.01822" lon="6.94995">
        <ele>813</ele>
        <time>2020-08-03T16:28:13Z</time>
      </trkpt>
      <trkpt lat="48.01782" lon="6.94991">
        <ele>821</ele>
        <time>2020-08-03T16:29:06Z</time>
      </trkpt>
      <trkpt lat="48.01746" lon="6.94963">
        <ele>821</ele>
        <time>2020-08-03T16:30:00Z</time>
      </trkpt>
      <trkpt lat="48.01719" lon="6.94948">
        <ele>824</ele>
        <time>2020-08-03T16:30:39Z</time>
      </trkpt>
      <trkpt lat="48.01696" lon="6.94922">
        <ele>822</ele>
        <time>2020-08-03T16:31:17Z</time>
      </trkpt>
      <trkpt lat="48.01691" lon="6.94924">
        <ele>824</ele>
        <time>2020-08-03T16:31:24Z</time>
      </trkpt>
      <trkpt lat="48.01663" lon="6.94911">
        <ele>827</ele>
        <time>2020-08-03T16:32:03Z</time>
      </trkpt>
      <trkpt lat="48.01556" lon="6.94837">
        <ele>823</ele>
        <time>2020-08-03T16:34:41Z</time>
      </trkpt>
      <trkpt lat="48.01545" lon="6.94837">
        <ele>824</ele>
        <time>2020-08-03T16:34:55Z</time>
      </trkpt>
      <trkpt lat="48.01487" lon="6.94817">
        <ele>824</ele>
        <time>2020-08-03T16:36:15Z</time>
      </trkpt>
      <trkpt lat="48.01458" lon="6.94818">
        <ele>824</ele>
        <time>2020-08-03T16:36:53Z</time>
      </trkpt>
      <trkpt lat="48.01435" lon="6.94829">
        <ele>826</ele>
        <time>2020-08-03T16:37:26Z</time>
      </trkpt>
      <trkpt lat="48.01421" lon="6.9484">
        <ele>828</ele>
        <time>2020-08-03T16:37:47Z</time>
      </trkpt>
      <trkpt lat="48.01414" lon="6.94851">
        <ele>831</ele>
        <time>2020-08-03T16:38:00Z</time>
      </trkpt>
      <trkpt lat="48.014" lon="6.94853">
        <ele>832</ele>
        <time>2020-08-03T16:38:19Z</time>
      </trkpt>
      <trkpt lat="48.01401" lon="6.94845">
        <ele>830</ele>
        <time>2020-08-03T16:38:26Z</time>
      </trkpt>
      <trkpt lat="48.01407" lon="6.94841">
        <ele>829</ele>
        <time>2020-08-03T16:38:35Z</time>
      </trkpt>
      <trkpt lat="48.01396" lon="6.94868">
        <ele>836</ele>
        <time>2020-08-03T16:39:03Z</time>
      </trkpt>
      <trkpt lat="48.01376" lon="6.94892">
        <ele>841</ele>
        <time>2020-08-03T16:39:38Z</time>
      </trkpt>
      <trkpt lat="48.01361" lon="6.94901">
        <ele>842</ele>
        <time>2020-08-03T16:39:59Z</time>
      </trkpt>
      <trkpt lat="48.01354" lon="6.94919">
        <ele>844</ele>
        <time>2020-08-03T16:40:18Z</time>
      </trkpt>
      <trkpt lat="48.01333" lon="6.94936">
        <ele>847</ele>
        <time>2020-08-03T16:40:50Z</time>
      </trkpt>
      <trkpt lat="48.01308" lon="6.94941">
        <ele>851</ele>
        <time>2020-08-03T16:41:23Z</time>
      </trkpt>
      <trkpt lat="48.01295" lon="6.94928">
        <ele>851</ele>
        <time>2020-08-03T16:41:44Z</time>
      </trkpt>
      <trkpt lat="48.01292" lon="6.94921">
        <ele>851</ele>
        <time>2020-08-03T16:41:52Z</time>
      </trkpt>
      <trkpt lat="48.01295" lon="6.94917">
        <ele>850</ele>
        <time>2020-08-03T16:41:57Z</time>
      </trkpt>
      <trkpt lat="48.01291" lon="6.94929">
        <ele>852</ele>
        <time>2020-08-03T16:42:09Z</time>
      </trkpt>
      <trkpt lat="48.01283" lon="6.94917">
        <ele>853</ele>
        <time>2020-08-03T16:42:24Z</time>
      </trkpt>
      <trkpt lat="48.0128" lon="6.94931">
        <ele>854</ele>
        <time>2020-08-03T16:42:37Z</time>
      </trkpt>
      <trkpt lat="48.01285" lon="6.94933">
        <ele>853</ele>
        <time>2020-08-03T16:42:44Z</time>
      </trkpt>
      <trkpt lat="48.01278" lon="6.94928">
        <ele>854</ele>
        <time>2020-08-03T16:42:54Z</time>
      </trkpt>
      <trkpt lat="48.01281" lon="6.94911">
        <ele>853</ele>
        <time>2020-08-03T16:43:10Z</time>
      </trkpt>
      <trkpt lat="48.01289" lon="6.94912">
        <ele>852</ele>
        <time>2020-08-03T16:43:21Z</time>
      </trkpt>
      <trkpt lat="48.01297" lon="6.94895">
        <ele>850</ele>
        <time>2020-08-03T16:43:39Z</time>
      </trkpt>
      <trkpt lat="48.0129" lon="6.94907">
        <ele>851</ele>
        <time>2020-08-03T16:43:54Z</time>
      </trkpt>
      <trkpt lat="48.01273" lon="6.94914">
        <ele>855</ele>
        <time>2020-08-03T16:44:17Z</time>
      </trkpt>
      <trkpt lat="48.01264" lon="6.94913">
        <ele>857</ele>
        <time>2020-08-03T16:44:29Z</time>
      </trkpt>
      <trkpt lat="48.01232" lon="6.9494">
        <ele>865</ele>
        <time>2020-08-03T16:45:18Z</time>
      </trkpt>
      <trkpt lat="48.01222" lon="6.9494">
        <ele>869</ele>
        <time>2020-08-03T16:45:32Z</time>
      </trkpt>
      <trkpt lat="48.01194" lon="6.94959">
        <ele>877</ele>
        <time>2020-08-03T16:46:13Z</time>
      </trkpt>
      <trkpt lat="48.01185" lon="6.94959">
        <ele>880</ele>
        <time>2020-08-03T16:46:25Z</time>
      </trkpt>
      <trkpt lat="48.01168" lon="6.94973">
        <ele>884</ele>
        <time>2020-08-03T16:46:50Z</time>
      </trkpt>
      <trkpt lat="48.01165" lon="6.94985">
        <ele>883</ele>
        <time>2020-08-03T16:47:02Z</time>
      </trkpt>
      <trkpt lat="48.01142" lon="6.94999">
        <ele>892</ele>
        <time>2020-08-03T16:47:35Z</time>
      </trkpt>
      <trkpt lat="48.01111" lon="6.95036">
        <ele>901</ele>
        <time>2020-08-03T16:48:28Z</time>
      </trkpt>
      <trkpt lat="48.01114" lon="6.95034">
        <ele>900</ele>
        <time>2020-08-03T16:48:32Z</time>
      </trkpt>
      <trkpt lat="48.01109" lon="6.95033">
        <ele>902</ele>
        <time>2020-08-03T16:48:39Z</time>
      </trkpt>
      <trkpt lat="48.01074" lon="6.95091">
        <ele>910</ele>
        <time>2020-08-03T16:49:49Z</time>
      </trkpt>
      <trkpt lat="48.01061" lon="6.951">
        <ele>916</ele>
        <time>2020-08-03T16:50:08Z</time>
      </trkpt>
      <trkpt lat="48.01055" lon="6.95121">
        <ele>918</ele>
        <time>2020-08-03T16:50:28Z</time>
      </trkpt>
      <trkpt lat="48.01049" lon="6.95119">
        <ele>921</ele>
        <time>2020-08-03T16:50:37Z</time>
      </trkpt>
      <trkpt lat="48.01038" lon="6.95156">
        <ele>924</ele>
        <time>2020-08-03T16:51:13Z</time>
      </trkpt>
      <trkpt lat="48.01032" lon="6.95165">
        <ele>926</ele>
        <time>2020-08-03T16:51:24Z</time>
      </trkpt>
      <trkpt lat="48.01024" lon="6.95169">
        <ele>930</ele>
        <time>2020-08-03T16:51:35Z</time>
      </trkpt>
      <trkpt lat="48.01019" lon="6.95184">
        <ele>934</ele>
        <time>2020-08-03T16:51:50Z</time>
      </trkpt>
      <trkpt lat="48.01014" lon="6.95187">
        <ele>936</ele>
        <time>2020-08-03T16:51:57Z</time>
      </trkpt>
      <trkpt lat="48.0101" lon="6.95207">
        <ele>939</ele>
        <time>2020-08-03T16:52:16Z</time>
      </trkpt>
      <trkpt lat="48.01013" lon="6.95219">
        <ele>938</ele>
        <time>2020-08-03T16:52:28Z</time>
      </trkpt>
      <trkpt lat="48.01018" lon="6.95222">
        <ele>936</ele>
        <time>2020-08-03T16:52:35Z</time>
      </trkpt>
      <trkpt lat="48.01007" lon="6.95241">
        <ele>942</ele>
        <time>2020-08-03T16:52:57Z</time>
      </trkpt>
      <trkpt lat="48.0101" lon="6.95253">
        <ele>941</ele>
        <time>2020-08-03T16:53:09Z</time>
      </trkpt>
      <trkpt lat="48.01016" lon="6.95253">
        <ele>939</ele>
        <time>2020-08-03T16:53:17Z</time>
      </trkpt>
      <trkpt lat="48.01006" lon="6.95251">
        <ele>943</ele>
        <time>2020-08-03T16:53:30Z</time>
      </trkpt>
      <trkpt lat="48.0101" lon="6.95248">
        <ele>941</ele>
        <time>2020-08-03T16:53:36Z</time>
      </trkpt>
      <trkpt lat="48.01015" lon="6.95262">
        <ele>940</ele>
        <time>2020-08-03T16:53:50Z</time>
      </trkpt>
      <trkpt lat="48.01006" lon="6.95262">
        <ele>944</ele>
        <time>2020-08-03T16:54:02Z</time>
      </trkpt>
      <trkpt lat="48.01008" lon="6.95319">
        <ele>951</ele>
        <time>2020-08-03T16:54:53Z</time>
      </trkpt>
      <trkpt lat="48.01019" lon="6.95362">
        <ele>953</ele>
        <time>2020-08-03T16:55:34Z</time>
      </trkpt>
      <trkpt lat="48.01013" lon="6.95398">
        <ele>959</ele>
        <time>2020-08-03T16:56:07Z</time>
      </trkpt>
      <trkpt lat="48.01022" lon="6.95435">
        <ele>963</ele>
        <time>2020-08-03T16:56:43Z</time>
      </trkpt>
      <trkpt lat="48.01018" lon="6.95449">
        <ele>965</ele>
        <time>2020-08-03T16:56:56Z</time>
      </trkpt>
      <trkpt lat="48.01017" lon="6.95484">
        <ele>969</ele>
        <time>2020-08-03T16:57:27Z</time>
      </trkpt>
      <trkpt lat="48.00999" lon="6.95532">
        <ele>973</ele>
        <time>2020-08-03T16:58:17Z</time>
      </trkpt>
      <trkpt lat="48.01" lon="6.95549">
        <ele>974</ele>
        <time>2020-08-03T16:58:32Z</time>
      </trkpt>
      <trkpt lat="48.00994" lon="6.95558">
        <ele>976</ele>
        <time>2020-08-03T16:58:43Z</time>
      </trkpt>
      <trkpt lat="48.00992" lon="6.95578">
        <ele>977</ele>
        <time>2020-08-03T16:59:01Z</time>
      </trkpt>
      <trkpt lat="48.01006" lon="6.9563">
        <ele>978</ele>
        <time>2020-08-03T16:59:51Z</time>
      </trkpt>
      <trkpt lat="48.01027" lon="6.95663">
        <ele>983</ele>
        <time>2020-08-03T17:00:32Z</time>
      </trkpt>
      <trkpt lat="48.01021" lon="6.95657">
        <ele>982</ele>
        <time>2020-08-03T17:00:41Z</time>
      </trkpt>
      <trkpt lat="48.01025" lon="6.95682">
        <ele>985</ele>
        <time>2020-08-03T17:01:04Z</time>
      </trkpt>
      <trkpt lat="48.01013" lon="6.95716">
        <ele>986</ele>
        <time>2020-08-03T17:01:39Z</time>
      </trkpt>
      <trkpt lat="48.01008" lon="6.9575">
        <ele>988</ele>
        <time>2020-08-03T17:02:10Z</time>
      </trkpt>
      <trkpt lat="48.0099" lon="6.95758">
        <ele>988</ele>
        <time>2020-08-03T17:02:35Z</time>
      </trkpt>
      <trkpt lat="48.00981" lon="6.9578">
        <ele>990</ele>
        <time>2020-08-03T17:02:58Z</time>
      </trkpt>
      <trkpt lat="48.0097" lon="6.959">
        <ele>994</ele>
        <time>2020-08-03T17:04:46Z</time>
      </trkpt>
      <trkpt lat="48.00959" lon="6.95904">
        <ele>993</ele>
        <time>2020-08-03T17:05:01Z</time>
      </trkpt>
      <trkpt lat="48.00953" lon="6.95913">
        <ele>992</ele>
        <time>2020-08-03T17:05:13Z</time>
      </trkpt>
      <trkpt lat="48.00956" lon="6.95949">
        <ele>992</ele>
        <time>2020-08-03T17:05:45Z</time>
      </trkpt>
      <trkpt lat="48.00952" lon="6.95957">
        <ele>992</ele>
        <time>2020-08-03T17:05:54Z</time>
      </trkpt>
      <trkpt lat="48.0095" lon="6.95988">
        <ele>992</ele>
        <time>2020-08-03T17:06:22Z</time>
      </trkpt>
      <trkpt lat="48.00954" lon="6.96016">
        <ele>993</ele>
        <time>2020-08-03T17:06:47Z</time>
      </trkpt>
      <trkpt lat="48.00946" lon="6.96083">
        <ele>995</ele>
        <time>2020-08-03T17:07:48Z</time>
      </trkpt>
      <trkpt lat="48.00925" lon="6.96155">
        <ele>999</ele>
        <time>2020-08-03T17:08:58Z</time>
      </trkpt>
      <trkpt lat="48.00915" lon="6.96166">
        <ele>998</ele>
        <time>2020-08-03T17:09:15Z</time>
      </trkpt>
      <trkpt lat="48.00899" lon="6.96173">
        <ele>997</ele>
        <time>2020-08-03T17:09:37Z</time>
      </trkpt>
      <trkpt lat="48.00861" lon="6.962">
        <ele>997</ele>
        <time>2020-08-03T17:10:33Z</time>
      </trkpt>
      <trkpt lat="48.00805" lon="6.96271">
        <ele>998</ele>
        <time>2020-08-03T17:12:11Z</time>
      </trkpt>
      <trkpt lat="48.008" lon="6.96283">
        <ele>998</ele>
        <time>2020-08-03T17:12:24Z</time>
      </trkpt>
      <trkpt lat="48.00794" lon="6.96278">
        <ele>997</ele>
        <time>2020-08-03T17:12:33Z</time>
      </trkpt>
      <trkpt lat="48.00778" lon="6.96331">
        <ele>999</ele>
        <time>2020-08-03T17:13:25Z</time>
      </trkpt>
      <trkpt lat="48.00756" lon="6.9637">
        <ele>1002</ele>
        <time>2020-08-03T17:14:10Z</time>
      </trkpt>
      <trkpt lat="48.00749" lon="6.9638">
        <ele>1003</ele>
        <time>2020-08-03T17:14:23Z</time>
      </trkpt>
      <trkpt lat="48.00711" lon="6.96392">
        <ele>1001</ele>
        <time>2020-08-03T17:15:15Z</time>
      </trkpt>
      <trkpt lat="48.00689" lon="6.9641">
        <ele>1000</ele>
        <time>2020-08-03T17:15:48Z</time>
      </trkpt>
      <trkpt lat="48.00651" lon="6.96462">
        <ele>1002</ele>
        <time>2020-08-03T17:16:57Z</time>
      </trkpt>
      <trkpt lat="48.00646" lon="6.96484">
        <ele>1003</ele>
        <time>2020-08-03T17:17:18Z</time>
      </trkpt>
      <trkpt lat="48.00618" lon="6.96533">
        <ele>1006</ele>
        <time>2020-08-03T17:18:16Z</time>
      </trkpt>
      <trkpt lat="48.0061" lon="6.96555">
        <ele>1008</ele>
        <time>2020-08-03T17:18:38Z</time>
      </trkpt>
      <trkpt lat="48.0057" lon="6.96599">
        <ele>1010</ele>
        <time>2020-08-03T17:19:44Z</time>
      </trkpt>
      <trkpt lat="48.00546" lon="6.96611">
        <ele>1011</ele>
        <time>2020-08-03T17:20:18Z</time>
      </trkpt>
      <trkpt lat="48.00533" lon="6.96628">
        <ele>1014</ele>
        <time>2020-08-03T17:20:41Z</time>
      </trkpt>
      <trkpt lat="48.00526" lon="6.96627">
        <ele>1012</ele>
        <time>2020-08-03T17:20:50Z</time>
      </trkpt>
      <trkpt lat="48.0051" lon="6.96632">
        <ele>1011</ele>
        <time>2020-08-03T17:21:12Z</time>
      </trkpt>
      <trkpt lat="48.00502" lon="6.96639">
        <ele>1012</ele>
        <time>2020-08-03T17:21:25Z</time>
      </trkpt>
      <trkpt lat="48.00459" lon="6.96647">
        <ele>1016</ele>
        <time>2020-08-03T17:22:22Z</time>
      </trkpt>
      <trkpt lat="48.00455" lon="6.96651">
        <ele>1017</ele>
        <time>2020-08-03T17:22:29Z</time>
      </trkpt>
      <trkpt lat="48.00415" lon="6.96637">
        <ele>1019</ele>
        <time>2020-08-03T17:23:24Z</time>
      </trkpt>
      <trkpt lat="48.004" lon="6.96625">
        <ele>1020</ele>
        <time>2020-08-03T17:23:46Z</time>
      </trkpt>
      <trkpt lat="48.00397" lon="6.96616">
        <ele>1020</ele>
        <time>2020-08-03T17:23:55Z</time>
      </trkpt>
      <trkpt lat="48.00386" lon="6.96605">
        <ele>1022</ele>
        <time>2020-08-03T17:24:13Z</time>
      </trkpt>
      <trkpt lat="48.00374" lon="6.96606">
        <ele>1024</ele>
        <time>2020-08-03T17:24:29Z</time>
      </trkpt>
      <trkpt lat="48.00378" lon="6.96602">
        <ele>1023</ele>
        <time>2020-08-03T17:24:35Z</time>
      </trkpt>
      <trkpt lat="48.00384" lon="6.96633">
        <ele>1023</ele>
        <time>2020-08-03T17:25:04Z</time>
      </trkpt>
      <trkpt lat="48.00386" lon="6.96695">
        <ele>1024</ele>
        <time>2020-08-03T17:26:00Z</time>
      </trkpt>
      <trkpt lat="48.00385" lon="6.96689">
        <ele>1024</ele>
        <time>2020-08-03T17:26:05Z</time>
      </trkpt>
      <trkpt lat="48.00394" lon="6.96703">
        <ele>1025</ele>
        <time>2020-08-03T17:26:22Z</time>
      </trkpt>
      <trkpt lat="48.00397" lon="6.96717">
        <ele>1025</ele>
        <time>2020-08-03T17:26:36Z</time>
      </trkpt>
      <trkpt lat="48.00387" lon="6.96719">
        <ele>1025</ele>
        <time>2020-08-03T17:26:49Z</time>
      </trkpt>
      <trkpt lat="48.00407" lon="6.96736">
        <ele>1027</ele>
        <time>2020-08-03T17:27:20Z</time>
      </trkpt>
      <trkpt lat="48.00413" lon="6.96746">
        <ele>1029</ele>
        <time>2020-08-03T17:27:32Z</time>
      </trkpt>
      <trkpt lat="48.00414" lon="6.96766">
        <ele>1029</ele>
        <time>2020-08-03T17:27:50Z</time>
      </trkpt>
      <trkpt lat="48.00423" lon="6.96771">
        <ele>1031</ele>
        <time>2020-08-03T17:28:02Z</time>
      </trkpt>
      <trkpt lat="48.00438" lon="6.96762">
        <ele>1034</ele>
        <time>2020-08-03T17:28:24Z</time>
      </trkpt>
      <trkpt lat="48.00455" lon="6.96758">
        <ele>1037</ele>
        <time>2020-08-03T17:28:47Z</time>
      </trkpt>
      <trkpt lat="48.00461" lon="6.96758">
        <ele>1038</ele>
        <time>2020-08-03T17:28:55Z</time>
      </trkpt>
      <trkpt lat="48.00461" lon="6.96763">
        <ele>1038</ele>
        <time>2020-08-03T17:29:00Z</time>
      </trkpt>
      <trkpt lat="48.00466" lon="6.96765">
        <ele>1039</ele>
        <time>2020-08-03T17:29:06Z</time>
      </trkpt>
      <trkpt lat="48.00477" lon="6.96763">
        <ele>1041</ele>
        <time>2020-08-03T17:29:21Z</time>
      </trkpt>
      <trkpt lat="48.00502" lon="6.96756">
        <ele>1045</ele>
        <time>2020-08-03T17:29:55Z</time>
      </trkpt>
      <trkpt lat="48.00521" lon="6.96745">
        <ele>1047</ele>
        <time>2020-08-03T17:30:22Z</time>
      </trkpt>
      <trkpt lat="48.00529" lon="6.96751">
        <ele>1051</ele>
        <time>2020-08-03T17:30:34Z</time>
      </trkpt>
      <trkpt lat="48.00528" lon="6.9674">
        <ele>1047</ele>
        <time>2020-08-03T17:30:44Z</time>
      </trkpt>
      <trkpt lat="48.00526" lon="6.96742">
        <ele>1048</ele>
        <time>2020-08-03T17:30:47Z</time>
      </trkpt>
      <trkpt lat="48.00522" lon="6.96733">
        <ele>1044</ele>
        <time>2020-08-03T17:30:57Z</time>
      </trkpt>
      <trkpt lat="48.00536" lon="6.96734">
        <ele>1048</ele>
        <time>2020-08-03T17:31:16Z</time>
      </trkpt>
      <trkpt lat="48.00545" lon="6.9672">
        <ele>1045</ele>
        <time>2020-08-03T17:31:33Z</time>
      </trkpt>
      <trkpt lat="48.0056" lon="6.9672">
        <ele>1049</ele>
        <time>2020-08-03T17:31:53Z</time>
      </trkpt>
      <trkpt lat="48.00576" lon="6.96709">
        <ele>1049</ele>
        <time>2020-08-03T17:32:17Z</time>
      </trkpt>
      <trkpt lat="48.00596" lon="6.96706">
        <ele>1053</ele>
        <time>2020-08-03T17:32:43Z</time>
      </trkpt>
      <trkpt lat="48.00606" lon="6.96698">
        <ele>1052</ele>
        <time>2020-08-03T17:32:59Z</time>
      </trkpt>
      <trkpt lat="48.00621" lon="6.96694">
        <ele>1055</ele>
        <time>2020-08-03T17:33:19Z</time>
      </trkpt>
      <trkpt lat="48.00641" lon="6.9669">
        <ele>1059</ele>
        <time>2020-08-03T17:33:46Z</time>
      </trkpt>
      <trkpt lat="48.0065" lon="6.96693">
        <ele>1062</ele>
        <time>2020-08-03T17:33:58Z</time>
      </trkpt>
      <trkpt lat="48.0067" lon="6.96682">
        <ele>1063</ele>
        <time>2020-08-03T17:34:27Z</time>
      </trkpt>
      <trkpt lat="48.00701" lon="6.96675">
        <ele>1063</ele>
        <time>2020-08-03T17:35:08Z</time>
      </trkpt>
      <trkpt lat="48.0071" lon="6.96675">
        <ele>1063</ele>
        <time>2020-08-03T17:35:20Z</time>
      </trkpt>
      <trkpt lat="48.00715" lon="6.96685">
        <ele>1067</ele>
        <time>2020-08-03T17:35:32Z</time>
      </trkpt>
      <trkpt lat="48.00747" lon="6.96685">
        <ele>1069</ele>
        <time>2020-08-03T17:36:14Z</time>
      </trkpt>
      <trkpt lat="48.00769" lon="6.96708">
        <ele>1074</ele>
        <time>2020-08-03T17:36:50Z</time>
      </trkpt>
      <trkpt lat="48.00799" lon="6.96752">
        <ele>1081</ele>
        <time>2020-08-03T17:37:46Z</time>
      </trkpt>
      <trkpt lat="48.00836" lon="6.96834">
        <ele>1092</ele>
        <time>2020-08-03T17:39:14Z</time>
      </trkpt>
      <trkpt lat="48.0087" lon="6.96891">
        <ele>1098</ele>
        <time>2020-08-03T17:40:23Z</time>
      </trkpt>
      <trkpt lat="48.00899" lon="6.96903">
        <ele>1097</ele>
        <time>2020-08-03T17:41:03Z</time>
      </trkpt>
      <trkpt lat="48.0091" lon="6.96902">
        <ele>1096</ele>
        <time>2020-08-03T17:41:18Z</time>
      </trkpt>
      <trkpt lat="48.00925" lon="6.96918">
        <ele>1098</ele>
        <time>2020-08-03T17:41:42Z</time>
      </trkpt>
      <trkpt lat="48.00931" lon="6.96909">
        <ele>1097</ele>
        <time>2020-08-03T17:41:53Z</time>
      </trkpt>
      <trkpt lat="48.00946" lon="6.96919">
        <ele>1100</ele>
        <time>2020-08-03T17:42:15Z</time>
      </trkpt>
      <trkpt lat="48.00965" lon="6.96924">
        <ele>1103</ele>
        <time>2020-08-03T17:42:41Z</time>
      </trkpt>
      <trkpt lat="48.00991" lon="6.9692">
        <ele>1105</ele>
        <time>2020-08-03T17:43:16Z</time>
      </trkpt>
      <trkpt lat="48.01007" lon="6.96931">
        <ele>1109</ele>
        <time>2020-08-03T17:43:40Z</time>
      </trkpt>
      <trkpt lat="48.01016" lon="6.96924">
        <ele>1108</ele>
        <time>2020-08-03T17:43:53Z</time>
      </trkpt>
      <trkpt lat="48.01024" lon="6.96927">
        <ele>1109</ele>
        <time>2020-08-03T17:44:04Z</time>
      </trkpt>
      <trkpt lat="48.01033" lon="6.96923">
        <ele>1109</ele>
        <time>2020-08-03T17:44:17Z</time>
      </trkpt>
      <trkpt lat="48.01058" lon="6.9693">
        <ele>1113</ele>
        <time>2020-08-03T17:44:51Z</time>
      </trkpt>
      <trkpt lat="48.01067" lon="6.96924">
        <ele>1113</ele>
        <time>2020-08-03T17:45:04Z</time>
      </trkpt>
      <trkpt lat="48.01086" lon="6.96922">
        <ele>1114</ele>
        <time>2020-08-03T17:45:29Z</time>
      </trkpt>
      <trkpt lat="48.01099" lon="6.96908">
        <ele>1113</ele>
        <time>2020-08-03T17:45:50Z</time>
      </trkpt>
      <trkpt lat="48.01106" lon="6.96917">
        <ele>1116</ele>
        <time>2020-08-03T17:46:03Z</time>
      </trkpt>
      <trkpt lat="48.01112" lon="6.96901">
        <ele>1114</ele>
        <time>2020-08-03T17:46:19Z</time>
      </trkpt>
      <trkpt lat="48.01117" lon="6.96899">
        <ele>1114</ele>
        <time>2020-08-03T17:46:26Z</time>
      </trkpt>
      <trkpt lat="48.01133" lon="6.96908">
        <ele>1117</ele>
        <time>2020-08-03T17:46:49Z</time>
      </trkpt>
      <trkpt lat="48.01143" lon="6.9692">
        <ele>1120</ele>
        <time>2020-08-03T17:47:06Z</time>
      </trkpt>
      <trkpt lat="48.01162" lon="6.96918">
        <ele>1122</ele>
        <time>2020-08-03T17:47:31Z</time>
      </trkpt>
      <trkpt lat="48.01167" lon="6.96922">
        <ele>1123</ele>
        <time>2020-08-03T17:47:39Z</time>
      </trkpt>
      <trkpt lat="48.01164" lon="6.96923">
        <ele>1123</ele>
        <time>2020-08-03T17:47:43Z</time>
      </trkpt>
      <trkpt lat="48.01192" lon="6.96927">
        <ele>1126</ele>
        <time>2020-08-03T17:48:21Z</time>
      </trkpt>
      <trkpt lat="48.01236" lon="6.96948">
        <ele>1134</ele>
        <time>2020-08-03T17:49:22Z</time>
      </trkpt>
      <trkpt lat="48.01268" lon="6.96908">
        <ele>1132</ele>
        <time>2020-08-03T17:50:18Z</time>
      </trkpt>
      <trkpt lat="48.01311" lon="6.9689">
        <ele>1134</ele>
        <time>2020-08-03T17:51:18Z</time>
      </trkpt>
      <trkpt lat="48.01317" lon="6.96891">
        <ele>1135</ele>
        <time>2020-08-03T17:51:26Z</time>
      </trkpt>
      <trkpt lat="48.01316" lon="6.96897">
        <ele>1135</ele>
        <time>2020-08-03T17:51:31Z</time>
      </trkpt>
      <trkpt lat="48.01319" lon="6.96895">
        <ele>1135</ele>
        <time>2020-08-03T17:51:35Z</time>
      </trkpt>
      <trkpt lat="48.01326" lon="6.96844">
        <ele>1131</ele>
        <time>2020-08-03T17:52:22Z</time>
      </trkpt>
      <trkpt lat="48.01336" lon="6.96832">
        <ele>1130</ele>
        <time>2020-08-03T17:52:39Z</time>
      </trkpt>
      <trkpt lat="48.01364" lon="6.96832">
        <ele>1128</ele>
        <time>2020-08-03T17:53:16Z</time>
      </trkpt>
      <trkpt lat="48.01382" lon="6.96825">
        <ele>1126</ele>
        <time>2020-08-03T17:53:41Z</time>
      </trkpt>
      <trkpt lat="48.01395" lon="6.96829">
        <ele>1125</ele>
        <time>2020-08-03T17:53:59Z</time>
      </trkpt>
      <trkpt lat="48.01455" lon="6.96864">
        <ele>1121</ele>
        <time>2020-08-03T17:55:25Z</time>
      </trkpt>
      <trkpt lat="48.01463" lon="6.96876">
        <ele>1120</ele>
        <time>2020-08-03T17:55:40Z</time>
      </trkpt>
      <trkpt lat="48.01491" lon="6.969">
        <ele>1117</ele>
        <time>2020-08-03T17:56:23Z</time>
      </trkpt>
      <trkpt lat="48.01512" lon="6.9693">
        <ele>1115</ele>
        <time>2020-08-03T17:57:02Z</time>
      </trkpt>
      <trkpt lat="48.01521" lon="6.96957">
        <ele>1115</ele>
        <time>2020-08-03T17:57:29Z</time>
      </trkpt>
      <trkpt lat="48.01532" lon="6.96965">
        <ele>1113</ele>
        <time>2020-08-03T17:57:45Z</time>
      </trkpt>
      <trkpt lat="48.01546" lon="6.96984">
        <ele>1110</ele>
        <time>2020-08-03T17:58:10Z</time>
      </trkpt>
      <trkpt lat="48.01571" lon="6.97028">
        <ele>1107</ele>
        <time>2020-08-03T17:59:02Z</time>
      </trkpt>
      <trkpt lat="48.01581" lon="6.97062">
        <ele>1106</ele>
        <time>2020-08-03T17:59:35Z</time>
      </trkpt>
      <trkpt lat="48.01593" lon="6.97086">
        <ele>1102</ele>
        <time>2020-08-03T18:00:02Z</time>
      </trkpt>
      <trkpt lat="48.01602" lon="6.97095">
        <ele>1097</ele>
        <time>2020-08-03T18:00:16Z</time>
      </trkpt>
      <trkpt lat="48.01619" lon="6.97147">
        <ele>1089</ele>
        <time>2020-08-03T18:01:08Z</time>
      </trkpt>
      <trkpt lat="48.01621" lon="6.97163">
        <ele>1088</ele>
        <time>2020-08-03T18:01:22Z</time>
      </trkpt>
      <trkpt lat="48.01616" lon="6.97192">
        <ele>1086</ele>
        <time>2020-08-03T18:01:49Z</time>
      </trkpt>
      <trkpt lat="48.01637" lon="6.97205">
        <ele>1077</ele>
        <time>2020-08-03T18:02:19Z</time>
      </trkpt>
      <trkpt lat="48.01649" lon="6.97221">
        <ele>1071</ele>
        <time>2020-08-03T18:02:41Z</time>
      </trkpt>
      <trkpt lat="48.01658" lon="6.97225">
        <ele>1068</ele>
        <time>2020-08-03T18:02:53Z</time>
      </trkpt>
      <trkpt lat="48.01685" lon="6.97251">
        <ele>1058</ele>
        <time>2020-08-03T18:03:36Z</time>
      </trkpt>
      <trkpt lat="48.01687" lon="6.97257">
        <ele>1056</ele>
        <time>2020-08-03T18:03:42Z</time>
      </trkpt>
      <trkpt lat="48.01711" lon="6.97275">
        <ele>1045</ele>
        <time>2020-08-03T18:04:18Z</time>
      </trkpt>
      <trkpt lat="48.01724" lon="6.97291">
        <ele>1040</ele>
        <time>2020-08-03T18:04:41Z</time>
      </trkpt>
      <trkpt lat="48.01734" lon="6.97296">
        <ele>1037</ele>
        <time>2020-08-03T18:04:55Z</time>
      </trkpt>
      <trkpt lat="48.0176" lon="6.97327">
        <ele>1028</ele>
        <time>2020-08-03T18:05:39Z</time>
      </trkpt>
      <trkpt lat="48.01787" lon="6.97342">
        <ele>1020</ele>
        <time>2020-08-03T18:06:18Z</time>
      </trkpt>
      <trkpt lat="48.01801" lon="6.97364">
        <ele>1013</ele>
        <time>2020-08-03T18:06:45Z</time>
      </trkpt>
      <trkpt lat="48.01815" lon="6.9737">
        <ele>1009</ele>
        <time>2020-08-03T18:07:04Z</time>
      </trkpt>
      <trkpt lat="48.0182" lon="6.9738">
        <ele>1006</ele>
        <time>2020-08-03T18:07:15Z</time>
      </trkpt>
      <trkpt lat="48.01826" lon="6.97382">
        <ele>1005</ele>
        <time>2020-08-03T18:07:23Z</time>
      </trkpt>
      <trkpt lat="48.01852" lon="6.97409">
        <ele>998</ele>
        <time>2020-08-03T18:08:06Z</time>
      </trkpt>
      <trkpt lat="48.0185" lon="6.97419">
        <ele>997</ele>
        <time>2020-08-03T18:08:15Z</time>
      </trkpt>
      <trkpt lat="48.01833" lon="6.97445">
        <ele>995</ele>
        <time>2020-08-03T18:08:47Z</time>
      </trkpt>
      <trkpt lat="48.01832" lon="6.97455">
        <ele>994</ele>
        <time>2020-08-03T18:08:56Z</time>
      </trkpt>
      <trkpt lat="48.01853" lon="6.9749">
        <ele>991</ele>
        <time>2020-08-03T18:09:38Z</time>
      </trkpt>
      <trkpt lat="48.01861" lon="6.97518">
        <ele>991</ele>
        <time>2020-08-03T18:10:06Z</time>
      </trkpt>
      <trkpt lat="48.01874" lon="6.97545">
        <ele>992</ele>
        <time>2020-08-03T18:10:35Z</time>
      </trkpt>
      <trkpt lat="48.0187" lon="6.97562">
        <ele>992</ele>
        <time>2020-08-03T18:10:51Z</time>
      </trkpt>
      <trkpt lat="48.0187" lon="6.976">
        <ele>993</ele>
        <time>2020-08-03T18:11:25Z</time>
      </trkpt>
      <trkpt lat="48.01876" lon="6.97622">
        <ele>994</ele>
        <time>2020-08-03T18:11:46Z</time>
      </trkpt>
      <trkpt lat="48.0188" lon="6.97668">
        <ele>995</ele>
        <time>2020-08-03T18:12:28Z</time>
      </trkpt>
      <trkpt lat="48.01875" lon="6.97713">
        <ele>998</ele>
        <time>2020-08-03T18:13:09Z</time>
      </trkpt>
      <trkpt lat="48.01856" lon="6.97749">
        <ele>998</ele>
        <time>2020-08-03T18:13:50Z</time>
      </trkpt>
      <trkpt lat="48.01829" lon="6.97789">
        <ele>997</ele>
        <time>2020-08-03T18:14:40Z</time>
      </trkpt>
      <trkpt lat="48.01816" lon="6.97802">
        <ele>996</ele>
        <time>2020-08-03T18:15:01Z</time>
      </trkpt>
      <trkpt lat="48.01811" lon="6.97833">
        <ele>997</ele>
        <time>2020-08-03T18:15:30Z</time>
      </trkpt>
      <trkpt lat="48.01827" lon="6.9783">
        <ele>999</ele>
        <time>2020-08-03T18:15:51Z</time>
      </trkpt>
      <trkpt lat="48.01818" lon="6.97835">
        <ele>998</ele>
        <time>2020-08-03T18:16:04Z</time>
      </trkpt>
      <trkpt lat="48.01808" lon="6.97831">
        <ele>996</ele>
        <time>2020-08-03T18:16:18Z</time>
      </trkpt>
      <trkpt lat="48.01799" lon="6.97844">
        <ele>995</ele>
        <time>2020-08-03T18:16:34Z</time>
      </trkpt>
      <trkpt lat="48.01786" lon="6.97896">
        <ele>995</ele>
        <time>2020-08-03T18:17:24Z</time>
      </trkpt>
      <trkpt lat="48.01769" lon="6.9793">
        <ele>994</ele>
        <time>2020-08-03T18:18:02Z</time>
      </trkpt>
      <trkpt lat="48.01751" lon="6.97954">
        <ele>995</ele>
        <time>2020-08-03T18:18:34Z</time>
      </trkpt>
      <trkpt lat="48.01734" lon="6.97911">
        <ele>990</ele>
        <time>2020-08-03T18:19:19Z</time>
      </trkpt>
      <trkpt lat="48.01726" lon="6.97908">
        <ele>990</ele>
        <time>2020-08-03T18:19:30Z</time>
      </trkpt>
    </trkseg>
  </trk>
  <trk>
    <name><![CDATA[11799676-29/07/2020 Du lac Blanchemer au lac de Longemer]]></name>
    <trkseg>
      <trkpt lat="48.01738" lon="6.97895">
        <ele>989</ele>
        <time>2020-08-03T12:15:47Z</time>
      </trkpt>
      <trkpt lat="48.01741" lon="6.97886">
        <ele>989</ele>
        <time>2020-08-03T12:15:56Z</time>
      </trkpt>
      <trkpt lat="48.01744" lon="6.9789">
        <ele>989</ele>
        <time>2020-08-03T12:16:01Z</time>
      </trkpt>
      <trkpt lat="48.01735" lon="6.97904">
        <ele>989</ele>
        <time>2020-08-03T12:16:19Z</time>
      </trkpt>
      <trkpt lat="48.01739" lon="6.97907">
        <ele>989</ele>
        <time>2020-08-03T12:16:25Z</time>
      </trkpt>
      <trkpt lat="48.01737" lon="6.97898">
        <ele>989</ele>
        <time>2020-08-03T12:16:33Z</time>
      </trkpt>
      <trkpt lat="48.01745" lon="6.97931">
        <ele>991</ele>
        <time>2020-08-03T12:17:04Z</time>
      </trkpt>
      <trkpt lat="48.01761" lon="6.97951">
        <ele>996</ele>
        <time>2020-08-03T12:17:32Z</time>
      </trkpt>
      <trkpt lat="48.01782" lon="6.97928">
        <ele>996</ele>
        <time>2020-08-03T12:18:07Z</time>
      </trkpt>
      <trkpt lat="48.01793" lon="6.9788">
        <ele>995</ele>
        <time>2020-08-03T12:18:52Z</time>
      </trkpt>
      <trkpt lat="48.01795" lon="6.97847">
        <ele>995</ele>
        <time>2020-08-03T12:19:22Z</time>
      </trkpt>
      <trkpt lat="48.01804" lon="6.97829">
        <ele>996</ele>
        <time>2020-08-03T12:19:42Z</time>
      </trkpt>
      <trkpt lat="48.01809" lon="6.97825">
        <ele>996</ele>
        <time>2020-08-03T12:19:50Z</time>
      </trkpt>
      <trkpt lat="48.01826" lon="6.97835">
        <ele>999</ele>
        <time>2020-08-03T12:20:14Z</time>
      </trkpt>
      <trkpt lat="48.01834" lon="6.97852">
        <ele>1001</ele>
        <time>2020-08-03T12:20:32Z</time>
      </trkpt>
      <trkpt lat="48.01866" lon="6.97884">
        <ele>1006</ele>
        <time>2020-08-03T12:21:24Z</time>
      </trkpt>
      <trkpt lat="48.01884" lon="6.97941">
        <ele>1012</ele>
        <time>2020-08-03T12:22:20Z</time>
      </trkpt>
      <trkpt lat="48.01906" lon="6.97972">
        <ele>1017</ele>
        <time>2020-08-03T12:23:00Z</time>
      </trkpt>
      <trkpt lat="48.01912" lon="6.97997">
        <ele>1020</ele>
        <time>2020-08-03T12:23:24Z</time>
      </trkpt>
      <trkpt lat="48.01914" lon="6.97988">
        <ele>1020</ele>
        <time>2020-08-03T12:23:33Z</time>
      </trkpt>
      <trkpt lat="48.01931" lon="6.97975">
        <ele>1023</ele>
        <time>2020-08-03T12:23:58Z</time>
      </trkpt>
      <trkpt lat="48.0193" lon="6.9798">
        <ele>1023</ele>
        <time>2020-08-03T12:24:03Z</time>
      </trkpt>
      <trkpt lat="48.01936" lon="6.97972">
        <ele>1024</ele>
        <time>2020-08-03T12:24:13Z</time>
      </trkpt>
      <trkpt lat="48.01953" lon="6.97994">
        <ele>1031</ele>
        <time>2020-08-03T12:24:43Z</time>
      </trkpt>
      <trkpt lat="48.01973" lon="6.98038">
        <ele>1039</ele>
        <time>2020-08-03T12:25:31Z</time>
      </trkpt>
      <trkpt lat="48.01976" lon="6.98035">
        <ele>1040</ele>
        <time>2020-08-03T12:25:36Z</time>
      </trkpt>
      <trkpt lat="48.01973" lon="6.9804">
        <ele>1039</ele>
        <time>2020-08-03T12:25:42Z</time>
      </trkpt>
      <trkpt lat="48.01984" lon="6.98053">
        <ele>1042</ele>
        <time>2020-08-03T12:26:00Z</time>
      </trkpt>
      <trkpt lat="48.01991" lon="6.98052">
        <ele>1044</ele>
        <time>2020-08-03T12:26:10Z</time>
      </trkpt>
      <trkpt lat="48.02001" lon="6.98035">
        <ele>1046</ele>
        <time>2020-08-03T12:26:30Z</time>
      </trkpt>
      <trkpt lat="48.02" lon="6.9802">
        <ele>1045</ele>
        <time>2020-08-03T12:26:44Z</time>
      </trkpt>
      <trkpt lat="48.02006" lon="6.98023">
        <ele>1048</ele>
        <time>2020-08-03T12:26:52Z</time>
      </trkpt>
      <trkpt lat="48.02011" lon="6.98029">
        <ele>1050</ele>
        <time>2020-08-03T12:27:01Z</time>
      </trkpt>
      <trkpt lat="48.02011" lon="6.98045">
        <ele>1050</ele>
        <time>2020-08-03T12:27:15Z</time>
      </trkpt>
      <trkpt lat="48.02018" lon="6.98073">
        <ele>1052</ele>
        <time>2020-08-03T12:27:41Z</time>
      </trkpt>
      <trkpt lat="48.0203" lon="6.98098">
        <ele>1057</ele>
        <time>2020-08-03T12:28:09Z</time>
      </trkpt>
      <trkpt lat="48.02039" lon="6.98106">
        <ele>1060</ele>
        <time>2020-08-03T12:28:23Z</time>
      </trkpt>
      <trkpt lat="48.02043" lon="6.98124">
        <ele>1062</ele>
        <time>2020-08-03T12:28:40Z</time>
      </trkpt>
      <trkpt lat="48.02062" lon="6.98158">
        <ele>1065</ele>
        <time>2020-08-03T12:29:19Z</time>
      </trkpt>
      <trkpt lat="48.02083" lon="6.98175">
        <ele>1066</ele>
        <time>2020-08-03T12:29:51Z</time>
      </trkpt>
      <trkpt lat="48.02107" lon="6.98208">
        <ele>1072</ele>
        <time>2020-08-03T12:30:35Z</time>
      </trkpt>
      <trkpt lat="48.02136" lon="6.98231">
        <ele>1075</ele>
        <time>2020-08-03T12:31:19Z</time>
      </trkpt>
      <trkpt lat="48.02183" lon="6.9831">
        <ele>1078</ele>
        <time>2020-08-03T12:32:53Z</time>
      </trkpt>
      <trkpt lat="48.02215" lon="6.98343">
        <ele>1083</ele>
        <time>2020-08-03T12:33:45Z</time>
      </trkpt>
      <trkpt lat="48.0224" lon="6.98359">
        <ele>1087</ele>
        <time>2020-08-03T12:34:21Z</time>
      </trkpt>
      <trkpt lat="48.02259" lon="6.98377">
        <ele>1090</ele>
        <time>2020-08-03T12:34:51Z</time>
      </trkpt>
      <trkpt lat="48.0228" lon="6.98419">
        <ele>1094</ele>
        <time>2020-08-03T12:35:38Z</time>
      </trkpt>
      <trkpt lat="48.02329" lon="6.98481">
        <ele>1101</ele>
        <time>2020-08-03T12:37:04Z</time>
      </trkpt>
      <trkpt lat="48.02352" lon="6.98494">
        <ele>1102</ele>
        <time>2020-08-03T12:37:36Z</time>
      </trkpt>
      <trkpt lat="48.02358" lon="6.98494">
        <ele>1102</ele>
        <time>2020-08-03T12:37:44Z</time>
      </trkpt>
      <trkpt lat="48.02366" lon="6.98484">
        <ele>1103</ele>
        <time>2020-08-03T12:37:58Z</time>
      </trkpt>
      <trkpt lat="48.02369" lon="6.9849">
        <ele>1103</ele>
        <time>2020-08-03T12:38:05Z</time>
      </trkpt>
      <trkpt lat="48.02392" lon="6.98507">
        <ele>1104</ele>
        <time>2020-08-03T12:38:39Z</time>
      </trkpt>
      <trkpt lat="48.02419" lon="6.98511">
        <ele>1105</ele>
        <time>2020-08-03T12:39:15Z</time>
      </trkpt>
      <trkpt lat="48.02445" lon="6.98489">
        <ele>1105</ele>
        <time>2020-08-03T12:39:55Z</time>
      </trkpt>
      <trkpt lat="48.0246" lon="6.9842">
        <ele>1112</ele>
        <time>2020-08-03T12:41:00Z</time>
      </trkpt>
      <trkpt lat="48.02474" lon="6.98392">
        <ele>1113</ele>
        <time>2020-08-03T12:41:31Z</time>
      </trkpt>
      <trkpt lat="48.025" lon="6.98397">
        <ele>1111</ele>
        <time>2020-08-03T12:42:06Z</time>
      </trkpt>
      <trkpt lat="48.0251" lon="6.98404">
        <ele>1113</ele>
        <time>2020-08-03T12:42:21Z</time>
      </trkpt>
      <trkpt lat="48.02545" lon="6.98449">
        <ele>1114</ele>
        <time>2020-08-03T12:43:23Z</time>
      </trkpt>
      <trkpt lat="48.02561" lon="6.98461">
        <ele>1114</ele>
        <time>2020-08-03T12:43:46Z</time>
      </trkpt>
      <trkpt lat="48.02593" lon="6.98507">
        <ele>1112</ele>
        <time>2020-08-03T12:44:46Z</time>
      </trkpt>
      <trkpt lat="48.02625" lon="6.98524">
        <ele>1118</ele>
        <time>2020-08-03T12:45:31Z</time>
      </trkpt>
      <trkpt lat="48.02626" lon="6.98518">
        <ele>1119</ele>
        <time>2020-08-03T12:45:37Z</time>
      </trkpt>
      <trkpt lat="48.02633" lon="6.98539">
        <ele>1118</ele>
        <time>2020-08-03T12:45:58Z</time>
      </trkpt>
      <trkpt lat="48.02645" lon="6.98548">
        <ele>1119</ele>
        <time>2020-08-03T12:46:15Z</time>
      </trkpt>
      <trkpt lat="48.02666" lon="6.98583">
        <ele>1117</ele>
        <time>2020-08-03T12:46:57Z</time>
      </trkpt>
      <trkpt lat="48.02714" lon="6.98615">
        <ele>1118</ele>
        <time>2020-08-03T12:48:08Z</time>
      </trkpt>
      <trkpt lat="48.02754" lon="6.98636">
        <ele>1116</ele>
        <time>2020-08-03T12:49:04Z</time>
      </trkpt>
      <trkpt lat="48.0279" lon="6.98642">
        <ele>1115</ele>
        <time>2020-08-03T12:49:52Z</time>
      </trkpt>
      <trkpt lat="48.02808" lon="6.98636">
        <ele>1115</ele>
        <time>2020-08-03T12:50:17Z</time>
      </trkpt>
      <trkpt lat="48.02824" lon="6.98615">
        <ele>1116</ele>
        <time>2020-08-03T12:50:45Z</time>
      </trkpt>
      <trkpt lat="48.02854" lon="6.9859">
        <ele>1111</ele>
        <time>2020-08-03T12:51:31Z</time>
      </trkpt>
      <trkpt lat="48.02862" lon="6.98575">
        <ele>1111</ele>
        <time>2020-08-03T12:51:48Z</time>
      </trkpt>
      <trkpt lat="48.02891" lon="6.98441">
        <ele>1115</ele>
        <time>2020-08-03T12:53:54Z</time>
      </trkpt>
      <trkpt lat="48.02904" lon="6.98404">
        <ele>1112</ele>
        <time>2020-08-03T12:54:31Z</time>
      </trkpt>
      <trkpt lat="48.02907" lon="6.98376">
        <ele>1112</ele>
        <time>2020-08-03T12:54:57Z</time>
      </trkpt>
      <trkpt lat="48.02926" lon="6.9835">
        <ele>1107</ele>
        <time>2020-08-03T12:55:31Z</time>
      </trkpt>
      <trkpt lat="48.02934" lon="6.98314">
        <ele>1109</ele>
        <time>2020-08-03T12:56:05Z</time>
      </trkpt>
      <trkpt lat="48.02947" lon="6.98286">
        <ele>1110</ele>
        <time>2020-08-03T12:56:35Z</time>
      </trkpt>
      <trkpt lat="48.02949" lon="6.98247">
        <ele>1114</ele>
        <time>2020-08-03T12:57:10Z</time>
      </trkpt>
      <trkpt lat="48.02954" lon="6.98229">
        <ele>1114</ele>
        <time>2020-08-03T12:57:28Z</time>
      </trkpt>
      <trkpt lat="48.02967" lon="6.98207">
        <ele>1111</ele>
        <time>2020-08-03T12:57:54Z</time>
      </trkpt>
      <trkpt lat="48.02987" lon="6.98145">
        <ele>1108</ele>
        <time>2020-08-03T12:58:55Z</time>
      </trkpt>
      <trkpt lat="48.0299" lon="6.9808">
        <ele>1113</ele>
        <time>2020-08-03T12:59:53Z</time>
      </trkpt>
      <trkpt lat="48.03" lon="6.98051">
        <ele>1113</ele>
        <time>2020-08-03T13:00:23Z</time>
      </trkpt>
      <trkpt lat="48.03005" lon="6.97998">
        <ele>1119</ele>
        <time>2020-08-03T13:01:10Z</time>
      </trkpt>
      <trkpt lat="48.03017" lon="6.97998">
        <ele>1114</ele>
        <time>2020-08-03T13:01:26Z</time>
      </trkpt>
      <trkpt lat="48.0303" lon="6.97988">
        <ele>1110</ele>
        <time>2020-08-03T13:01:46Z</time>
      </trkpt>
      <trkpt lat="48.0303" lon="6.97991">
        <ele>1110</ele>
        <time>2020-08-03T13:01:49Z</time>
      </trkpt>
      <trkpt lat="48.03029" lon="6.97986">
        <ele>1111</ele>
        <time>2020-08-03T13:01:53Z</time>
      </trkpt>
      <trkpt lat="48.03028" lon="6.98">
        <ele>1109</ele>
        <time>2020-08-03T13:02:06Z</time>
      </trkpt>
      <trkpt lat="48.03031" lon="6.9799">
        <ele>1109</ele>
        <time>2020-08-03T13:02:16Z</time>
      </trkpt>
      <trkpt lat="48.03043" lon="6.97984">
        <ele>1105</ele>
        <time>2020-08-03T13:02:32Z</time>
      </trkpt>
      <trkpt lat="48.03056" lon="6.97959">
        <ele>1104</ele>
        <time>2020-08-03T13:03:01Z</time>
      </trkpt>
      <trkpt lat="48.03067" lon="6.97955">
        <ele>1100</ele>
        <time>2020-08-03T13:03:16Z</time>
      </trkpt>
      <trkpt lat="48.03077" lon="6.97924">
        <ele>1101</ele>
        <time>2020-08-03T13:03:46Z</time>
      </trkpt>
      <trkpt lat="48.03084" lon="6.97916">
        <ele>1100</ele>
        <time>2020-08-03T13:03:58Z</time>
      </trkpt>
      <trkpt lat="48.03087" lon="6.97917">
        <ele>1099</ele>
        <time>2020-08-03T13:04:02Z</time>
      </trkpt>
      <trkpt lat="48.0309" lon="6.97907">
        <ele>1100</ele>
        <time>2020-08-03T13:04:12Z</time>
      </trkpt>
      <trkpt lat="48.03107" lon="6.97895">
        <ele>1098</ele>
        <time>2020-08-03T13:04:37Z</time>
      </trkpt>
      <trkpt lat="48.03126" lon="6.97889">
        <ele>1093</ele>
        <time>2020-08-03T13:05:03Z</time>
      </trkpt>
      <trkpt lat="48.03136" lon="6.9788">
        <ele>1092</ele>
        <time>2020-08-03T13:05:19Z</time>
      </trkpt>
      <trkpt lat="48.03126" lon="6.97898">
        <ele>1091</ele>
        <time>2020-08-03T13:05:40Z</time>
      </trkpt>
      <trkpt lat="48.03127" lon="6.97907">
        <ele>1088</ele>
        <time>2020-08-03T13:05:48Z</time>
      </trkpt>
      <trkpt lat="48.03109" lon="6.97937">
        <ele>1088</ele>
        <time>2020-08-03T13:06:24Z</time>
      </trkpt>
      <trkpt lat="48.03094" lon="6.97983">
        <ele>1084</ele>
        <time>2020-08-03T13:07:09Z</time>
      </trkpt>
      <trkpt lat="48.0308" lon="6.98045">
        <ele>1079</ele>
        <time>2020-08-03T13:08:08Z</time>
      </trkpt>
      <trkpt lat="48.03069" lon="6.98065">
        <ele>1081</ele>
        <time>2020-08-03T13:08:31Z</time>
      </trkpt>
      <trkpt lat="48.03068" lon="6.98074">
        <ele>1080</ele>
        <time>2020-08-03T13:08:39Z</time>
      </trkpt>
      <trkpt lat="48.03053" lon="6.98086">
        <ele>1085</ele>
        <time>2020-08-03T13:09:02Z</time>
      </trkpt>
      <trkpt lat="48.03045" lon="6.98099">
        <ele>1087</ele>
        <time>2020-08-03T13:09:17Z</time>
      </trkpt>
      <trkpt lat="48.0304" lon="6.98132">
        <ele>1087</ele>
        <time>2020-08-03T13:09:48Z</time>
      </trkpt>
      <trkpt lat="48.03039" lon="6.98188">
        <ele>1083</ele>
        <time>2020-08-03T13:10:38Z</time>
      </trkpt>
      <trkpt lat="48.03045" lon="6.98198">
        <ele>1080</ele>
        <time>2020-08-03T13:10:50Z</time>
      </trkpt>
      <trkpt lat="48.03047" lon="6.98213">
        <ele>1079</ele>
        <time>2020-08-03T13:11:03Z</time>
      </trkpt>
      <trkpt lat="48.03049" lon="6.98207">
        <ele>1078</ele>
        <time>2020-08-03T13:11:09Z</time>
      </trkpt>
      <trkpt lat="48.03045" lon="6.98229">
        <ele>1079</ele>
        <time>2020-08-03T13:11:30Z</time>
      </trkpt>
      <trkpt lat="48.03032" lon="6.98261">
        <ele>1082</ele>
        <time>2020-08-03T13:12:03Z</time>
      </trkpt>
      <trkpt lat="48.0304" lon="6.98258">
        <ele>1079</ele>
        <time>2020-08-03T13:12:14Z</time>
      </trkpt>
      <trkpt lat="48.03038" lon="6.98273">
        <ele>1079</ele>
        <time>2020-08-03T13:12:28Z</time>
      </trkpt>
      <trkpt lat="48.03042" lon="6.98283">
        <ele>1077</ele>
        <time>2020-08-03T13:12:38Z</time>
      </trkpt>
      <trkpt lat="48.03058" lon="6.98282">
        <ele>1071</ele>
        <time>2020-08-03T13:12:59Z</time>
      </trkpt>
      <trkpt lat="48.03042" lon="6.98331">
        <ele>1075</ele>
        <time>2020-08-03T13:13:48Z</time>
      </trkpt>
      <trkpt lat="48.03046" lon="6.98349">
        <ele>1072</ele>
        <time>2020-08-03T13:14:05Z</time>
      </trkpt>
      <trkpt lat="48.03061" lon="6.98343">
        <ele>1067</ele>
        <time>2020-08-03T13:14:26Z</time>
      </trkpt>
      <trkpt lat="48.03072" lon="6.98388">
        <ele>1062</ele>
        <time>2020-08-03T13:15:09Z</time>
      </trkpt>
      <trkpt lat="48.03085" lon="6.98407">
        <ele>1058</ele>
        <time>2020-08-03T13:15:33Z</time>
      </trkpt>
      <trkpt lat="48.03095" lon="6.98441">
        <ele>1059</ele>
        <time>2020-08-03T13:16:06Z</time>
      </trkpt>
      <trkpt lat="48.03107" lon="6.98454">
        <ele>1060</ele>
        <time>2020-08-03T13:16:26Z</time>
      </trkpt>
      <trkpt lat="48.03126" lon="6.98455">
        <ele>1059</ele>
        <time>2020-08-03T13:16:51Z</time>
      </trkpt>
      <trkpt lat="48.03137" lon="6.98478">
        <ele>1060</ele>
        <time>2020-08-03T13:17:16Z</time>
      </trkpt>
      <trkpt lat="48.0315" lon="6.98493">
        <ele>1061</ele>
        <time>2020-08-03T13:17:38Z</time>
      </trkpt>
      <trkpt lat="48.03151" lon="6.98509">
        <ele>1063</ele>
        <time>2020-08-03T13:17:53Z</time>
      </trkpt>
      <trkpt lat="48.03155" lon="6.98511">
        <ele>1063</ele>
        <time>2020-08-03T13:17:58Z</time>
      </trkpt>
      <trkpt lat="48.03149" lon="6.9852">
        <ele>1065</ele>
        <time>2020-08-03T13:18:10Z</time>
      </trkpt>
      <trkpt lat="48.03162" lon="6.98518">
        <ele>1064</ele>
        <time>2020-08-03T13:18:27Z</time>
      </trkpt>
      <trkpt lat="48.03169" lon="6.98509">
        <ele>1063</ele>
        <time>2020-08-03T13:18:39Z</time>
      </trkpt>
      <trkpt lat="48.03167" lon="6.98503">
        <ele>1062</ele>
        <time>2020-08-03T13:18:45Z</time>
      </trkpt>
      <trkpt lat="48.03185" lon="6.98454">
        <ele>1062</ele>
        <time>2020-08-03T13:19:35Z</time>
      </trkpt>
      <trkpt lat="48.03205" lon="6.98415">
        <ele>1061</ele>
        <time>2020-08-03T13:20:19Z</time>
      </trkpt>
      <trkpt lat="48.0324" lon="6.98374">
        <ele>1064</ele>
        <time>2020-08-03T13:21:18Z</time>
      </trkpt>
      <trkpt lat="48.03257" lon="6.98345">
        <ele>1064</ele>
        <time>2020-08-03T13:21:53Z</time>
      </trkpt>
      <trkpt lat="48.03272" lon="6.98338">
        <ele>1067</ele>
        <time>2020-08-03T13:22:14Z</time>
      </trkpt>
      <trkpt lat="48.03295" lon="6.98261">
        <ele>1065</ele>
        <time>2020-08-03T13:23:29Z</time>
      </trkpt>
      <trkpt lat="48.03325" lon="6.98228">
        <ele>1067</ele>
        <time>2020-08-03T13:24:19Z</time>
      </trkpt>
      <trkpt lat="48.03346" lon="6.98131">
        <ele>1064</ele>
        <time>2020-08-03T13:25:50Z</time>
      </trkpt>
      <trkpt lat="48.03347" lon="6.98096">
        <ele>1063</ele>
        <time>2020-08-03T13:26:21Z</time>
      </trkpt>
      <trkpt lat="48.03354" lon="6.98106">
        <ele>1065</ele>
        <time>2020-08-03T13:26:34Z</time>
      </trkpt>
      <trkpt lat="48.03367" lon="6.98068">
        <ele>1067</ele>
        <time>2020-08-03T13:27:12Z</time>
      </trkpt>
      <trkpt lat="48.0338" lon="6.98005">
        <ele>1066</ele>
        <time>2020-08-03T13:28:11Z</time>
      </trkpt>
      <trkpt lat="48.03392" lon="6.97978">
        <ele>1067</ele>
        <time>2020-08-03T13:28:40Z</time>
      </trkpt>
      <trkpt lat="48.034" lon="6.97905">
        <ele>1063</ele>
        <time>2020-08-03T13:29:46Z</time>
      </trkpt>
      <trkpt lat="48.03422" lon="6.9787">
        <ele>1063</ele>
        <time>2020-08-03T13:30:29Z</time>
      </trkpt>
      <trkpt lat="48.0343" lon="6.97849">
        <ele>1062</ele>
        <time>2020-08-03T13:30:50Z</time>
      </trkpt>
      <trkpt lat="48.03423" lon="6.97832">
        <ele>1058</ele>
        <time>2020-08-03T13:31:08Z</time>
      </trkpt>
      <trkpt lat="48.03408" lon="6.97827">
        <ele>1057</ele>
        <time>2020-08-03T13:31:28Z</time>
      </trkpt>
      <trkpt lat="48.03425" lon="6.97837">
        <ele>1059</ele>
        <time>2020-08-03T13:31:53Z</time>
      </trkpt>
      <trkpt lat="48.03429" lon="6.97835">
        <ele>1060</ele>
        <time>2020-08-03T13:31:58Z</time>
      </trkpt>
      <trkpt lat="48.03437" lon="6.97821">
        <ele>1060</ele>
        <time>2020-08-03T13:32:15Z</time>
      </trkpt>
      <trkpt lat="48.03452" lon="6.9777">
        <ele>1058</ele>
        <time>2020-08-03T13:33:05Z</time>
      </trkpt>
      <trkpt lat="48.03461" lon="6.97764">
        <ele>1058</ele>
        <time>2020-08-03T13:33:18Z</time>
      </trkpt>
      <trkpt lat="48.03483" lon="6.97729">
        <ele>1054</ele>
        <time>2020-08-03T13:34:01Z</time>
      </trkpt>
      <trkpt lat="48.03478" lon="6.97722">
        <ele>1052</ele>
        <time>2020-08-03T13:34:10Z</time>
      </trkpt>
      <trkpt lat="48.03487" lon="6.97711">
        <ele>1050</ele>
        <time>2020-08-03T13:34:25Z</time>
      </trkpt>
      <trkpt lat="48.03487" lon="6.97704">
        <ele>1049</ele>
        <time>2020-08-03T13:34:32Z</time>
      </trkpt>
      <trkpt lat="48.03461" lon="6.97705">
        <ele>1048</ele>
        <time>2020-08-03T13:35:06Z</time>
      </trkpt>
      <trkpt lat="48.03451" lon="6.9772">
        <ele>1050</ele>
        <time>2020-08-03T13:35:25Z</time>
      </trkpt>
      <trkpt lat="48.03434" lon="6.97727">
        <ele>1050</ele>
        <time>2020-08-03T13:35:49Z</time>
      </trkpt>
      <trkpt lat="48.03439" lon="6.97725">
        <ele>1050</ele>
        <time>2020-08-03T13:35:56Z</time>
      </trkpt>
      <trkpt lat="48.03445" lon="6.9771">
        <ele>1048</ele>
        <time>2020-08-03T13:36:11Z</time>
      </trkpt>
      <trkpt lat="48.03453" lon="6.97703">
        <ele>1047</ele>
        <time>2020-08-03T13:36:24Z</time>
      </trkpt>
      <trkpt lat="48.03462" lon="6.97673">
        <ele>1042</ele>
        <time>2020-08-03T13:36:53Z</time>
      </trkpt>
      <trkpt lat="48.03485" lon="6.97645">
        <ele>1034</ele>
        <time>2020-08-03T13:37:32Z</time>
      </trkpt>
      <trkpt lat="48.03497" lon="6.97614">
        <ele>1024</ele>
        <time>2020-08-03T13:38:04Z</time>
      </trkpt>
      <trkpt lat="48.03515" lon="6.97588">
        <ele>1015</ele>
        <time>2020-08-03T13:38:38Z</time>
      </trkpt>
      <trkpt lat="48.03525" lon="6.97577">
        <ele>1011</ele>
        <time>2020-08-03T13:38:54Z</time>
      </trkpt>
      <trkpt lat="48.03549" lon="6.97562">
        <ele>1005</ele>
        <time>2020-08-03T13:39:29Z</time>
      </trkpt>
      <trkpt lat="48.03567" lon="6.97561">
        <ele>1004</ele>
        <time>2020-08-03T13:39:53Z</time>
      </trkpt>
      <trkpt lat="48.03558" lon="6.9756">
        <ele>1004</ele>
        <time>2020-08-03T13:40:05Z</time>
      </trkpt>
      <trkpt lat="48.03557" lon="6.9757">
        <ele>1007</ele>
        <time>2020-08-03T13:40:14Z</time>
      </trkpt>
      <trkpt lat="48.03561" lon="6.97559">
        <ele>1004</ele>
        <time>2020-08-03T13:40:25Z</time>
      </trkpt>
      <trkpt lat="48.03575" lon="6.97557">
        <ele>1002</ele>
        <time>2020-08-03T13:40:44Z</time>
      </trkpt>
      <trkpt lat="48.03578" lon="6.97563">
        <ele>1004</ele>
        <time>2020-08-03T13:40:51Z</time>
      </trkpt>
      <trkpt lat="48.03614" lon="6.97571">
        <ele>1000</ele>
        <time>2020-08-03T13:41:39Z</time>
      </trkpt>
      <trkpt lat="48.03712" lon="6.97574">
        <ele>976</ele>
        <time>2020-08-03T13:43:50Z</time>
      </trkpt>
      <trkpt lat="48.03752" lon="6.97591">
        <ele>969</ele>
        <time>2020-08-03T13:44:46Z</time>
      </trkpt>
      <trkpt lat="48.03805" lon="6.97596">
        <ele>963</ele>
        <time>2020-08-03T13:45:57Z</time>
      </trkpt>
      <trkpt lat="48.0383" lon="6.97609">
        <ele>963</ele>
        <time>2020-08-03T13:46:32Z</time>
      </trkpt>
      <trkpt lat="48.03844" lon="6.97607">
        <ele>963</ele>
        <time>2020-08-03T13:46:51Z</time>
      </trkpt>
      <trkpt lat="48.03866" lon="6.97592">
        <ele>961</ele>
        <time>2020-08-03T13:47:23Z</time>
      </trkpt>
      <trkpt lat="48.03854" lon="6.97574">
        <ele>956</ele>
        <time>2020-08-03T13:47:46Z</time>
      </trkpt>
      <trkpt lat="48.03851" lon="6.97549">
        <ele>952</ele>
        <time>2020-08-03T13:48:08Z</time>
      </trkpt>
      <trkpt lat="48.03823" lon="6.97531">
        <ele>949</ele>
        <time>2020-08-03T13:48:49Z</time>
      </trkpt>
      <trkpt lat="48.03812" lon="6.97508">
        <ele>946</ele>
        <time>2020-08-03T13:49:14Z</time>
      </trkpt>
      <trkpt lat="48.03801" lon="6.97456">
        <ele>939</ele>
        <time>2020-08-03T13:50:03Z</time>
      </trkpt>
      <trkpt lat="48.03795" lon="6.97396">
        <ele>931</ele>
        <time>2020-08-03T13:50:57Z</time>
      </trkpt>
      <trkpt lat="48.03799" lon="6.97359">
        <ele>926</ele>
        <time>2020-08-03T13:51:30Z</time>
      </trkpt>
      <trkpt lat="48.03795" lon="6.97332">
        <ele>923</ele>
        <time>2020-08-03T13:51:55Z</time>
      </trkpt>
      <trkpt lat="48.03803" lon="6.97286">
        <ele>918</ele>
        <time>2020-08-03T13:52:38Z</time>
      </trkpt>
      <trkpt lat="48.03789" lon="6.97238">
        <ele>914</ele>
        <time>2020-08-03T13:53:24Z</time>
      </trkpt>
      <trkpt lat="48.03787" lon="6.97198">
        <ele>912</ele>
        <time>2020-08-03T13:54:00Z</time>
      </trkpt>
      <trkpt lat="48.03778" lon="6.9719">
        <ele>911</ele>
        <time>2020-08-03T13:54:14Z</time>
      </trkpt>
      <trkpt lat="48.0379" lon="6.9719">
        <ele>912</ele>
        <time>2020-08-03T13:54:30Z</time>
      </trkpt>
      <trkpt lat="48.03806" lon="6.97167">
        <ele>912</ele>
        <time>2020-08-03T13:55:00Z</time>
      </trkpt>
      <trkpt lat="48.03829" lon="6.97147">
        <ele>916</ele>
        <time>2020-08-03T13:55:35Z</time>
      </trkpt>
      <trkpt lat="48.03844" lon="6.97165">
        <ele>917</ele>
        <time>2020-08-03T13:56:01Z</time>
      </trkpt>
      <trkpt lat="48.03849" lon="6.97183">
        <ele>917</ele>
        <time>2020-08-03T13:56:18Z</time>
      </trkpt>
      <trkpt lat="48.03867" lon="6.97195">
        <ele>919</ele>
        <time>2020-08-03T13:56:44Z</time>
      </trkpt>
      <trkpt lat="48.03856" lon="6.97216">
        <ele>917</ele>
        <time>2020-08-03T13:57:08Z</time>
      </trkpt>
      <trkpt lat="48.0385" lon="6.97219">
        <ele>916</ele>
        <time>2020-08-03T13:57:17Z</time>
      </trkpt>
      <trkpt lat="48.03893" lon="6.972">
        <ele>923</ele>
        <time>2020-08-03T13:58:17Z</time>
      </trkpt>
      <trkpt lat="48.03885" lon="6.97206">
        <ele>921</ele>
        <time>2020-08-03T13:58:28Z</time>
      </trkpt>
      <trkpt lat="48.03895" lon="6.97218">
        <ele>921</ele>
        <time>2020-08-03T13:58:46Z</time>
      </trkpt>
      <trkpt lat="48.03902" lon="6.97213">
        <ele>922</ele>
        <time>2020-08-03T13:58:56Z</time>
      </trkpt>
      <trkpt lat="48.039" lon="6.97243">
        <ele>918</ele>
        <time>2020-08-03T13:59:23Z</time>
      </trkpt>
      <trkpt lat="48.03896" lon="6.97238">
        <ele>919</ele>
        <time>2020-08-03T13:59:30Z</time>
      </trkpt>
      <trkpt lat="48.03898" lon="6.97231">
        <ele>920</ele>
        <time>2020-08-03T13:59:37Z</time>
      </trkpt>
      <trkpt lat="48.03894" lon="6.9728">
        <ele>918</ele>
        <time>2020-08-03T14:00:21Z</time>
      </trkpt>
      <trkpt lat="48.03908" lon="6.97229">
        <ele>921</ele>
        <time>2020-08-03T14:01:10Z</time>
      </trkpt>
      <trkpt lat="48.03918" lon="6.97218">
        <ele>924</ele>
        <time>2020-08-03T14:01:26Z</time>
      </trkpt>
      <trkpt lat="48.03918" lon="6.97204">
        <ele>926</ele>
        <time>2020-08-03T14:01:39Z</time>
      </trkpt>
      <trkpt lat="48.03915" lon="6.97205">
        <ele>925</ele>
        <time>2020-08-03T14:01:43Z</time>
      </trkpt>
      <trkpt lat="48.03911" lon="6.97199">
        <ele>926</ele>
        <time>2020-08-03T14:01:51Z</time>
      </trkpt>
      <trkpt lat="48.0392" lon="6.97192">
        <ele>929</ele>
        <time>2020-08-03T14:02:04Z</time>
      </trkpt>
      <trkpt lat="48.03943" lon="6.97238">
        <ele>925</ele>
        <time>2020-08-03T14:02:55Z</time>
      </trkpt>
      <trkpt lat="48.03949" lon="6.97241">
        <ele>925</ele>
        <time>2020-08-03T14:03:04Z</time>
      </trkpt>
      <trkpt lat="48.03958" lon="6.9727">
        <ele>924</ele>
        <time>2020-08-03T14:03:32Z</time>
      </trkpt>
      <trkpt lat="48.0398" lon="6.97308">
        <ele>924</ele>
        <time>2020-08-03T14:04:17Z</time>
      </trkpt>
      <trkpt lat="48.03995" lon="6.97322">
        <ele>924</ele>
        <time>2020-08-03T14:04:41Z</time>
      </trkpt>
      <trkpt lat="48.04029" lon="6.97329">
        <ele>922</ele>
        <time>2020-08-03T14:05:27Z</time>
      </trkpt>
      <trkpt lat="48.04055" lon="6.9735">
        <ele>921</ele>
        <time>2020-08-03T14:06:06Z</time>
      </trkpt>
      <trkpt lat="48.04055" lon="6.97361">
        <ele>921</ele>
        <time>2020-08-03T14:06:16Z</time>
      </trkpt>
      <trkpt lat="48.04036" lon="6.97371">
        <ele>923</ele>
        <time>2020-08-03T14:06:43Z</time>
      </trkpt>
      <trkpt lat="48.04018" lon="6.9739">
        <ele>925</ele>
        <time>2020-08-03T14:07:12Z</time>
      </trkpt>
      <trkpt lat="48.04007" lon="6.97408">
        <ele>926</ele>
        <time>2020-08-03T14:07:34Z</time>
      </trkpt>
      <trkpt lat="48.04004" lon="6.97426">
        <ele>928</ele>
        <time>2020-08-03T14:07:50Z</time>
      </trkpt>
      <trkpt lat="48.04014" lon="6.97443">
        <ele>930</ele>
        <time>2020-08-03T14:08:11Z</time>
      </trkpt>
      <trkpt lat="48.04033" lon="6.97463">
        <ele>932</ele>
        <time>2020-08-03T14:08:42Z</time>
      </trkpt>
      <trkpt lat="48.04081" lon="6.97494">
        <ele>934</ele>
        <time>2020-08-03T14:09:51Z</time>
      </trkpt>
      <trkpt lat="48.04122" lon="6.97505">
        <ele>933</ele>
        <time>2020-08-03T14:10:47Z</time>
      </trkpt>
      <trkpt lat="48.04185" lon="6.97538">
        <ele>938</ele>
        <time>2020-08-03T14:12:16Z</time>
      </trkpt>
      <trkpt lat="48.04247" lon="6.97556">
        <ele>940</ele>
        <time>2020-08-03T14:13:40Z</time>
      </trkpt>
      <trkpt lat="48.04286" lon="6.97584">
        <ele>945</ele>
        <time>2020-08-03T14:14:38Z</time>
      </trkpt>
      <trkpt lat="48.04333" lon="6.97593">
        <ele>944</ele>
        <time>2020-08-03T14:15:41Z</time>
      </trkpt>
      <trkpt lat="48.04353" lon="6.97587">
        <ele>940</ele>
        <time>2020-08-03T14:16:09Z</time>
      </trkpt>
      <trkpt lat="48.04385" lon="6.97588">
        <ele>939</ele>
        <time>2020-08-03T14:16:51Z</time>
      </trkpt>
      <trkpt lat="48.04453" lon="6.97579">
        <ele>938</ele>
        <time>2020-08-03T14:18:22Z</time>
      </trkpt>
      <trkpt lat="48.04536" lon="6.97585">
        <ele>946</ele>
        <time>2020-08-03T14:20:13Z</time>
      </trkpt>
      <trkpt lat="48.04612" lon="6.97573">
        <ele>950</ele>
        <time>2020-08-03T14:21:55Z</time>
      </trkpt>
      <trkpt lat="48.04643" lon="6.97561">
        <ele>950</ele>
        <time>2020-08-03T14:22:38Z</time>
      </trkpt>
      <trkpt lat="48.04654" lon="6.97552">
        <ele>948</ele>
        <time>2020-08-03T14:22:55Z</time>
      </trkpt>
      <trkpt lat="48.04679" lon="6.97548">
        <ele>950</ele>
        <time>2020-08-03T14:23:28Z</time>
      </trkpt>
      <trkpt lat="48.04708" lon="6.97531">
        <ele>950</ele>
        <time>2020-08-03T14:24:10Z</time>
      </trkpt>
      <trkpt lat="48.04728" lon="6.97511">
        <ele>951</ele>
        <time>2020-08-03T14:24:42Z</time>
      </trkpt>
      <trkpt lat="48.04731" lon="6.97519">
        <ele>952</ele>
        <time>2020-08-03T14:24:50Z</time>
      </trkpt>
      <trkpt lat="48.04715" lon="6.97553">
        <ele>954</ele>
        <time>2020-08-03T14:25:27Z</time>
      </trkpt>
      <trkpt lat="48.04718" lon="6.97559">
        <ele>955</ele>
        <time>2020-08-03T14:25:34Z</time>
      </trkpt>
      <trkpt lat="48.04767" lon="6.97578">
        <ele>959</ele>
        <time>2020-08-03T14:26:41Z</time>
      </trkpt>
      <trkpt lat="48.04792" lon="6.97603">
        <ele>962</ele>
        <time>2020-08-03T14:27:22Z</time>
      </trkpt>
      <trkpt lat="48.04822" lon="6.97605">
        <ele>961</ele>
        <time>2020-08-03T14:28:02Z</time>
      </trkpt>
      <trkpt lat="48.04852" lon="6.9762">
        <ele>959</ele>
        <time>2020-08-03T14:28:44Z</time>
      </trkpt>
      <trkpt lat="48.04863" lon="6.9762">
        <ele>958</ele>
        <time>2020-08-03T14:28:58Z</time>
      </trkpt>
      <trkpt lat="48.04866" lon="6.97627">
        <ele>957</ele>
        <time>2020-08-03T14:29:06Z</time>
      </trkpt>
      <trkpt lat="48.0489" lon="6.97619">
        <ele>956</ele>
        <time>2020-08-03T14:29:39Z</time>
      </trkpt>
      <trkpt lat="48.04898" lon="6.97626">
        <ele>954</ele>
        <time>2020-08-03T14:29:51Z</time>
      </trkpt>
      <trkpt lat="48.04934" lon="6.97637">
        <ele>950</ele>
        <time>2020-08-03T14:30:40Z</time>
      </trkpt>
      <trkpt lat="48.0494" lon="6.9765">
        <ele>946</ele>
        <time>2020-08-03T14:30:54Z</time>
      </trkpt>
      <trkpt lat="48.04949" lon="6.97656">
        <ele>944</ele>
        <time>2020-08-03T14:31:07Z</time>
      </trkpt>
      <trkpt lat="48.04962" lon="6.97653">
        <ele>945</ele>
        <time>2020-08-03T14:31:25Z</time>
      </trkpt>
      <trkpt lat="48.04976" lon="6.9766">
        <ele>943</ele>
        <time>2020-08-03T14:31:45Z</time>
      </trkpt>
      <trkpt lat="48.04982" lon="6.97658">
        <ele>943</ele>
        <time>2020-08-03T14:31:53Z</time>
      </trkpt>
      <trkpt lat="48.05001" lon="6.97686">
        <ele>937</ele>
        <time>2020-08-03T14:32:28Z</time>
      </trkpt>
      <trkpt lat="48.05036" lon="6.97694">
        <ele>937</ele>
        <time>2020-08-03T14:33:16Z</time>
      </trkpt>
      <trkpt lat="48.05069" lon="6.97727">
        <ele>926</ele>
        <time>2020-08-03T14:34:09Z</time>
      </trkpt>
      <trkpt lat="48.05078" lon="6.97727">
        <ele>926</ele>
        <time>2020-08-03T14:34:21Z</time>
      </trkpt>
      <trkpt lat="48.05081" lon="6.97733">
        <ele>923</ele>
        <time>2020-08-03T14:34:27Z</time>
      </trkpt>
      <trkpt lat="48.05088" lon="6.97732">
        <ele>923</ele>
        <time>2020-08-03T14:34:37Z</time>
      </trkpt>
      <trkpt lat="48.05095" lon="6.97738">
        <ele>921</ele>
        <time>2020-08-03T14:34:47Z</time>
      </trkpt>
      <trkpt lat="48.05103" lon="6.97734">
        <ele>923</ele>
        <time>2020-08-03T14:34:59Z</time>
      </trkpt>
      <trkpt lat="48.05109" lon="6.97738">
        <ele>921</ele>
        <time>2020-08-03T14:35:07Z</time>
      </trkpt>
      <trkpt lat="48.05113" lon="6.97749">
        <ele>916</ele>
        <time>2020-08-03T14:35:19Z</time>
      </trkpt>
      <trkpt lat="48.05122" lon="6.9775">
        <ele>916</ele>
        <time>2020-08-03T14:35:31Z</time>
      </trkpt>
      <trkpt lat="48.05144" lon="6.9778">
        <ele>907</ele>
        <time>2020-08-03T14:36:10Z</time>
      </trkpt>
      <trkpt lat="48.05152" lon="6.97783">
        <ele>905</ele>
        <time>2020-08-03T14:36:21Z</time>
      </trkpt>
      <trkpt lat="48.05172" lon="6.97802">
        <ele>898</ele>
        <time>2020-08-03T14:36:53Z</time>
      </trkpt>
      <trkpt lat="48.05178" lon="6.97806">
        <ele>897</ele>
        <time>2020-08-03T14:37:02Z</time>
      </trkpt>
      <trkpt lat="48.05196" lon="6.97806">
        <ele>896</ele>
        <time>2020-08-03T14:37:26Z</time>
      </trkpt>
      <trkpt lat="48.05219" lon="6.97828">
        <ele>889</ele>
        <time>2020-08-03T14:38:02Z</time>
      </trkpt>
      <trkpt lat="48.05231" lon="6.97831">
        <ele>887</ele>
        <time>2020-08-03T14:38:18Z</time>
      </trkpt>
      <trkpt lat="48.05251" lon="6.97849">
        <ele>882</ele>
        <time>2020-08-03T14:38:50Z</time>
      </trkpt>
      <trkpt lat="48.05278" lon="6.97891">
        <ele>873</ele>
        <time>2020-08-03T14:39:42Z</time>
      </trkpt>
      <trkpt lat="48.05292" lon="6.9794">
        <ele>863</ele>
        <time>2020-08-03T14:40:29Z</time>
      </trkpt>
      <trkpt lat="48.05299" lon="6.97936">
        <ele>863</ele>
        <time>2020-08-03T14:40:39Z</time>
      </trkpt>
      <trkpt lat="48.05305" lon="6.97947">
        <ele>861</ele>
        <time>2020-08-03T14:40:52Z</time>
      </trkpt>
      <trkpt lat="48.05308" lon="6.97983">
        <ele>853</ele>
        <time>2020-08-03T14:41:24Z</time>
      </trkpt>
      <trkpt lat="48.05324" lon="6.98014">
        <ele>846</ele>
        <time>2020-08-03T14:41:59Z</time>
      </trkpt>
      <trkpt lat="48.05329" lon="6.98037">
        <ele>841</ele>
        <time>2020-08-03T14:42:21Z</time>
      </trkpt>
      <trkpt lat="48.0533" lon="6.98056">
        <ele>838</ele>
        <time>2020-08-03T14:42:38Z</time>
      </trkpt>
      <trkpt lat="48.05325" lon="6.98067">
        <ele>837</ele>
        <time>2020-08-03T14:42:50Z</time>
      </trkpt>
      <trkpt lat="48.05329" lon="6.9807">
        <ele>836</ele>
        <time>2020-08-03T14:42:56Z</time>
      </trkpt>
      <trkpt lat="48.0534" lon="6.98107">
        <ele>832</ele>
        <time>2020-08-03T14:43:32Z</time>
      </trkpt>
      <trkpt lat="48.05351" lon="6.98123">
        <ele>831</ele>
        <time>2020-08-03T14:43:52Z</time>
      </trkpt>
      <trkpt lat="48.05343" lon="6.98142">
        <ele>831</ele>
        <time>2020-08-03T14:44:12Z</time>
      </trkpt>
      <trkpt lat="48.05348" lon="6.98176">
        <ele>829</ele>
        <time>2020-08-03T14:44:43Z</time>
      </trkpt>
      <trkpt lat="48.05355" lon="6.98194">
        <ele>826</ele>
        <time>2020-08-03T14:45:02Z</time>
      </trkpt>
      <trkpt lat="48.05364" lon="6.98198">
        <ele>824</ele>
        <time>2020-08-03T14:45:14Z</time>
      </trkpt>
      <trkpt lat="48.05386" lon="6.98219">
        <ele>817</ele>
        <time>2020-08-03T14:45:49Z</time>
      </trkpt>
      <trkpt lat="48.0539" lon="6.98227">
        <ele>815</ele>
        <time>2020-08-03T14:45:58Z</time>
      </trkpt>
      <trkpt lat="48.05387" lon="6.98237">
        <ele>814</ele>
        <time>2020-08-03T14:46:08Z</time>
      </trkpt>
      <trkpt lat="48.05413" lon="6.9827">
        <ele>805</ele>
        <time>2020-08-03T14:46:53Z</time>
      </trkpt>
      <trkpt lat="48.05416" lon="6.98291">
        <ele>802</ele>
        <time>2020-08-03T14:47:12Z</time>
      </trkpt>
      <trkpt lat="48.0543" lon="6.98296">
        <ele>800</ele>
        <time>2020-08-03T14:47:32Z</time>
      </trkpt>
      <trkpt lat="48.05436" lon="6.98308">
        <ele>798</ele>
        <time>2020-08-03T14:47:45Z</time>
      </trkpt>
      <trkpt lat="48.05443" lon="6.98312">
        <ele>796</ele>
        <time>2020-08-03T14:47:55Z</time>
      </trkpt>
      <trkpt lat="48.05449" lon="6.98305">
        <ele>797</ele>
        <time>2020-08-03T14:48:05Z</time>
      </trkpt>
      <trkpt lat="48.05473" lon="6.98336">
        <ele>789</ele>
        <time>2020-08-03T14:48:48Z</time>
      </trkpt>
      <trkpt lat="48.05471" lon="6.98363">
        <ele>788</ele>
        <time>2020-08-03T14:49:12Z</time>
      </trkpt>
      <trkpt lat="48.0548" lon="6.98383">
        <ele>786</ele>
        <time>2020-08-03T14:49:33Z</time>
      </trkpt>
      <trkpt lat="48.05484" lon="6.98418">
        <ele>783</ele>
        <time>2020-08-03T14:50:05Z</time>
      </trkpt>
      <trkpt lat="48.05482" lon="6.98437">
        <ele>782</ele>
        <time>2020-08-03T14:50:22Z</time>
      </trkpt>
      <trkpt lat="48.05486" lon="6.98445">
        <ele>782</ele>
        <time>2020-08-03T14:50:31Z</time>
      </trkpt>
      <trkpt lat="48.05472" lon="6.98459">
        <ele>782</ele>
        <time>2020-08-03T14:50:53Z</time>
      </trkpt>
      <trkpt lat="48.05468" lon="6.98531">
        <ele>782</ele>
        <time>2020-08-03T14:51:58Z</time>
      </trkpt>
      <trkpt lat="48.05487" lon="6.9862">
        <ele>784</ele>
        <time>2020-08-03T14:53:21Z</time>
      </trkpt>
      <trkpt lat="48.05507" lon="6.9865">
        <ele>785</ele>
        <time>2020-08-03T14:53:59Z</time>
      </trkpt>
      <trkpt lat="48.05519" lon="6.98682">
        <ele>788</ele>
        <time>2020-08-03T14:54:32Z</time>
      </trkpt>
      <trkpt lat="48.05519" lon="6.98687">
        <ele>788</ele>
        <time>2020-08-03T14:54:36Z</time>
      </trkpt>
      <trkpt lat="48.05508" lon="6.98689">
        <ele>789</ele>
        <time>2020-08-03T14:54:51Z</time>
      </trkpt>
      <trkpt lat="48.05498" lon="6.98698">
        <ele>790</ele>
        <time>2020-08-03T14:55:07Z</time>
      </trkpt>
      <trkpt lat="48.05476" lon="6.98699">
        <ele>791</ele>
        <time>2020-08-03T14:55:36Z</time>
      </trkpt>
      <trkpt lat="48.05461" lon="6.98692">
        <ele>790</ele>
        <time>2020-08-03T14:55:57Z</time>
      </trkpt>
      <trkpt lat="48.05412" lon="6.98653">
        <ele>789</ele>
        <time>2020-08-03T14:57:11Z</time>
      </trkpt>
      <trkpt lat="48.05398" lon="6.98651">
        <ele>790</ele>
        <time>2020-08-03T14:57:30Z</time>
      </trkpt>
      <trkpt lat="48.05388" lon="6.98655">
        <ele>791</ele>
        <time>2020-08-03T14:57:44Z</time>
      </trkpt>
      <trkpt lat="48.05366" lon="6.98751">
        <ele>803</ele>
        <time>2020-08-03T14:59:14Z</time>
      </trkpt>
      <trkpt lat="48.05348" lon="6.98772">
        <ele>805</ele>
        <time>2020-08-03T14:59:45Z</time>
      </trkpt>
      <trkpt lat="48.05327" lon="6.98811">
        <ele>809</ele>
        <time>2020-08-03T15:00:29Z</time>
      </trkpt>
      <trkpt lat="48.05288" lon="6.98842">
        <ele>815</ele>
        <time>2020-08-03T15:01:28Z</time>
      </trkpt>
      <trkpt lat="48.0528" lon="6.98867">
        <ele>818</ele>
        <time>2020-08-03T15:01:53Z</time>
      </trkpt>
      <trkpt lat="48.05283" lon="6.9889">
        <ele>820</ele>
        <time>2020-08-03T15:02:14Z</time>
      </trkpt>
      <trkpt lat="48.05273" lon="6.989">
        <ele>822</ele>
        <time>2020-08-03T15:02:30Z</time>
      </trkpt>
      <trkpt lat="48.05274" lon="6.98909">
        <ele>823</ele>
        <time>2020-08-03T15:02:38Z</time>
      </trkpt>
      <trkpt lat="48.05268" lon="6.98914">
        <ele>824</ele>
        <time>2020-08-03T15:02:47Z</time>
      </trkpt>
      <trkpt lat="48.05281" lon="6.98921">
        <ele>824</ele>
        <time>2020-08-03T15:03:06Z</time>
      </trkpt>
      <trkpt lat="48.05281" lon="6.98952">
        <ele>829</ele>
        <time>2020-08-03T15:03:33Z</time>
      </trkpt>
      <trkpt lat="48.05289" lon="6.98959">
        <ele>830</ele>
        <time>2020-08-03T15:03:46Z</time>
      </trkpt>
      <trkpt lat="48.05286" lon="6.98981">
        <ele>834</ele>
        <time>2020-08-03T15:04:06Z</time>
      </trkpt>
      <trkpt lat="48.05299" lon="6.99004">
        <ele>838</ele>
        <time>2020-08-03T15:04:33Z</time>
      </trkpt>
      <trkpt lat="48.05303" lon="6.99052">
        <ele>850</ele>
        <time>2020-08-03T15:05:16Z</time>
      </trkpt>
      <trkpt lat="48.05305" lon="6.99034">
        <ele>846</ele>
        <time>2020-08-03T15:05:32Z</time>
      </trkpt>
      <trkpt lat="48.0531" lon="6.99031">
        <ele>845</ele>
        <time>2020-08-03T15:05:39Z</time>
      </trkpt>
      <trkpt lat="48.05311" lon="6.99034">
        <ele>845</ele>
        <time>2020-08-03T15:05:42Z</time>
      </trkpt>
      <trkpt lat="48.05308" lon="6.99042">
        <ele>847</ele>
        <time>2020-08-03T15:05:50Z</time>
      </trkpt>
      <trkpt lat="48.05312" lon="6.99052">
        <ele>850</ele>
        <time>2020-08-03T15:06:01Z</time>
      </trkpt>
      <trkpt lat="48.05307" lon="6.99075">
        <ele>855</ele>
        <time>2020-08-03T15:06:22Z</time>
      </trkpt>
      <trkpt lat="48.0531" lon="6.99089">
        <ele>858</ele>
        <time>2020-08-03T15:06:35Z</time>
      </trkpt>
      <trkpt lat="48.05292" lon="6.99113">
        <ele>863</ele>
        <time>2020-08-03T15:07:08Z</time>
      </trkpt>
      <trkpt lat="48.05292" lon="6.99109">
        <ele>863</ele>
        <time>2020-08-03T15:07:11Z</time>
      </trkpt>
      <trkpt lat="48.05307" lon="6.991">
        <ele>860</ele>
        <time>2020-08-03T15:07:33Z</time>
      </trkpt>
      <trkpt lat="48.05306" lon="6.99097">
        <ele>860</ele>
        <time>2020-08-03T15:07:36Z</time>
      </trkpt>
      <trkpt lat="48.05301" lon="6.99096">
        <ele>860</ele>
        <time>2020-08-03T15:07:42Z</time>
      </trkpt>
      <trkpt lat="48.05301" lon="6.99102">
        <ele>861</ele>
        <time>2020-08-03T15:07:48Z</time>
      </trkpt>
      <trkpt lat="48.05284" lon="6.99095">
        <ele>860</ele>
        <time>2020-08-03T15:08:11Z</time>
      </trkpt>
      <trkpt lat="48.05315" lon="6.99095">
        <ele>859</ele>
        <time>2020-08-03T15:08:53Z</time>
      </trkpt>
      <trkpt lat="48.05306" lon="6.99087">
        <ele>858</ele>
        <time>2020-08-03T15:09:07Z</time>
      </trkpt>
      <trkpt lat="48.05305" lon="6.9909">
        <ele>859</ele>
        <time>2020-08-03T15:09:10Z</time>
      </trkpt>
      <trkpt lat="48.05319" lon="6.99073">
        <ele>854</ele>
        <time>2020-08-03T15:09:34Z</time>
      </trkpt>
      <trkpt lat="48.05312" lon="6.99051">
        <ele>849</ele>
        <time>2020-08-03T15:09:55Z</time>
      </trkpt>
      <trkpt lat="48.05306" lon="6.99003">
        <ele>838</ele>
        <time>2020-08-03T15:10:39Z</time>
      </trkpt>
      <trkpt lat="48.05299" lon="6.98997">
        <ele>837</ele>
        <time>2020-08-03T15:10:50Z</time>
      </trkpt>
      <trkpt lat="48.05298" lon="6.98983">
        <ele>834</ele>
        <time>2020-08-03T15:11:02Z</time>
      </trkpt>
      <trkpt lat="48.05316" lon="6.98927">
        <ele>823</ele>
        <time>2020-08-03T15:11:58Z</time>
      </trkpt>
      <trkpt lat="48.05324" lon="6.98918">
        <ele>821</ele>
        <time>2020-08-03T15:12:11Z</time>
      </trkpt>
      <trkpt lat="48.05332" lon="6.98897">
        <ele>818</ele>
        <time>2020-08-03T15:12:33Z</time>
      </trkpt>
      <trkpt lat="48.05341" lon="6.98896">
        <ele>818</ele>
        <time>2020-08-03T15:12:45Z</time>
      </trkpt>
      <trkpt lat="48.05348" lon="6.98888">
        <ele>817</ele>
        <time>2020-08-03T15:12:56Z</time>
      </trkpt>
      <trkpt lat="48.05357" lon="6.98889">
        <ele>817</ele>
        <time>2020-08-03T15:13:08Z</time>
      </trkpt>
      <trkpt lat="48.05377" lon="6.98882">
        <ele>816</ele>
        <time>2020-08-03T15:13:36Z</time>
      </trkpt>
      <trkpt lat="48.05388" lon="6.9887">
        <ele>814</ele>
        <time>2020-08-03T15:13:54Z</time>
      </trkpt>
      <trkpt lat="48.05412" lon="6.98857">
        <ele>812</ele>
        <time>2020-08-03T15:14:28Z</time>
      </trkpt>
      <trkpt lat="48.05427" lon="6.98854">
        <ele>812</ele>
        <time>2020-08-03T15:14:48Z</time>
      </trkpt>
      <trkpt lat="48.0544" lon="6.98844">
        <ele>811</ele>
        <time>2020-08-03T15:15:08Z</time>
      </trkpt>
      <trkpt lat="48.05477" lon="6.98793">
        <ele>803</ele>
        <time>2020-08-03T15:16:15Z</time>
      </trkpt>
      <trkpt lat="48.05492" lon="6.9878">
        <ele>800</ele>
        <time>2020-08-03T15:16:38Z</time>
      </trkpt>
      <trkpt lat="48.05494" lon="6.98769">
        <ele>798</ele>
        <time>2020-08-03T15:16:48Z</time>
      </trkpt>
      <trkpt lat="48.05505" lon="6.98762">
        <ele>797</ele>
        <time>2020-08-03T15:17:04Z</time>
      </trkpt>
      <trkpt lat="48.05541" lon="6.98754">
        <ele>796</ele>
        <time>2020-08-03T15:17:53Z</time>
      </trkpt>
      <trkpt lat="48.05583" lon="6.98754">
        <ele>798</ele>
        <time>2020-08-03T15:18:49Z</time>
      </trkpt>
      <trkpt lat="48.05619" lon="6.98737">
        <ele>798</ele>
        <time>2020-08-03T15:19:39Z</time>
      </trkpt>
      <trkpt lat="48.05664" lon="6.98698">
        <ele>793</ele>
        <time>2020-08-03T15:20:49Z</time>
      </trkpt>
      <trkpt lat="48.05696" lon="6.98656">
        <ele>786</ele>
        <time>2020-08-03T15:21:45Z</time>
      </trkpt>
      <trkpt lat="48.05774" lon="6.98577">
        <ele>786</ele>
        <time>2020-08-03T15:23:51Z</time>
      </trkpt>
      <trkpt lat="48.05827" lon="6.98538">
        <ele>789</ele>
        <time>2020-08-03T15:25:10Z</time>
      </trkpt>
      <trkpt lat="48.05837" lon="6.98521">
        <ele>789</ele>
        <time>2020-08-03T15:25:30Z</time>
      </trkpt>
      <trkpt lat="48.05872" lon="6.98481">
        <ele>795</ele>
        <time>2020-08-03T15:26:29Z</time>
      </trkpt>
      <trkpt lat="48.05877" lon="6.98473">
        <ele>796</ele>
        <time>2020-08-03T15:26:39Z</time>
      </trkpt>
      <trkpt lat="48.05876" lon="6.98467">
        <ele>796</ele>
        <time>2020-08-03T15:26:44Z</time>
      </trkpt>
      <trkpt lat="48.05886" lon="6.9846">
        <ele>797</ele>
        <time>2020-08-03T15:26:59Z</time>
      </trkpt>
      <trkpt lat="48.05905" lon="6.98431">
        <ele>799</ele>
        <time>2020-08-03T15:27:35Z</time>
      </trkpt>
      <trkpt lat="48.059" lon="6.98426">
        <ele>797</ele>
        <time>2020-08-03T15:27:43Z</time>
      </trkpt>
      <trkpt lat="48.05913" lon="6.98352">
        <ele>797</ele>
        <time>2020-08-03T15:28:51Z</time>
      </trkpt>
      <trkpt lat="48.05909" lon="6.98335">
        <ele>796</ele>
        <time>2020-08-03T15:29:07Z</time>
      </trkpt>
      <trkpt lat="48.05895" lon="6.98315">
        <ele>795</ele>
        <time>2020-08-03T15:29:33Z</time>
      </trkpt>
      <trkpt lat="48.05891" lon="6.98301">
        <ele>794</ele>
        <time>2020-08-03T15:29:47Z</time>
      </trkpt>
      <trkpt lat="48.05875" lon="6.98286">
        <ele>793</ele>
        <time>2020-08-03T15:30:12Z</time>
      </trkpt>
      <trkpt lat="48.05867" lon="6.98266">
        <ele>793</ele>
        <time>2020-08-03T15:30:33Z</time>
      </trkpt>
      <trkpt lat="48.05864" lon="6.98273">
        <ele>793</ele>
        <time>2020-08-03T15:30:40Z</time>
      </trkpt>
      <trkpt lat="48.05869" lon="6.98283">
        <ele>793</ele>
        <time>2020-08-03T15:30:51Z</time>
      </trkpt>
      <trkpt lat="48.05874" lon="6.98243">
        <ele>792</ele>
        <time>2020-08-03T15:31:28Z</time>
      </trkpt>
      <trkpt lat="48.05871" lon="6.98251">
        <ele>793</ele>
        <time>2020-08-03T15:31:36Z</time>
      </trkpt>
      <trkpt lat="48.05865" lon="6.98252">
        <ele>793</ele>
        <time>2020-08-03T15:31:44Z</time>
      </trkpt>
      <trkpt lat="48.05879" lon="6.9827">
        <ele>793</ele>
        <time>2020-08-03T15:32:09Z</time>
      </trkpt>
      <trkpt lat="48.05875" lon="6.98272">
        <ele>793</ele>
        <time>2020-08-03T15:32:14Z</time>
      </trkpt>
      <trkpt lat="48.0588" lon="6.98279">
        <ele>793</ele>
        <time>2020-08-03T15:32:23Z</time>
      </trkpt>
      <trkpt lat="48.05884" lon="6.98317">
        <ele>794</ele>
        <time>2020-08-03T15:32:58Z</time>
      </trkpt>
      <trkpt lat="48.05882" lon="6.9829">
        <ele>794</ele>
        <time>2020-08-03T15:33:22Z</time>
      </trkpt>
      <trkpt lat="48.05877" lon="6.98279">
        <ele>793</ele>
        <time>2020-08-03T15:33:34Z</time>
      </trkpt>
      <trkpt lat="48.05853" lon="6.9825">
        <ele>792</ele>
        <time>2020-08-03T15:34:15Z</time>
      </trkpt>
      <trkpt lat="48.05853" lon="6.9824">
        <ele>792</ele>
        <time>2020-08-03T15:34:24Z</time>
      </trkpt>
      <trkpt lat="48.05878" lon="6.98242">
        <ele>792</ele>
        <time>2020-08-03T15:34:57Z</time>
      </trkpt>
      <trkpt lat="48.05882" lon="6.98239">
        <ele>792</ele>
        <time>2020-08-03T15:35:03Z</time>
      </trkpt>
      <trkpt lat="48.05883" lon="6.98224">
        <ele>791</ele>
        <time>2020-08-03T15:35:17Z</time>
      </trkpt>
      <trkpt lat="48.05884" lon="6.98227">
        <ele>791</ele>
        <time>2020-08-03T15:35:20Z</time>
      </trkpt>
      <trkpt lat="48.05887" lon="6.98224">
        <ele>791</ele>
        <time>2020-08-03T15:35:24Z</time>
      </trkpt>
      <trkpt lat="48.05879" lon="6.9822">
        <ele>791</ele>
        <time>2020-08-03T15:35:36Z</time>
      </trkpt>
      <trkpt lat="48.05871" lon="6.98199">
        <ele>789</ele>
        <time>2020-08-03T15:35:57Z</time>
      </trkpt>
      <trkpt lat="48.05858" lon="6.98182">
        <ele>789</ele>
        <time>2020-08-03T15:36:20Z</time>
      </trkpt>
      <trkpt lat="48.05842" lon="6.98201">
        <ele>791</ele>
        <time>2020-08-03T15:36:48Z</time>
      </trkpt>
      <trkpt lat="48.05828" lon="6.98196">
        <ele>792</ele>
        <time>2020-08-03T15:37:07Z</time>
      </trkpt>
      <trkpt lat="48.05822" lon="6.98185">
        <ele>793</ele>
        <time>2020-08-03T15:37:19Z</time>
      </trkpt>
      <trkpt lat="48.05825" lon="6.98197">
        <ele>793</ele>
        <time>2020-08-03T15:37:31Z</time>
      </trkpt>
      <trkpt lat="48.05817" lon="6.9821">
        <ele>794</ele>
        <time>2020-08-03T15:37:47Z</time>
      </trkpt>
      <trkpt lat="48.05804" lon="6.98216">
        <ele>796</ele>
        <time>2020-08-03T15:38:05Z</time>
      </trkpt>
      <trkpt lat="48.0579" lon="6.98218">
        <ele>798</ele>
        <time>2020-08-03T15:38:24Z</time>
      </trkpt>
      <trkpt lat="48.05789" lon="6.98215">
        <ele>799</ele>
        <time>2020-08-03T15:38:27Z</time>
      </trkpt>
      <trkpt lat="48.05793" lon="6.98191">
        <ele>800</ele>
        <time>2020-08-03T15:38:49Z</time>
      </trkpt>
      <trkpt lat="48.05805" lon="6.98193">
        <ele>797</ele>
        <time>2020-08-03T15:39:05Z</time>
      </trkpt>
      <trkpt lat="48.05811" lon="6.9819">
        <ele>796</ele>
        <time>2020-08-03T15:39:13Z</time>
      </trkpt>
      <trkpt lat="48.05818" lon="6.98192">
        <ele>794</ele>
        <time>2020-08-03T15:39:23Z</time>
      </trkpt>
      <trkpt lat="48.05819" lon="6.98189">
        <ele>794</ele>
        <time>2020-08-03T15:39:26Z</time>
      </trkpt>
      <trkpt lat="48.05814" lon="6.98169">
        <ele>796</ele>
        <time>2020-08-03T15:39:45Z</time>
      </trkpt>
      <trkpt lat="48.05819" lon="6.98161">
        <ele>794</ele>
        <time>2020-08-03T15:39:55Z</time>
      </trkpt>
      <trkpt lat="48.05813" lon="6.98158">
        <ele>796</ele>
        <time>2020-08-03T15:40:03Z</time>
      </trkpt>
      <trkpt lat="48.05819" lon="6.98142">
        <ele>793</ele>
        <time>2020-08-03T15:40:19Z</time>
      </trkpt>
      <trkpt lat="48.05804" lon="6.98111">
        <ele>799</ele>
        <time>2020-08-03T15:40:53Z</time>
      </trkpt>
      <trkpt lat="48.05807" lon="6.98087">
        <ele>797</ele>
        <time>2020-08-03T15:41:15Z</time>
      </trkpt>
      <trkpt lat="48.05803" lon="6.98043">
        <ele>797</ele>
        <time>2020-08-03T15:41:55Z</time>
      </trkpt>
      <trkpt lat="48.05807" lon="6.9802">
        <ele>793</ele>
        <time>2020-08-03T15:42:16Z</time>
      </trkpt>
      <trkpt lat="48.05812" lon="6.98017">
        <ele>790</ele>
        <time>2020-08-03T15:42:23Z</time>
      </trkpt>
      <trkpt lat="48.05814" lon="6.98023">
        <ele>789</ele>
        <time>2020-08-03T15:42:29Z</time>
      </trkpt>
      <trkpt lat="48.05807" lon="6.98047">
        <ele>795</ele>
        <time>2020-08-03T15:42:53Z</time>
      </trkpt>
      <trkpt lat="48.05811" lon="6.98048">
        <ele>793</ele>
        <time>2020-08-03T15:42:58Z</time>
      </trkpt>
      <trkpt lat="48.05808" lon="6.98021">
        <ele>793</ele>
        <time>2020-08-03T15:43:22Z</time>
      </trkpt>
      <trkpt lat="48.05814" lon="6.98005">
        <ele>788</ele>
        <time>2020-08-03T15:43:39Z</time>
      </trkpt>
      <trkpt lat="48.05818" lon="6.97956">
        <ele>788</ele>
        <time>2020-08-03T15:44:23Z</time>
      </trkpt>
      <trkpt lat="48.05836" lon="6.97919">
        <ele>781</ele>
        <time>2020-08-03T15:45:04Z</time>
      </trkpt>
      <trkpt lat="48.05845" lon="6.97889">
        <ele>782</ele>
        <time>2020-08-03T15:45:33Z</time>
      </trkpt>
      <trkpt lat="48.05845" lon="6.97846">
        <ele>788</ele>
        <time>2020-08-03T15:46:11Z</time>
      </trkpt>
      <trkpt lat="48.05838" lon="6.97827">
        <ele>794</ele>
        <time>2020-08-03T15:46:31Z</time>
      </trkpt>
      <trkpt lat="48.05839" lon="6.9782">
        <ele>795</ele>
        <time>2020-08-03T15:46:37Z</time>
      </trkpt>
      <trkpt lat="48.05856" lon="6.97805">
        <ele>792</ele>
        <time>2020-08-03T15:47:03Z</time>
      </trkpt>
      <trkpt lat="48.05867" lon="6.97784">
        <ele>792</ele>
        <time>2020-08-03T15:47:27Z</time>
      </trkpt>
      <trkpt lat="48.05886" lon="6.97765">
        <ele>786</ele>
        <time>2020-08-03T15:47:58Z</time>
      </trkpt>
      <trkpt lat="48.05896" lon="6.97741">
        <ele>786</ele>
        <time>2020-08-03T15:48:23Z</time>
      </trkpt>
      <trkpt lat="48.05919" lon="6.97708">
        <ele>780</ele>
        <time>2020-08-03T15:49:05Z</time>
      </trkpt>
      <trkpt lat="48.05923" lon="6.97695">
        <ele>781</ele>
        <time>2020-08-03T15:49:18Z</time>
      </trkpt>
      <trkpt lat="48.05936" lon="6.97686">
        <ele>779</ele>
        <time>2020-08-03T15:49:37Z</time>
      </trkpt>
      <trkpt lat="48.05947" lon="6.97664">
        <ele>778</ele>
        <time>2020-08-03T15:50:02Z</time>
      </trkpt>
      <trkpt lat="48.05946" lon="6.97641">
        <ele>780</ele>
        <time>2020-08-03T15:50:22Z</time>
      </trkpt>
      <trkpt lat="48.05957" lon="6.97617">
        <ele>777</ele>
        <time>2020-08-03T15:50:48Z</time>
      </trkpt>
      <trkpt lat="48.05959" lon="6.97589">
        <ele>777</ele>
        <time>2020-08-03T15:51:13Z</time>
      </trkpt>
      <trkpt lat="48.05967" lon="6.97556">
        <ele>775</ele>
        <time>2020-08-03T15:51:45Z</time>
      </trkpt>
      <trkpt lat="48.05965" lon="6.97498">
        <ele>778</ele>
        <time>2020-08-03T15:52:37Z</time>
      </trkpt>
      <trkpt lat="48.0596" lon="6.97482">
        <ele>782</ele>
        <time>2020-08-03T15:52:52Z</time>
      </trkpt>
      <trkpt lat="48.05964" lon="6.97474">
        <ele>780</ele>
        <time>2020-08-03T15:53:01Z</time>
      </trkpt>
      <trkpt lat="48.05963" lon="6.97451">
        <ele>782</ele>
        <time>2020-08-03T15:53:22Z</time>
      </trkpt>
      <trkpt lat="48.05974" lon="6.97383">
        <ele>780</ele>
        <time>2020-08-03T15:54:24Z</time>
      </trkpt>
      <trkpt lat="48.05983" lon="6.97361">
        <ele>777</ele>
        <time>2020-08-03T15:54:47Z</time>
      </trkpt>
      <trkpt lat="48.05985" lon="6.97363">
        <ele>776</ele>
        <time>2020-08-03T15:54:50Z</time>
      </trkpt>
      <trkpt lat="48.05979" lon="6.97345">
        <ele>781</ele>
        <time>2020-08-03T15:55:08Z</time>
      </trkpt>
      <trkpt lat="48.05978" lon="6.97318">
        <ele>782</ele>
        <time>2020-08-03T15:55:32Z</time>
      </trkpt>
      <trkpt lat="48.05962" lon="6.97274">
        <ele>789</ele>
        <time>2020-08-03T15:56:17Z</time>
      </trkpt>
      <trkpt lat="48.05966" lon="6.97252">
        <ele>787</ele>
        <time>2020-08-03T15:56:37Z</time>
      </trkpt>
      <trkpt lat="48.05974" lon="6.97236">
        <ele>783</ele>
        <time>2020-08-03T15:56:55Z</time>
      </trkpt>
      <trkpt lat="48.05983" lon="6.97201">
        <ele>781</ele>
        <time>2020-08-03T15:57:29Z</time>
      </trkpt>
      <trkpt lat="48.06018" lon="6.97155">
        <ele>771</ele>
        <time>2020-08-03T15:58:31Z</time>
      </trkpt>
      <trkpt lat="48.06024" lon="6.97136">
        <ele>771</ele>
        <time>2020-08-03T15:58:50Z</time>
      </trkpt>
      <trkpt lat="48.06025" lon="6.97102">
        <ele>773</ele>
        <time>2020-08-03T15:59:20Z</time>
      </trkpt>
      <trkpt lat="48.0604" lon="6.97096">
        <ele>769</ele>
        <time>2020-08-03T15:59:41Z</time>
      </trkpt>
      <trkpt lat="48.06078" lon="6.97041">
        <ele>757</ele>
        <time>2020-08-03T16:00:51Z</time>
      </trkpt>
      <trkpt lat="48.06075" lon="6.97015">
        <ele>757</ele>
        <time>2020-08-03T16:01:15Z</time>
      </trkpt>
      <trkpt lat="48.06081" lon="6.96953">
        <ele>758</ele>
        <time>2020-08-03T16:02:11Z</time>
      </trkpt>
      <trkpt lat="48.06089" lon="6.96932">
        <ele>758</ele>
        <time>2020-08-03T16:02:32Z</time>
      </trkpt>
      <trkpt lat="48.06107" lon="6.96911">
        <ele>757</ele>
        <time>2020-08-03T16:03:03Z</time>
      </trkpt>
      <trkpt lat="48.06112" lon="6.96888">
        <ele>757</ele>
        <time>2020-08-03T16:03:24Z</time>
      </trkpt>
      <trkpt lat="48.06111" lon="6.9688">
        <ele>757</ele>
        <time>2020-08-03T16:03:31Z</time>
      </trkpt>
      <trkpt lat="48.06093" lon="6.96863">
        <ele>761</ele>
        <time>2020-08-03T16:04:00Z</time>
      </trkpt>
      <trkpt lat="48.06083" lon="6.96822">
        <ele>764</ele>
        <time>2020-08-03T16:04:39Z</time>
      </trkpt>
      <trkpt lat="48.06095" lon="6.96752">
        <ele>761</ele>
        <time>2020-08-03T16:05:43Z</time>
      </trkpt>
      <trkpt lat="48.0609" lon="6.96708">
        <ele>762</ele>
        <time>2020-08-03T16:06:23Z</time>
      </trkpt>
      <trkpt lat="48.06099" lon="6.96694">
        <ele>759</ele>
        <time>2020-08-03T16:06:40Z</time>
      </trkpt>
      <trkpt lat="48.06093" lon="6.96612">
        <ele>759</ele>
        <time>2020-08-03T16:07:54Z</time>
      </trkpt>
      <trkpt lat="48.06096" lon="6.96561">
        <ele>757</ele>
        <time>2020-08-03T16:08:40Z</time>
      </trkpt>
      <trkpt lat="48.06107" lon="6.96516">
        <ele>754</ele>
        <time>2020-08-03T16:09:22Z</time>
      </trkpt>
      <trkpt lat="48.0611" lon="6.96433">
        <ele>755</ele>
        <time>2020-08-03T16:10:36Z</time>
      </trkpt>
      <trkpt lat="48.06115" lon="6.964">
        <ele>756</ele>
        <time>2020-08-03T16:11:07Z</time>
      </trkpt>
      <trkpt lat="48.06124" lon="6.96379">
        <ele>756</ele>
        <time>2020-08-03T16:11:29Z</time>
      </trkpt>
      <trkpt lat="48.06146" lon="6.96359">
        <ele>751</ele>
        <time>2020-08-03T16:12:03Z</time>
      </trkpt>
      <trkpt lat="48.06161" lon="6.96352">
        <ele>748</ele>
        <time>2020-08-03T16:12:24Z</time>
      </trkpt>
      <trkpt lat="48.06177" lon="6.96361">
        <ele>744</ele>
        <time>2020-08-03T16:12:47Z</time>
      </trkpt>
      <trkpt lat="48.06193" lon="6.96355">
        <ele>743</ele>
        <time>2020-08-03T16:13:09Z</time>
      </trkpt>
      <trkpt lat="48.06202" lon="6.96273">
        <ele>745</ele>
        <time>2020-08-03T16:14:23Z</time>
      </trkpt>
      <trkpt lat="48.06233" lon="6.96157">
        <ele>743</ele>
        <time>2020-08-03T16:16:15Z</time>
      </trkpt>
      <trkpt lat="48.06254" lon="6.96121">
        <ele>740</ele>
        <time>2020-08-03T16:16:57Z</time>
      </trkpt>
      <trkpt lat="48.06288" lon="6.9608">
        <ele>739</ele>
        <time>2020-08-03T16:17:55Z</time>
      </trkpt>
      <trkpt lat="48.06293" lon="6.96067">
        <ele>739</ele>
        <time>2020-08-03T16:18:09Z</time>
      </trkpt>
      <trkpt lat="48.06318" lon="6.96032">
        <ele>738</ele>
        <time>2020-08-03T16:18:55Z</time>
      </trkpt>
      <trkpt lat="48.06347" lon="6.95962">
        <ele>738</ele>
        <time>2020-08-03T16:20:08Z</time>
      </trkpt>
      <trkpt lat="48.06357" lon="6.95891">
        <ele>737</ele>
        <time>2020-08-03T16:21:13Z</time>
      </trkpt>
      <trkpt lat="48.06354" lon="6.95841">
        <ele>737</ele>
        <time>2020-08-03T16:21:57Z</time>
      </trkpt>
      <trkpt lat="48.06345" lon="6.95797">
        <ele>739</ele>
        <time>2020-08-03T16:22:39Z</time>
      </trkpt>
      <trkpt lat="48.06334" lon="6.95695">
        <ele>739</ele>
        <time>2020-08-03T16:24:11Z</time>
      </trkpt>
      <trkpt lat="48.06324" lon="6.95648">
        <ele>742</ele>
        <time>2020-08-03T16:24:55Z</time>
      </trkpt>
      <trkpt lat="48.06311" lon="6.95627">
        <ele>748</ele>
        <time>2020-08-03T16:25:20Z</time>
      </trkpt>
      <trkpt lat="48.06311" lon="6.95613">
        <ele>749</ele>
        <time>2020-08-03T16:25:33Z</time>
      </trkpt>
      <trkpt lat="48.06323" lon="6.95549">
        <ele>749</ele>
        <time>2020-08-03T16:26:32Z</time>
      </trkpt>
      <trkpt lat="48.06326" lon="6.95494">
        <ele>752</ele>
        <time>2020-08-03T16:27:21Z</time>
      </trkpt>
      <trkpt lat="48.06343" lon="6.95427">
        <ele>761</ele>
        <time>2020-08-03T16:28:25Z</time>
      </trkpt>
      <trkpt lat="48.06399" lon="6.95335">
        <ele>756</ele>
        <time>2020-08-03T16:30:16Z</time>
      </trkpt>
    </trkseg>
  </trk>
</gpx>